<?xml version='1.0' encoding='UTF-8'?><gpx version="1.1" creator="JPX - https://github.com/jenetics/jpx" xmlns="http://www.topografix.com/GPX/1/1"><trk><trkseg><trkpt lat="43.1080325" lon="12.442321"><ele>234.0</ele><time>2026-04-19T08:02:01.373Z</time></trkpt><trkpt lat="43.1079491" lon="12.4424115"><ele>234.0</ele><time>2026-04-19T08:02:02.39Z</time></trkpt><trkpt lat="43.1078655" lon="12.4425043"><ele>234.0</ele><time>2026-04-19T08:02:03.401Z</time></trkpt><trkpt lat="43.1077776" lon="12.4426076"><ele>234.0</ele><time>2026-04-19T08:02:04.392Z</time></trkpt><trkpt lat="43.1076881" lon="12.4427255"><ele>234.0</ele><time>2026-04-19T08:02:05.401Z</time></trkpt><trkpt lat="43.1076047" lon="12.4428518"><ele>234.0</ele><time>2026-04-19T08:02:06.414Z</time></trkpt><trkpt lat="43.1075273" lon="12.4429772"><ele>234.0</ele><time>2026-04-19T08:02:07.402Z</time></trkpt><trkpt lat="43.1074519" lon="12.4431147"><ele>234.0</ele><time>2026-04-19T08:02:08.417Z</time></trkpt><trkpt lat="43.1074069" lon="12.4432397"><ele>233.25</ele><time>2026-04-19T08:02:09.372Z</time></trkpt><trkpt lat="43.1073742" lon="12.4433983"><ele>232.5</ele><time>2026-04-19T08:02:10.35Z</time></trkpt><trkpt lat="43.1073435" lon="12.4435594"><ele>231.75</ele><time>2026-04-19T08:02:11.349Z</time></trkpt><trkpt lat="43.1073592" lon="12.4437585"><ele>231.0</ele><time>2026-04-19T08:02:12.446Z</time></trkpt><trkpt lat="43.1074167" lon="12.4440845"><ele>227.0</ele><time>2026-04-19T08:02:14.393Z</time></trkpt><trkpt lat="43.1074402" lon="12.4442175"><ele>223.0</ele><time>2026-04-19T08:02:15.333Z</time></trkpt><trkpt lat="43.1074612" lon="12.4443411"><ele>219.0</ele><time>2026-04-19T08:02:16.37Z</time></trkpt><trkpt lat="43.1074934" lon="12.4444392"><ele>215.0</ele><time>2026-04-19T08:02:17.442Z</time></trkpt><trkpt lat="43.1075258" lon="12.444532"><ele>211.0</ele><time>2026-04-19T08:02:18.427Z</time></trkpt><trkpt lat="43.1074788" lon="12.4446386"><ele>207.0</ele><time>2026-04-19T08:02:20.495Z</time></trkpt><trkpt lat="43.1072612" lon="12.4447493"><ele>205.8</ele><time>2026-04-19T08:02:22.369Z</time></trkpt><trkpt lat="43.1071606" lon="12.444752"><ele>204.6</ele><time>2026-04-19T08:02:23.373Z</time></trkpt><trkpt lat="43.1070602" lon="12.4447683"><ele>203.4</ele><time>2026-04-19T08:02:24.349Z</time></trkpt><trkpt lat="43.1069591" lon="12.4447732"><ele>202.20000000000002</ele><time>2026-04-19T08:02:25.39Z</time></trkpt><trkpt lat="43.1068717" lon="12.4447833"><ele>201.0</ele><time>2026-04-19T08:02:26.35Z</time></trkpt><trkpt lat="43.1067825" lon="12.4447869"><ele>201.0</ele><time>2026-04-19T08:02:27.404Z</time></trkpt><trkpt lat="43.1066959" lon="12.4447986"><ele>201.0</ele><time>2026-04-19T08:02:28.353Z</time></trkpt><trkpt lat="43.1066011" lon="12.4448243"><ele>201.0</ele><time>2026-04-19T08:02:29.329Z</time></trkpt><trkpt lat="43.1065255" lon="12.4448365"><ele>201.0</ele><time>2026-04-19T08:02:30.341Z</time></trkpt><trkpt lat="43.1064464" lon="12.4448512"><ele>201.0</ele><time>2026-04-19T08:02:31.336Z</time></trkpt><trkpt lat="43.106363" lon="12.4448832"><ele>201.0</ele><time>2026-04-19T08:02:32.378Z</time></trkpt><trkpt lat="43.1062958" lon="12.4449029"><ele>201.28571428571428</ele><time>2026-04-19T08:02:33.283Z</time></trkpt><trkpt lat="43.10622" lon="12.4449213"><ele>201.57142857142858</ele><time>2026-04-19T08:02:34.338Z</time></trkpt><trkpt lat="43.1061504" lon="12.4449459"><ele>201.85714285714286</ele><time>2026-04-19T08:02:35.328Z</time></trkpt><trkpt lat="43.1060843" lon="12.4449507"><ele>202.14285714285714</ele><time>2026-04-19T08:02:36.303Z</time></trkpt><trkpt lat="43.1060078" lon="12.4449691"><ele>202.42857142857144</ele><time>2026-04-19T08:02:37.355Z</time></trkpt><trkpt lat="43.1059339" lon="12.4449921"><ele>202.71428571428572</ele><time>2026-04-19T08:02:38.341Z</time></trkpt><trkpt lat="43.1058642" lon="12.4450172"><ele>203.0</ele><time>2026-04-19T08:02:39.32Z</time></trkpt><trkpt lat="43.10579" lon="12.445044"><ele>204.71428571428572</ele><time>2026-04-19T08:02:40.317Z</time></trkpt><trkpt lat="43.105725" lon="12.4450618"><ele>206.42857142857144</ele><time>2026-04-19T08:02:41.311Z</time></trkpt><trkpt lat="43.1056493" lon="12.4450836"><ele>208.14285714285714</ele><time>2026-04-19T08:02:42.353Z</time></trkpt><trkpt lat="43.1055802" lon="12.4451106"><ele>209.85714285714286</ele><time>2026-04-19T08:02:43.364Z</time></trkpt><trkpt lat="43.1055092" lon="12.445131"><ele>211.57142857142858</ele><time>2026-04-19T08:02:44.361Z</time></trkpt><trkpt lat="43.1054431" lon="12.4451518"><ele>213.28571428571428</ele><time>2026-04-19T08:02:45.345Z</time></trkpt><trkpt lat="43.1053688" lon="12.4451771"><ele>215.0</ele><time>2026-04-19T08:02:46.356Z</time></trkpt><trkpt lat="43.1052976" lon="12.445202"><ele>215.00000000000003</ele><time>2026-04-19T08:02:47.356Z</time></trkpt><trkpt lat="43.1052259" lon="12.4452252"><ele>215.0</ele><time>2026-04-19T08:02:48.381Z</time></trkpt><trkpt lat="43.1051609" lon="12.4452482"><ele>215.0</ele><time>2026-04-19T08:02:49.324Z</time></trkpt><trkpt lat="43.1050904" lon="12.4452769"><ele>215.0</ele><time>2026-04-19T08:02:50.311Z</time></trkpt><trkpt lat="43.1050092" lon="12.4453024"><ele>215.00000000000003</ele><time>2026-04-19T08:02:51.459Z</time></trkpt><trkpt lat="43.1048756" lon="12.4453454"><ele>215.0</ele><time>2026-04-19T08:02:53.346Z</time></trkpt><trkpt lat="43.1048036" lon="12.4453714"><ele>214.28571428571428</ele><time>2026-04-19T08:02:54.356Z</time></trkpt><trkpt lat="43.1047307" lon="12.4453957"><ele>213.57142857142858</ele><time>2026-04-19T08:02:55.345Z</time></trkpt><trkpt lat="43.1046596" lon="12.4454214"><ele>212.85714285714286</ele><time>2026-04-19T08:02:56.328Z</time></trkpt><trkpt lat="43.104591" lon="12.4454529"><ele>212.14285714285714</ele><time>2026-04-19T08:02:57.388Z</time></trkpt><trkpt lat="43.1045195" lon="12.4454801"><ele>211.42857142857144</ele><time>2026-04-19T08:02:58.37Z</time></trkpt><trkpt lat="43.1044534" lon="12.4455082"><ele>210.71428571428572</ele><time>2026-04-19T08:02:59.354Z</time></trkpt><trkpt lat="43.1043789" lon="12.4455406"><ele>210.0</ele><time>2026-04-19T08:03:00.354Z</time></trkpt><trkpt lat="43.1042971" lon="12.4455851"><ele>210.0</ele><time>2026-04-19T08:03:01.48Z</time></trkpt><trkpt lat="43.1041722" lon="12.4456539"><ele>210.0</ele><time>2026-04-19T08:03:03.331Z</time></trkpt><trkpt lat="43.1041065" lon="12.4456988"><ele>210.0</ele><time>2026-04-19T08:03:04.332Z</time></trkpt><trkpt lat="43.1040369" lon="12.4457493"><ele>210.0</ele><time>2026-04-19T08:03:05.323Z</time></trkpt><trkpt lat="43.1039656" lon="12.445803"><ele>210.0</ele><time>2026-04-19T08:03:06.387Z</time></trkpt><trkpt lat="43.1039026" lon="12.4458557"><ele>210.0</ele><time>2026-04-19T08:03:07.315Z</time></trkpt><trkpt lat="43.1038399" lon="12.4459083"><ele>212.85714285714286</ele><time>2026-04-19T08:03:08.353Z</time></trkpt><trkpt lat="43.1037707" lon="12.4459796"><ele>215.71428571428572</ele><time>2026-04-19T08:03:09.405Z</time></trkpt><trkpt lat="43.1037147" lon="12.4460224"><ele>218.57142857142856</ele><time>2026-04-19T08:03:10.338Z</time></trkpt><trkpt lat="43.1036503" lon="12.4460696"><ele>221.42857142857142</ele><time>2026-04-19T08:03:11.328Z</time></trkpt><trkpt lat="43.1035901" lon="12.4461165"><ele>224.28571428571428</ele><time>2026-04-19T08:03:12.322Z</time></trkpt><trkpt lat="43.1035241" lon="12.4461643"><ele>227.1428571428571</ele><time>2026-04-19T08:03:13.332Z</time></trkpt><trkpt lat="43.103463" lon="12.4462143"><ele>229.99999999999997</ele><time>2026-04-19T08:03:14.368Z</time></trkpt><trkpt lat="43.1033998" lon="12.4462657"><ele>227.85714285714283</ele><time>2026-04-19T08:03:15.331Z</time></trkpt><trkpt lat="43.1033328" lon="12.4463251"><ele>225.71428571428572</ele><time>2026-04-19T08:03:16.339Z</time></trkpt><trkpt lat="43.1032729" lon="12.4463899"><ele>223.57142857142856</ele><time>2026-04-19T08:03:17.333Z</time></trkpt><trkpt lat="43.1032147" lon="12.4464332"><ele>221.42857142857142</ele><time>2026-04-19T08:03:18.363Z</time></trkpt><trkpt lat="43.1031521" lon="12.4464727"><ele>219.28571428571428</ele><time>2026-04-19T08:03:19.34Z</time></trkpt><trkpt lat="43.1030895" lon="12.4465199"><ele>217.14285714285714</ele><time>2026-04-19T08:03:20.352Z</time></trkpt><trkpt lat="43.1030225" lon="12.4465771"><ele>215.0</ele><time>2026-04-19T08:03:21.344Z</time></trkpt><trkpt lat="43.1029576" lon="12.4466257"><ele>215.0</ele><time>2026-04-19T08:03:22.329Z</time></trkpt><trkpt lat="43.1028961" lon="12.4466811"><ele>215.0</ele><time>2026-04-19T08:03:23.345Z</time></trkpt><trkpt lat="43.1028337" lon="12.4467358"><ele>215.0</ele><time>2026-04-19T08:03:24.317Z</time></trkpt><trkpt lat="43.1027676" lon="12.4467906"><ele>215.0</ele><time>2026-04-19T08:03:25.322Z</time></trkpt><trkpt lat="43.1027082" lon="12.4468403"><ele>215.0</ele><time>2026-04-19T08:03:26.347Z</time></trkpt><trkpt lat="43.1026437" lon="12.4468974"><ele>215.0</ele><time>2026-04-19T08:03:27.361Z</time></trkpt><trkpt lat="43.1025869" lon="12.4469486"><ele>215.0</ele><time>2026-04-19T08:03:28.327Z</time></trkpt><trkpt lat="43.102523" lon="12.4470032"><ele>215.0</ele><time>2026-04-19T08:03:29.32Z</time></trkpt><trkpt lat="43.1024555" lon="12.4470612"><ele>215.0</ele><time>2026-04-19T08:03:30.355Z</time></trkpt><trkpt lat="43.1023957" lon="12.4471056"><ele>215.0</ele><time>2026-04-19T08:03:31.336Z</time></trkpt><trkpt lat="43.1023342" lon="12.4471602"><ele>215.0</ele><time>2026-04-19T08:03:32.352Z</time></trkpt><trkpt lat="43.1022717" lon="12.4472111"><ele>215.0</ele><time>2026-04-19T08:03:33.33Z</time></trkpt><trkpt lat="43.1022073" lon="12.4472673"><ele>215.0</ele><time>2026-04-19T08:03:34.367Z</time></trkpt><trkpt lat="43.1021475" lon="12.4473222"><ele>215.0</ele><time>2026-04-19T08:03:35.349Z</time></trkpt><trkpt lat="43.1020846" lon="12.4473756"><ele>213.33333333333334</ele><time>2026-04-19T08:03:36.327Z</time></trkpt><trkpt lat="43.1020212" lon="12.4474278"><ele>211.66666666666669</ele><time>2026-04-19T08:03:37.334Z</time></trkpt><trkpt lat="43.10196" lon="12.4474838"><ele>210.0</ele><time>2026-04-19T08:03:38.341Z</time></trkpt><trkpt lat="43.1019005" lon="12.4475359"><ele>208.33333333333331</ele><time>2026-04-19T08:03:39.348Z</time></trkpt><trkpt lat="43.1018376" lon="12.4475912"><ele>206.66666666666666</ele><time>2026-04-19T08:03:40.322Z</time></trkpt><trkpt lat="43.1017708" lon="12.4476497"><ele>205.0</ele><time>2026-04-19T08:03:41.318Z</time></trkpt><trkpt lat="43.1017042" lon="12.4477069"><ele>205.0</ele><time>2026-04-19T08:03:42.328Z</time></trkpt><trkpt lat="43.101642" lon="12.4477591"><ele>205.0</ele><time>2026-04-19T08:03:43.322Z</time></trkpt><trkpt lat="43.101564" lon="12.4478213"><ele>205.0</ele><time>2026-04-19T08:03:44.482Z</time></trkpt><trkpt lat="43.101449" lon="12.4479228"><ele>205.0</ele><time>2026-04-19T08:03:46.333Z</time></trkpt><trkpt lat="43.1013879" lon="12.4479811"><ele>205.0</ele><time>2026-04-19T08:03:47.337Z</time></trkpt><trkpt lat="43.1013231" lon="12.4480348"><ele>205.42857142857144</ele><time>2026-04-19T08:03:48.322Z</time></trkpt><trkpt lat="43.101259" lon="12.4480878"><ele>205.85714285714283</ele><time>2026-04-19T08:03:49.316Z</time></trkpt><trkpt lat="43.1011971" lon="12.4481425"><ele>206.28571428571428</ele><time>2026-04-19T08:03:50.323Z</time></trkpt><trkpt lat="43.1011333" lon="12.4481975"><ele>206.71428571428572</ele><time>2026-04-19T08:03:51.341Z</time></trkpt><trkpt lat="43.1010782" lon="12.4482538"><ele>207.14285714285717</ele><time>2026-04-19T08:03:52.33Z</time></trkpt><trkpt lat="43.1010195" lon="12.4483121"><ele>207.57142857142856</ele><time>2026-04-19T08:03:53.349Z</time></trkpt><trkpt lat="43.1009666" lon="12.4483648"><ele>208.0</ele><time>2026-04-19T08:03:54.32Z</time></trkpt><trkpt lat="43.1009183" lon="12.448429"><ele>208.0</ele><time>2026-04-19T08:03:55.319Z</time></trkpt><trkpt lat="43.1008679" lon="12.4484976"><ele>208.0</ele><time>2026-04-19T08:03:56.33Z</time></trkpt><trkpt lat="43.1008215" lon="12.4485727"><ele>208.0</ele><time>2026-04-19T08:03:57.332Z</time></trkpt><trkpt lat="43.1007749" lon="12.4486462"><ele>208.0</ele><time>2026-04-19T08:03:58.311Z</time></trkpt><trkpt lat="43.1007336" lon="12.4487255"><ele>208.0</ele><time>2026-04-19T08:03:59.329Z</time></trkpt><trkpt lat="43.1006914" lon="12.448819"><ele>208.0</ele><time>2026-04-19T08:04:00.42Z</time></trkpt><trkpt lat="43.1006574" lon="12.4488949"><ele>208.0</ele><time>2026-04-19T08:04:01.336Z</time></trkpt><trkpt lat="43.1006228" lon="12.44898"><ele>210.85714285714283</ele><time>2026-04-19T08:04:02.324Z</time></trkpt><trkpt lat="43.1005938" lon="12.4490714"><ele>213.71428571428572</ele><time>2026-04-19T08:04:03.34Z</time></trkpt><trkpt lat="43.100561" lon="12.4491538"><ele>216.57142857142856</ele><time>2026-04-19T08:04:04.309Z</time></trkpt><trkpt lat="43.1005259" lon="12.4492446"><ele>219.42857142857142</ele><time>2026-04-19T08:04:05.351Z</time></trkpt><trkpt lat="43.1004895" lon="12.4493305"><ele>222.28571428571428</ele><time>2026-04-19T08:04:06.356Z</time></trkpt><trkpt lat="43.1004543" lon="12.4494147"><ele>225.14285714285714</ele><time>2026-04-19T08:04:07.338Z</time></trkpt><trkpt lat="43.1004225" lon="12.4495019"><ele>228.0</ele><time>2026-04-19T08:04:08.337Z</time></trkpt><trkpt lat="43.1003939" lon="12.4496022"><ele>224.33333333333334</ele><time>2026-04-19T08:04:09.336Z</time></trkpt><trkpt lat="43.1003588" lon="12.4496892"><ele>220.66666666666669</ele><time>2026-04-19T08:04:10.344Z</time></trkpt><trkpt lat="43.100327" lon="12.4497768"><ele>217.0</ele><time>2026-04-19T08:04:11.306Z</time></trkpt><trkpt lat="43.1002968" lon="12.4498718"><ele>213.33333333333334</ele><time>2026-04-19T08:04:12.333Z</time></trkpt><trkpt lat="43.1002625" lon="12.4499684"><ele>209.66666666666669</ele><time>2026-04-19T08:04:13.442Z</time></trkpt><trkpt lat="43.1001941" lon="12.4501251"><ele>206.0</ele><time>2026-04-19T08:04:15.34Z</time></trkpt><trkpt lat="43.1001615" lon="12.4502129"><ele>206.00000000000003</ele><time>2026-04-19T08:04:16.335Z</time></trkpt><trkpt lat="43.1001252" lon="12.4502964"><ele>206.0</ele><time>2026-04-19T08:04:17.334Z</time></trkpt><trkpt lat="43.1000904" lon="12.4503841"><ele>206.0</ele><time>2026-04-19T08:04:18.367Z</time></trkpt><trkpt lat="43.1000594" lon="12.4504616"><ele>206.0</ele><time>2026-04-19T08:04:19.326Z</time></trkpt><trkpt lat="43.1000285" lon="12.4505462"><ele>206.00000000000003</ele><time>2026-04-19T08:04:20.323Z</time></trkpt><trkpt lat="43.099998" lon="12.4506376"><ele>206.0</ele><time>2026-04-19T08:04:21.327Z</time></trkpt><trkpt lat="43.0999402" lon="12.4507931"><ele>208.57142857142856</ele><time>2026-04-19T08:04:23.326Z</time></trkpt><trkpt lat="43.0999019" lon="12.4508881"><ele>211.14285714285714</ele><time>2026-04-19T08:04:24.408Z</time></trkpt><trkpt lat="43.0998717" lon="12.4509689"><ele>213.71428571428572</ele><time>2026-04-19T08:04:25.322Z</time></trkpt><trkpt lat="43.099837" lon="12.451051"><ele>216.28571428571428</ele><time>2026-04-19T08:04:26.336Z</time></trkpt><trkpt lat="43.0998034" lon="12.4511388"><ele>218.85714285714286</ele><time>2026-04-19T08:04:27.346Z</time></trkpt><trkpt lat="43.0997722" lon="12.4512189"><ele>221.42857142857142</ele><time>2026-04-19T08:04:28.33Z</time></trkpt><trkpt lat="43.0997389" lon="12.451298"><ele>224.0</ele><time>2026-04-19T08:04:29.336Z</time></trkpt><trkpt lat="43.0997088" lon="12.4513796"><ele>224.0</ele><time>2026-04-19T08:04:30.321Z</time></trkpt><trkpt lat="43.099668" lon="12.4514607"><ele>224.0</ele><time>2026-04-19T08:04:31.317Z</time></trkpt><trkpt lat="43.0996272" lon="12.4515425"><ele>224.0</ele><time>2026-04-19T08:04:32.345Z</time></trkpt><trkpt lat="43.0995949" lon="12.4516247"><ele>224.0</ele><time>2026-04-19T08:04:33.313Z</time></trkpt><trkpt lat="43.0995653" lon="12.4517067"><ele>224.0</ele><time>2026-04-19T08:04:34.342Z</time></trkpt><trkpt lat="43.0995351" lon="12.4517897"><ele>224.0</ele><time>2026-04-19T08:04:35.329Z</time></trkpt><trkpt lat="43.0995058" lon="12.4518689"><ele>224.0</ele><time>2026-04-19T08:04:36.321Z</time></trkpt><trkpt lat="43.099475" lon="12.4519538"><ele>224.0</ele><time>2026-04-19T08:04:37.344Z</time></trkpt><trkpt lat="43.0994415" lon="12.4520318"><ele>224.0</ele><time>2026-04-19T08:04:38.32Z</time></trkpt><trkpt lat="43.0994027" lon="12.4521082"><ele>224.0</ele><time>2026-04-19T08:04:39.338Z</time></trkpt><trkpt lat="43.0993649" lon="12.4521862"><ele>224.0</ele><time>2026-04-19T08:04:40.311Z</time></trkpt><trkpt lat="43.0993299" lon="12.4522698"><ele>224.0</ele><time>2026-04-19T08:04:41.328Z</time></trkpt><trkpt lat="43.0993038" lon="12.4523521"><ele>224.0</ele><time>2026-04-19T08:04:42.318Z</time></trkpt><trkpt lat="43.0992809" lon="12.4524402"><ele>224.0</ele><time>2026-04-19T08:04:43.345Z</time></trkpt><trkpt lat="43.0992504" lon="12.4525198"><ele>221.85714285714286</ele><time>2026-04-19T08:04:44.321Z</time></trkpt><trkpt lat="43.0992208" lon="12.4526029"><ele>219.71428571428572</ele><time>2026-04-19T08:04:45.328Z</time></trkpt><trkpt lat="43.0991918" lon="12.4526897"><ele>217.57142857142856</ele><time>2026-04-19T08:04:46.328Z</time></trkpt><trkpt lat="43.0991584" lon="12.4527783"><ele>215.42857142857144</ele><time>2026-04-19T08:04:47.38Z</time></trkpt><trkpt lat="43.099129" lon="12.452856"><ele>213.28571428571428</ele><time>2026-04-19T08:04:48.341Z</time></trkpt><trkpt lat="43.0990961" lon="12.4529314"><ele>211.14285714285714</ele><time>2026-04-19T08:04:49.337Z</time></trkpt><trkpt lat="43.0990561" lon="12.4530095"><ele>209.0</ele><time>2026-04-19T08:04:50.347Z</time></trkpt><trkpt lat="43.0990177" lon="12.4530867"><ele>209.0</ele><time>2026-04-19T08:04:51.304Z</time></trkpt><trkpt lat="43.0989788" lon="12.4531579"><ele>209.0</ele><time>2026-04-19T08:04:52.314Z</time></trkpt><trkpt lat="43.0989273" lon="12.4532287"><ele>209.0</ele><time>2026-04-19T08:04:53.335Z</time></trkpt><trkpt lat="43.098837" lon="12.4533436"><ele>209.0</ele><time>2026-04-19T08:04:55.348Z</time></trkpt><trkpt lat="43.0987438" lon="12.4534399"><ele>209.0</ele><time>2026-04-19T08:04:57.325Z</time></trkpt><trkpt lat="43.0986387" lon="12.453513"><ele>209.0</ele><time>2026-04-19T08:04:59.338Z</time></trkpt><trkpt lat="43.0985235" lon="12.4535804"><ele>209.0</ele><time>2026-04-19T08:05:01.353Z</time></trkpt><trkpt lat="43.0984099" lon="12.4536198"><ele>209.0</ele><time>2026-04-19T08:05:03.439Z</time></trkpt><trkpt lat="43.0982997" lon="12.4536621"><ele>209.0</ele><time>2026-04-19T08:05:05.317Z</time></trkpt><trkpt lat="43.098213" lon="12.4536616"><ele>209.0</ele><time>2026-04-19T08:05:07.37Z</time></trkpt><trkpt lat="43.0981293" lon="12.4535995"><ele>208.0</ele><time>2026-04-19T08:05:09.338Z</time></trkpt><trkpt lat="43.0980221" lon="12.4535772"><ele>207.0</ele><time>2026-04-19T08:05:11.37Z</time></trkpt><trkpt lat="43.0979215" lon="12.4535465"><ele>206.0</ele><time>2026-04-19T08:05:13.305Z</time></trkpt><trkpt lat="43.0978136" lon="12.4535216"><ele>205.0</ele><time>2026-04-19T08:05:15.326Z</time></trkpt><trkpt lat="43.0977103" lon="12.4534923"><ele>204.0</ele><time>2026-04-19T08:05:17.327Z</time></trkpt><trkpt lat="43.0976038" lon="12.453473"><ele>204.0</ele><time>2026-04-19T08:05:19.325Z</time></trkpt><trkpt lat="43.0974994" lon="12.453461"><ele>204.0</ele><time>2026-04-19T08:05:21.312Z</time></trkpt><trkpt lat="43.0973921" lon="12.45344"><ele>204.0</ele><time>2026-04-19T08:05:23.335Z</time></trkpt><trkpt lat="43.0972825" lon="12.453402"><ele>204.0</ele><time>2026-04-19T08:05:25.353Z</time></trkpt><trkpt lat="43.0972245" lon="12.453366"><ele>204.0</ele><time>2026-04-19T08:05:26.348Z</time></trkpt><trkpt lat="43.0971295" lon="12.4532631"><ele>203.0</ele><time>2026-04-19T08:05:28.345Z</time></trkpt><trkpt lat="43.0970523" lon="12.4531368"><ele>202.0</ele><time>2026-04-19T08:05:30.335Z</time></trkpt><trkpt lat="43.0969733" lon="12.4530059"><ele>201.0</ele><time>2026-04-19T08:05:32.325Z</time></trkpt><trkpt lat="43.0969289" lon="12.4529375"><ele>200.0</ele><time>2026-04-19T08:05:33.349Z</time></trkpt><trkpt lat="43.0968488" lon="12.4528087"><ele>199.0</ele><time>2026-04-19T08:05:35.328Z</time></trkpt><trkpt lat="43.0967726" lon="12.4526809"><ele>198.99999999999997</ele><time>2026-04-19T08:05:37.364Z</time></trkpt><trkpt lat="43.0966859" lon="12.4525617"><ele>199.0</ele><time>2026-04-19T08:05:39.343Z</time></trkpt><trkpt lat="43.0966435" lon="12.452495"><ele>199.0</ele><time>2026-04-19T08:05:40.355Z</time></trkpt><trkpt lat="43.0965995" lon="12.4524304"><ele>199.0</ele><time>2026-04-19T08:05:41.35Z</time></trkpt><trkpt lat="43.0965509" lon="12.4523715"><ele>199.0</ele><time>2026-04-19T08:05:42.332Z</time></trkpt><trkpt lat="43.0965017" lon="12.4523111"><ele>198.99999999999997</ele><time>2026-04-19T08:05:43.316Z</time></trkpt><trkpt lat="43.0964511" lon="12.4522545"><ele>199.0</ele><time>2026-04-19T08:05:44.327Z</time></trkpt><trkpt lat="43.0963993" lon="12.4521953"><ele>197.2</ele><time>2026-04-19T08:05:45.312Z</time></trkpt><trkpt lat="43.096299" lon="12.4520638"><ele>195.39999999999998</ele><time>2026-04-19T08:05:47.359Z</time></trkpt><trkpt lat="43.0962452" lon="12.4519914"><ele>193.6</ele><time>2026-04-19T08:05:48.451Z</time></trkpt><trkpt lat="43.0961658" lon="12.4518519"><ele>191.8</ele><time>2026-04-19T08:05:50.339Z</time></trkpt><trkpt lat="43.0961255" lon="12.45178"><ele>190.0</ele><time>2026-04-19T08:05:51.346Z</time></trkpt><trkpt lat="43.0960938" lon="12.451697"><ele>190.0</ele><time>2026-04-19T08:05:52.37Z</time></trkpt><trkpt lat="43.096067" lon="12.4516143"><ele>190.0</ele><time>2026-04-19T08:05:53.359Z</time></trkpt><trkpt lat="43.0960384" lon="12.4515246"><ele>190.0</ele><time>2026-04-19T08:05:54.458Z</time></trkpt><trkpt lat="43.0959834" lon="12.4513725"><ele>190.0</ele><time>2026-04-19T08:05:56.34Z</time></trkpt><trkpt lat="43.095951" lon="12.4512934"><ele>190.0</ele><time>2026-04-19T08:05:57.36Z</time></trkpt><trkpt lat="43.0958966" lon="12.4511404"><ele>190.0</ele><time>2026-04-19T08:05:59.317Z</time></trkpt><trkpt lat="43.0958657" lon="12.4510652"><ele>190.0</ele><time>2026-04-19T08:06:00.345Z</time></trkpt><trkpt lat="43.0958042" lon="12.4509219"><ele>190.0</ele><time>2026-04-19T08:06:02.342Z</time></trkpt><trkpt lat="43.095779" lon="12.4508394"><ele>190.0</ele><time>2026-04-19T08:06:03.359Z</time></trkpt><trkpt lat="43.0957503" lon="12.4507591"><ele>190.0</ele><time>2026-04-19T08:06:04.349Z</time></trkpt><trkpt lat="43.0956926" lon="12.4506054"><ele>190.0</ele><time>2026-04-19T08:06:06.347Z</time></trkpt><trkpt lat="43.0956357" lon="12.4504425"><ele>189.6</ele><time>2026-04-19T08:06:08.361Z</time></trkpt><trkpt lat="43.0956039" lon="12.4503484"><ele>189.2</ele><time>2026-04-19T08:06:09.405Z</time></trkpt><trkpt lat="43.0955458" lon="12.4501894"><ele>188.8</ele><time>2026-04-19T08:06:11.364Z</time></trkpt><trkpt lat="43.0955211" lon="12.450109"><ele>188.4</ele><time>2026-04-19T08:06:12.415Z</time></trkpt><trkpt lat="43.0954765" lon="12.4499535"><ele>188.0</ele><time>2026-04-19T08:06:14.329Z</time></trkpt><trkpt lat="43.0954457" lon="12.4498733"><ele>188.0</ele><time>2026-04-19T08:06:15.351Z</time></trkpt><trkpt lat="43.0954124" lon="12.4497961"><ele>188.0</ele><time>2026-04-19T08:06:16.365Z</time></trkpt><trkpt lat="43.0953856" lon="12.4497146"><ele>188.0</ele><time>2026-04-19T08:06:17.338Z</time></trkpt><trkpt lat="43.0953557" lon="12.4496239"><ele>188.0</ele><time>2026-04-19T08:06:18.412Z</time></trkpt><trkpt lat="43.0953221" lon="12.4495457"><ele>188.0</ele><time>2026-04-19T08:06:19.377Z</time></trkpt><trkpt lat="43.0952916" lon="12.449466"><ele>188.0</ele><time>2026-04-19T08:06:20.347Z</time></trkpt><trkpt lat="43.0952582" lon="12.44939"><ele>188.0</ele><time>2026-04-19T08:06:21.346Z</time></trkpt><trkpt lat="43.0952178" lon="12.4493134"><ele>188.0</ele><time>2026-04-19T08:06:22.413Z</time></trkpt><trkpt lat="43.0951355" lon="12.4491921"><ele>188.0</ele><time>2026-04-19T08:06:24.358Z</time></trkpt><trkpt lat="43.0950832" lon="12.4491428"><ele>188.0</ele><time>2026-04-19T08:06:25.351Z</time></trkpt><trkpt lat="43.0950237" lon="12.4491049"><ele>188.0</ele><time>2026-04-19T08:06:26.343Z</time></trkpt><trkpt lat="43.0949659" lon="12.4490691"><ele>188.0</ele><time>2026-04-19T08:06:27.343Z</time></trkpt><trkpt lat="43.0948962" lon="12.4490476"><ele>188.0</ele><time>2026-04-19T08:06:28.376Z</time></trkpt><trkpt lat="43.0948282" lon="12.4490382"><ele>188.0</ele><time>2026-04-19T08:06:29.4Z</time></trkpt><trkpt lat="43.0946959" lon="12.449044"><ele>188.0</ele><time>2026-04-19T08:06:31.329Z</time></trkpt><trkpt lat="43.0946186" lon="12.4490646"><ele>188.0</ele><time>2026-04-19T08:06:32.427Z</time></trkpt><trkpt lat="43.0944868" lon="12.4491026"><ele>188.0</ele><time>2026-04-19T08:06:34.352Z</time></trkpt><trkpt lat="43.0943648" lon="12.4491355"><ele>188.0</ele><time>2026-04-19T08:06:36.346Z</time></trkpt><trkpt lat="43.094238" lon="12.4491599"><ele>188.0</ele><time>2026-04-19T08:06:38.336Z</time></trkpt><trkpt lat="43.0941743" lon="12.4491654"><ele>188.0</ele><time>2026-04-19T08:06:39.336Z</time></trkpt><trkpt lat="43.0941055" lon="12.4491728"><ele>188.0</ele><time>2026-04-19T08:06:40.365Z</time></trkpt><trkpt lat="43.0940407" lon="12.449186"><ele>188.0</ele><time>2026-04-19T08:06:41.35Z</time></trkpt><trkpt lat="43.0939752" lon="12.4491993"><ele>188.0</ele><time>2026-04-19T08:06:42.34Z</time></trkpt><trkpt lat="43.0938427" lon="12.449226"><ele>188.16666666666666</ele><time>2026-04-19T08:06:44.451Z</time></trkpt><trkpt lat="43.0937198" lon="12.4492515"><ele>188.33333333333331</ele><time>2026-04-19T08:06:46.364Z</time></trkpt><trkpt lat="43.0936553" lon="12.4492644"><ele>188.5</ele><time>2026-04-19T08:06:47.364Z</time></trkpt><trkpt lat="43.0935903" lon="12.4492775"><ele>188.66666666666666</ele><time>2026-04-19T08:06:48.398Z</time></trkpt><trkpt lat="43.0934652" lon="12.4493096"><ele>188.83333333333334</ele><time>2026-04-19T08:06:50.353Z</time></trkpt><trkpt lat="43.0934006" lon="12.4493238"><ele>189.0</ele><time>2026-04-19T08:06:51.333Z</time></trkpt><trkpt lat="43.0933337" lon="12.4493396"><ele>189.0</ele><time>2026-04-19T08:06:52.363Z</time></trkpt><trkpt lat="43.0932683" lon="12.4493656"><ele>189.0</ele><time>2026-04-19T08:06:53.415Z</time></trkpt><trkpt lat="43.0931545" lon="12.4493953"><ele>189.0</ele><time>2026-04-19T08:06:55.333Z</time></trkpt><trkpt lat="43.0930818" lon="12.4494005"><ele>189.0</ele><time>2026-04-19T08:06:56.351Z</time></trkpt><trkpt lat="43.0930085" lon="12.4494078"><ele>189.0</ele><time>2026-04-19T08:06:57.334Z</time></trkpt><trkpt lat="43.0929231" lon="12.4494198"><ele>189.0</ele><time>2026-04-19T08:06:58.508Z</time></trkpt><trkpt lat="43.0928183" lon="12.4494295"><ele>188.5</ele><time>2026-04-19T08:07:00.296Z</time></trkpt><trkpt lat="43.0927506" lon="12.4494411"><ele>188.0</ele><time>2026-04-19T08:07:01.409Z</time></trkpt><trkpt lat="43.0926207" lon="12.4494725"><ele>187.5</ele><time>2026-04-19T08:07:03.325Z</time></trkpt><trkpt lat="43.0925527" lon="12.4494843"><ele>187.0</ele><time>2026-04-19T08:07:04.351Z</time></trkpt><trkpt lat="43.0924786" lon="12.4495178"><ele>186.5</ele><time>2026-04-19T08:07:05.343Z</time></trkpt><trkpt lat="43.0924055" lon="12.4495258"><ele>186.0</ele><time>2026-04-19T08:07:06.331Z</time></trkpt><trkpt lat="43.0922952" lon="12.4495594"><ele>186.0</ele><time>2026-04-19T08:07:08.337Z</time></trkpt><trkpt lat="43.0922232" lon="12.4495747"><ele>186.0</ele><time>2026-04-19T08:07:09.402Z</time></trkpt><trkpt lat="43.0920986" lon="12.4496107"><ele>186.0</ele><time>2026-04-19T08:07:11.345Z</time></trkpt><trkpt lat="43.0919733" lon="12.44963"><ele>186.0</ele><time>2026-04-19T08:07:13.342Z</time></trkpt><trkpt lat="43.0918415" lon="12.4496464"><ele>185.83333333333334</ele><time>2026-04-19T08:07:15.368Z</time></trkpt><trkpt lat="43.0917161" lon="12.4496771"><ele>185.66666666666666</ele><time>2026-04-19T08:07:17.36Z</time></trkpt><trkpt lat="43.091653" lon="12.4496789"><ele>185.5</ele><time>2026-04-19T08:07:18.359Z</time></trkpt><trkpt lat="43.0915884" lon="12.4496636"><ele>185.33333333333331</ele><time>2026-04-19T08:07:19.322Z</time></trkpt><trkpt lat="43.0915295" lon="12.4496136"><ele>185.16666666666666</ele><time>2026-04-19T08:07:20.334Z</time></trkpt><trkpt lat="43.0914853" lon="12.4495397"><ele>185.0</ele><time>2026-04-19T08:07:21.35Z</time></trkpt><trkpt lat="43.0914577" lon="12.449456"><ele>184.8</ele><time>2026-04-19T08:07:22.344Z</time></trkpt><trkpt lat="43.0914503" lon="12.4493649"><ele>184.6</ele><time>2026-04-19T08:07:23.328Z</time></trkpt><trkpt lat="43.0914575" lon="12.4492732"><ele>184.39999999999998</ele><time>2026-04-19T08:07:24.343Z</time></trkpt><trkpt lat="43.0914617" lon="12.4491832"><ele>184.2</ele><time>2026-04-19T08:07:25.343Z</time></trkpt><trkpt lat="43.0914709" lon="12.4490051"><ele>184.0</ele><time>2026-04-19T08:07:27.443Z</time></trkpt><trkpt lat="43.091485" lon="12.4488365"><ele>184.5</ele><time>2026-04-19T08:07:29.386Z</time></trkpt><trkpt lat="43.0914916" lon="12.448673"><ele>185.0</ele><time>2026-04-19T08:07:31.349Z</time></trkpt><trkpt lat="43.0915097" lon="12.4485089"><ele>185.5</ele><time>2026-04-19T08:07:33.342Z</time></trkpt><trkpt lat="43.0915251" lon="12.4483346"><ele>186.0</ele><time>2026-04-19T08:07:35.41Z</time></trkpt><trkpt lat="43.0915388" lon="12.4481806"><ele>186.0</ele><time>2026-04-19T08:07:37.303Z</time></trkpt><trkpt lat="43.0915497" lon="12.4480185"><ele>186.0</ele><time>2026-04-19T08:07:39.316Z</time></trkpt><trkpt lat="43.0915677" lon="12.4478616"><ele>186.0</ele><time>2026-04-19T08:07:41.317Z</time></trkpt><trkpt lat="43.0915749" lon="12.4477029"><ele>186.0</ele><time>2026-04-19T08:07:43.332Z</time></trkpt><trkpt lat="43.0915799" lon="12.4475471"><ele>186.25</ele><time>2026-04-19T08:07:45.309Z</time></trkpt><trkpt lat="43.0915897" lon="12.4473965"><ele>186.5</ele><time>2026-04-19T08:07:47.322Z</time></trkpt><trkpt lat="43.0916003" lon="12.4472483"><ele>186.75</ele><time>2026-04-19T08:07:49.335Z</time></trkpt><trkpt lat="43.0916086" lon="12.4470451"><ele>187.0</ele><time>2026-04-19T08:07:52.328Z</time></trkpt><trkpt lat="43.0916346" lon="12.4469123"><ele>187.2</ele><time>2026-04-19T08:07:54.345Z</time></trkpt><trkpt lat="43.0916448" lon="12.4467776"><ele>187.39999999999998</ele><time>2026-04-19T08:07:56.314Z</time></trkpt><trkpt lat="43.0916504" lon="12.4466255"><ele>187.60000000000002</ele><time>2026-04-19T08:07:58.337Z</time></trkpt><trkpt lat="43.0916619" lon="12.4464835"><ele>187.8</ele><time>2026-04-19T08:08:00.341Z</time></trkpt><trkpt lat="43.0916678" lon="12.4463369"><ele>188.0</ele><time>2026-04-19T08:08:02.363Z</time></trkpt><trkpt lat="43.0916751" lon="12.4462023"><ele>188.2</ele><time>2026-04-19T08:08:04.321Z</time></trkpt><trkpt lat="43.0916881" lon="12.446053"><ele>188.4</ele><time>2026-04-19T08:08:06.446Z</time></trkpt><trkpt lat="43.091698" lon="12.4459196"><ele>188.6</ele><time>2026-04-19T08:08:08.332Z</time></trkpt><trkpt lat="43.0917098" lon="12.4457784"><ele>188.79999999999998</ele><time>2026-04-19T08:08:10.331Z</time></trkpt><trkpt lat="43.091719" lon="12.4456407"><ele>189.0</ele><time>2026-04-19T08:08:12.327Z</time></trkpt><trkpt lat="43.0917317" lon="12.4454999"><ele>189.2</ele><time>2026-04-19T08:08:14.326Z</time></trkpt><trkpt lat="43.0917435" lon="12.4453593"><ele>189.39999999999998</ele><time>2026-04-19T08:08:16.324Z</time></trkpt><trkpt lat="43.0917423" lon="12.4452134"><ele>189.6</ele><time>2026-04-19T08:08:18.389Z</time></trkpt><trkpt lat="43.0917473" lon="12.4450748"><ele>189.8</ele><time>2026-04-19T08:08:20.322Z</time></trkpt><trkpt lat="43.0917757" lon="12.4449337"><ele>190.0</ele><time>2026-04-19T08:08:22.357Z</time></trkpt><trkpt lat="43.0917781" lon="12.4448012"><ele>190.0</ele><time>2026-04-19T08:08:24.327Z</time></trkpt><trkpt lat="43.0917694" lon="12.4446694"><ele>190.0</ele><time>2026-04-19T08:08:26.362Z</time></trkpt><trkpt lat="43.0917256" lon="12.4445691"><ele>190.0</ele><time>2026-04-19T08:08:28.299Z</time></trkpt><trkpt lat="43.0916178" lon="12.4445985"><ele>190.0</ele><time>2026-04-19T08:08:30.433Z</time></trkpt><trkpt lat="43.091559" lon="12.4446953"><ele>190.0</ele><time>2026-04-19T08:08:32.342Z</time></trkpt><trkpt lat="43.0914827" lon="12.4448028"><ele>190.0</ele><time>2026-04-19T08:08:34.333Z</time></trkpt><trkpt lat="43.0913965" lon="12.444916"><ele>190.0</ele><time>2026-04-19T08:08:36.373Z</time></trkpt><trkpt lat="43.0913271" lon="12.4450193"><ele>190.0</ele><time>2026-04-19T08:08:38.345Z</time></trkpt><trkpt lat="43.0912388" lon="12.445113"><ele>190.0</ele><time>2026-04-19T08:08:40.35Z</time></trkpt><trkpt lat="43.091145" lon="12.4451926"><ele>190.0</ele><time>2026-04-19T08:08:42.342Z</time></trkpt><trkpt lat="43.0910435" lon="12.4452751"><ele>190.0</ele><time>2026-04-19T08:08:44.356Z</time></trkpt><trkpt lat="43.0909285" lon="12.4453431"><ele>190.0</ele><time>2026-04-19T08:08:46.327Z</time></trkpt><trkpt lat="43.0908656" lon="12.4453839"><ele>190.0</ele><time>2026-04-19T08:08:47.37Z</time></trkpt><trkpt lat="43.0907571" lon="12.4454195"><ele>190.0</ele><time>2026-04-19T08:08:49.378Z</time></trkpt><trkpt lat="43.090644" lon="12.445441"><ele>190.0</ele><time>2026-04-19T08:08:51.338Z</time></trkpt><trkpt lat="43.0905297" lon="12.4454764"><ele>190.0</ele><time>2026-04-19T08:08:53.347Z</time></trkpt><trkpt lat="43.0904199" lon="12.4455042"><ele>190.0</ele><time>2026-04-19T08:08:55.366Z</time></trkpt><trkpt lat="43.0903094" lon="12.4455317"><ele>190.0</ele><time>2026-04-19T08:08:57.309Z</time></trkpt><trkpt lat="43.0902474" lon="12.44556"><ele>190.0</ele><time>2026-04-19T08:08:58.452Z</time></trkpt><trkpt lat="43.0901471" lon="12.4455772"><ele>190.0</ele><time>2026-04-19T08:09:00.353Z</time></trkpt><trkpt lat="43.090084" lon="12.4455913"><ele>190.0</ele><time>2026-04-19T08:09:01.376Z</time></trkpt><trkpt lat="43.0899607" lon="12.445621"><ele>190.0</ele><time>2026-04-19T08:09:03.361Z</time></trkpt><trkpt lat="43.0898974" lon="12.4456352"><ele>190.0</ele><time>2026-04-19T08:09:04.345Z</time></trkpt><trkpt lat="43.0898365" lon="12.4456581"><ele>190.0</ele><time>2026-04-19T08:09:05.394Z</time></trkpt><trkpt lat="43.0897112" lon="12.4456995"><ele>190.0</ele><time>2026-04-19T08:09:07.468Z</time></trkpt><trkpt lat="43.0896078" lon="12.4457326"><ele>189.8</ele><time>2026-04-19T08:09:09.347Z</time></trkpt><trkpt lat="43.0894959" lon="12.4457827"><ele>189.6</ele><time>2026-04-19T08:09:11.352Z</time></trkpt><trkpt lat="43.0894331" lon="12.4458055"><ele>189.39999999999998</ele><time>2026-04-19T08:09:12.38Z</time></trkpt><trkpt lat="43.0893205" lon="12.4458398"><ele>189.2</ele><time>2026-04-19T08:09:14.403Z</time></trkpt><trkpt lat="43.0892146" lon="12.4458788"><ele>189.0</ele><time>2026-04-19T08:09:16.4Z</time></trkpt><trkpt lat="43.0890963" lon="12.4459103"><ele>189.25</ele><time>2026-04-19T08:09:18.358Z</time></trkpt><trkpt lat="43.0889706" lon="12.445939"><ele>189.5</ele><time>2026-04-19T08:09:20.43Z</time></trkpt><trkpt lat="43.088865" lon="12.445972"><ele>189.75</ele><time>2026-04-19T08:09:22.33Z</time></trkpt><trkpt lat="43.0887491" lon="12.4460061"><ele>190.0</ele><time>2026-04-19T08:09:24.366Z</time></trkpt><trkpt lat="43.0886373" lon="12.4460435"><ele>190.0</ele><time>2026-04-19T08:09:26.458Z</time></trkpt><trkpt lat="43.0885373" lon="12.4460787"><ele>190.0</ele><time>2026-04-19T08:09:28.359Z</time></trkpt><trkpt lat="43.0884296" lon="12.4461085"><ele>190.0</ele><time>2026-04-19T08:09:30.363Z</time></trkpt><trkpt lat="43.0883241" lon="12.4461408"><ele>190.0</ele><time>2026-04-19T08:09:32.341Z</time></trkpt><trkpt lat="43.0882105" lon="12.4461643"><ele>190.0</ele><time>2026-04-19T08:09:34.406Z</time></trkpt><trkpt lat="43.0881049" lon="12.446195"><ele>190.0</ele><time>2026-04-19T08:09:36.345Z</time></trkpt><trkpt lat="43.0879895" lon="12.446221"><ele>190.0</ele><time>2026-04-19T08:09:38.379Z</time></trkpt><trkpt lat="43.0878753" lon="12.4462547"><ele>190.0</ele><time>2026-04-19T08:09:40.387Z</time></trkpt><trkpt lat="43.087762" lon="12.4462922"><ele>190.0</ele><time>2026-04-19T08:09:42.346Z</time></trkpt><trkpt lat="43.0876426" lon="12.4463246"><ele>190.0</ele><time>2026-04-19T08:09:44.396Z</time></trkpt><trkpt lat="43.0875309" lon="12.4463584"><ele>190.0</ele><time>2026-04-19T08:09:46.324Z</time></trkpt><trkpt lat="43.0874197" lon="12.4463933"><ele>190.0</ele><time>2026-04-19T08:09:48.301Z</time></trkpt><trkpt lat="43.087317" lon="12.4464598"><ele>190.0</ele><time>2026-04-19T08:09:50.038Z</time></trkpt><trkpt lat="43.0871777" lon="12.4464686"><ele>189.6</ele><time>2026-04-19T08:09:52.039Z</time></trkpt><trkpt lat="43.0870865" lon="12.4464975"><ele>189.2</ele><time>2026-04-19T08:09:54.038Z</time></trkpt><trkpt lat="43.0869747" lon="12.4465398"><ele>188.8</ele><time>2026-04-19T08:09:56.344Z</time></trkpt><trkpt lat="43.0868574" lon="12.4465646"><ele>188.4</ele><time>2026-04-19T08:09:58.349Z</time></trkpt><trkpt lat="43.0867409" lon="12.446601"><ele>188.0</ele><time>2026-04-19T08:10:00.37Z</time></trkpt><trkpt lat="43.0866305" lon="12.4466294"><ele>188.2</ele><time>2026-04-19T08:10:02.351Z</time></trkpt><trkpt lat="43.0865166" lon="12.4466393"><ele>188.4</ele><time>2026-04-19T08:10:04.389Z</time></trkpt><trkpt lat="43.086405" lon="12.4466377"><ele>188.6</ele><time>2026-04-19T08:10:06.468Z</time></trkpt><trkpt lat="43.0863078" lon="12.4465941"><ele>188.79999999999998</ele><time>2026-04-19T08:10:08.411Z</time></trkpt><trkpt lat="43.0862356" lon="12.4464969"><ele>189.0</ele><time>2026-04-19T08:10:10.335Z</time></trkpt><trkpt lat="43.0861708" lon="12.4463805"><ele>189.2</ele><time>2026-04-19T08:10:12.35Z</time></trkpt><trkpt lat="43.0861053" lon="12.4462479"><ele>189.39999999999998</ele><time>2026-04-19T08:10:14.367Z</time></trkpt><trkpt lat="43.0860394" lon="12.4461233"><ele>189.6</ele><time>2026-04-19T08:10:16.394Z</time></trkpt><trkpt lat="43.0859721" lon="12.4460061"><ele>189.8</ele><time>2026-04-19T08:10:18.376Z</time></trkpt><trkpt lat="43.0859087" lon="12.4458838"><ele>190.0</ele><time>2026-04-19T08:10:20.366Z</time></trkpt><trkpt lat="43.0858495" lon="12.4457534"><ele>190.0</ele><time>2026-04-19T08:10:22.346Z</time></trkpt><trkpt lat="43.0857866" lon="12.4456179"><ele>190.0</ele><time>2026-04-19T08:10:24.401Z</time></trkpt><trkpt lat="43.0857185" lon="12.4455117"><ele>190.0</ele><time>2026-04-19T08:10:26.366Z</time></trkpt><trkpt lat="43.0856524" lon="12.4453943"><ele>190.0</ele><time>2026-04-19T08:10:28.387Z</time></trkpt><trkpt lat="43.0855814" lon="12.4452774"><ele>190.0</ele><time>2026-04-19T08:10:30.41Z</time></trkpt><trkpt lat="43.085506" lon="12.4451528"><ele>190.0</ele><time>2026-04-19T08:10:32.496Z</time></trkpt><trkpt lat="43.0854409" lon="12.4450408"><ele>190.0</ele><time>2026-04-19T08:10:34.389Z</time></trkpt><trkpt lat="43.0853709" lon="12.4449168"><ele>190.0</ele><time>2026-04-19T08:10:36.37Z</time></trkpt><trkpt lat="43.0852957" lon="12.4447957"><ele>190.0</ele><time>2026-04-19T08:10:38.36Z</time></trkpt><trkpt lat="43.0852249" lon="12.4446719"><ele>190.0</ele><time>2026-04-19T08:10:40.344Z</time></trkpt><trkpt lat="43.0851503" lon="12.4445491"><ele>190.0</ele><time>2026-04-19T08:10:42.364Z</time></trkpt><trkpt lat="43.0850825" lon="12.4444188"><ele>190.0</ele><time>2026-04-19T08:10:44.388Z</time></trkpt><trkpt lat="43.0850076" lon="12.4443005"><ele>190.0</ele><time>2026-04-19T08:10:46.41Z</time></trkpt><trkpt lat="43.0849364" lon="12.4441749"><ele>190.0</ele><time>2026-04-19T08:10:48.443Z</time></trkpt><trkpt lat="43.0848771" lon="12.4440556"><ele>190.0</ele><time>2026-04-19T08:10:50.372Z</time></trkpt><trkpt lat="43.0848048" lon="12.4439394"><ele>190.0</ele><time>2026-04-19T08:10:52.386Z</time></trkpt><trkpt lat="43.0847297" lon="12.4438286"><ele>190.0</ele><time>2026-04-19T08:10:54.394Z</time></trkpt><trkpt lat="43.0846617" lon="12.4437085"><ele>190.0</ele><time>2026-04-19T08:10:56.368Z</time></trkpt><trkpt lat="43.084602" lon="12.4435776"><ele>189.8</ele><time>2026-04-19T08:10:58.406Z</time></trkpt><trkpt lat="43.0845765" lon="12.4434971"><ele>189.6</ele><time>2026-04-19T08:10:59.586Z</time></trkpt><trkpt lat="43.0845395" lon="12.4433833"><ele>189.39999999999998</ele><time>2026-04-19T08:11:01.376Z</time></trkpt><trkpt lat="43.0844551" lon="12.4433062"><ele>189.2</ele><time>2026-04-19T08:11:03.385Z</time></trkpt><trkpt lat="43.0843567" lon="12.4432424"><ele>189.0</ele><time>2026-04-19T08:11:05.476Z</time></trkpt><trkpt lat="43.0842867" lon="12.4431318"><ele>189.0</ele><time>2026-04-19T08:11:07.332Z</time></trkpt><trkpt lat="43.0842182" lon="12.4430135"><ele>189.0</ele><time>2026-04-19T08:11:09.39Z</time></trkpt><trkpt lat="43.084148" lon="12.4428984"><ele>189.0</ele><time>2026-04-19T08:11:11.385Z</time></trkpt><trkpt lat="43.084075" lon="12.4427813"><ele>189.0</ele><time>2026-04-19T08:11:13.475Z</time></trkpt><trkpt lat="43.0840106" lon="12.4426721"><ele>189.0</ele><time>2026-04-19T08:11:15.367Z</time></trkpt><trkpt lat="43.0839395" lon="12.4425567"><ele>189.0</ele><time>2026-04-19T08:11:17.371Z</time></trkpt><trkpt lat="43.0838731" lon="12.442438"><ele>189.0</ele><time>2026-04-19T08:11:19.355Z</time></trkpt><trkpt lat="43.0838" lon="12.4423256"><ele>189.0</ele><time>2026-04-19T08:11:21.366Z</time></trkpt><trkpt lat="43.0837287" lon="12.442205"><ele>189.0</ele><time>2026-04-19T08:11:23.359Z</time></trkpt><trkpt lat="43.0836623" lon="12.442082"><ele>189.0</ele><time>2026-04-19T08:11:25.387Z</time></trkpt><trkpt lat="43.0835904" lon="12.4419576"><ele>189.25</ele><time>2026-04-19T08:11:27.401Z</time></trkpt><trkpt lat="43.0835174" lon="12.4418408"><ele>189.5</ele><time>2026-04-19T08:11:29.364Z</time></trkpt><trkpt lat="43.0834461" lon="12.4417191"><ele>189.75</ele><time>2026-04-19T08:11:31.352Z</time></trkpt><trkpt lat="43.0833697" lon="12.4415973"><ele>190.0</ele><time>2026-04-19T08:11:33.392Z</time></trkpt><trkpt lat="43.0832974" lon="12.4414745"><ele>189.75</ele><time>2026-04-19T08:11:35.377Z</time></trkpt><trkpt lat="43.0832306" lon="12.441345"><ele>189.5</ele><time>2026-04-19T08:11:37.424Z</time></trkpt><trkpt lat="43.0831567" lon="12.4412271"><ele>189.25</ele><time>2026-04-19T08:11:39.405Z</time></trkpt><trkpt lat="43.0830815" lon="12.4411091"><ele>189.0</ele><time>2026-04-19T08:11:41.367Z</time></trkpt><trkpt lat="43.0830114" lon="12.4409956"><ele>189.0</ele><time>2026-04-19T08:11:43.367Z</time></trkpt><trkpt lat="43.0829423" lon="12.4408738"><ele>189.0</ele><time>2026-04-19T08:11:45.372Z</time></trkpt><trkpt lat="43.0828671" lon="12.4407587"><ele>189.0</ele><time>2026-04-19T08:11:47.396Z</time></trkpt><trkpt lat="43.0828019" lon="12.4406407"><ele>189.0</ele><time>2026-04-19T08:11:49.398Z</time></trkpt><trkpt lat="43.0827375" lon="12.4405121"><ele>189.0</ele><time>2026-04-19T08:11:51.403Z</time></trkpt><trkpt lat="43.0826665" lon="12.4404011"><ele>189.0</ele><time>2026-04-19T08:11:53.361Z</time></trkpt><trkpt lat="43.0825947" lon="12.440286"><ele>189.0</ele><time>2026-04-19T08:11:55.442Z</time></trkpt><trkpt lat="43.0825259" lon="12.4401813"><ele>189.0</ele><time>2026-04-19T08:11:57.367Z</time></trkpt><trkpt lat="43.0824557" lon="12.4400665"><ele>189.0</ele><time>2026-04-19T08:11:59.364Z</time></trkpt><trkpt lat="43.0823835" lon="12.4399493"><ele>189.0</ele><time>2026-04-19T08:12:01.397Z</time></trkpt><trkpt lat="43.0823117" lon="12.4398369"><ele>189.0</ele><time>2026-04-19T08:12:03.367Z</time></trkpt><trkpt lat="43.0822306" lon="12.4397141"><ele>189.0</ele><time>2026-04-19T08:12:05.51Z</time></trkpt><trkpt lat="43.0821616" lon="12.4395991"><ele>189.0</ele><time>2026-04-19T08:12:07.377Z</time></trkpt><trkpt lat="43.0821228" lon="12.4395292"><ele>189.0</ele><time>2026-04-19T08:12:08.393Z</time></trkpt><trkpt lat="43.0820408" lon="12.4394106"><ele>189.0</ele><time>2026-04-19T08:12:10.409Z</time></trkpt><trkpt lat="43.0819642" lon="12.4392879"><ele>189.0</ele><time>2026-04-19T08:12:12.385Z</time></trkpt><trkpt lat="43.0818924" lon="12.4391644"><ele>189.0</ele><time>2026-04-19T08:12:14.403Z</time></trkpt><trkpt lat="43.0818155" lon="12.4390525"><ele>189.0</ele><time>2026-04-19T08:12:16.389Z</time></trkpt><trkpt lat="43.0817542" lon="12.4389209"><ele>189.0</ele><time>2026-04-19T08:12:18.399Z</time></trkpt><trkpt lat="43.081675" lon="12.4388082"><ele>189.0</ele><time>2026-04-19T08:12:20.394Z</time></trkpt><trkpt lat="43.0815951" lon="12.4386867"><ele>189.0</ele><time>2026-04-19T08:12:22.422Z</time></trkpt><trkpt lat="43.0815192" lon="12.4385669"><ele>189.0</ele><time>2026-04-19T08:12:24.37Z</time></trkpt><trkpt lat="43.081446" lon="12.4384393"><ele>189.0</ele><time>2026-04-19T08:12:26.36Z</time></trkpt><trkpt lat="43.0813693" lon="12.4383185"><ele>189.0</ele><time>2026-04-19T08:12:28.398Z</time></trkpt><trkpt lat="43.0813" lon="12.4381977"><ele>189.0</ele><time>2026-04-19T08:12:30.393Z</time></trkpt><trkpt lat="43.0812325" lon="12.4380766"><ele>189.0</ele><time>2026-04-19T08:12:32.35Z</time></trkpt><trkpt lat="43.0811572" lon="12.4379581"><ele>189.0</ele><time>2026-04-19T08:12:34.384Z</time></trkpt><trkpt lat="43.0810803" lon="12.4378399"><ele>189.0</ele><time>2026-04-19T08:12:36.421Z</time></trkpt><trkpt lat="43.0810078" lon="12.4377208"><ele>189.0</ele><time>2026-04-19T08:12:38.389Z</time></trkpt><trkpt lat="43.0809363" lon="12.4375981"><ele>189.0</ele><time>2026-04-19T08:12:40.368Z</time></trkpt><trkpt lat="43.0808596" lon="12.4374781"><ele>189.0</ele><time>2026-04-19T08:12:42.402Z</time></trkpt><trkpt lat="43.0807876" lon="12.4373565"><ele>188.75</ele><time>2026-04-19T08:12:44.352Z</time></trkpt><trkpt lat="43.0807093" lon="12.4372316"><ele>188.5</ele><time>2026-04-19T08:12:46.38Z</time></trkpt><trkpt lat="43.0806268" lon="12.4370985"><ele>188.25</ele><time>2026-04-19T08:12:48.5Z</time></trkpt><trkpt lat="43.0805494" lon="12.4369731"><ele>188.0</ele><time>2026-04-19T08:12:50.516Z</time></trkpt><trkpt lat="43.0804785" lon="12.4368609"><ele>187.75</ele><time>2026-04-19T08:12:52.356Z</time></trkpt><trkpt lat="43.0804013" lon="12.4367305"><ele>187.5</ele><time>2026-04-19T08:12:54.386Z</time></trkpt><trkpt lat="43.0803244" lon="12.4366038"><ele>187.25</ele><time>2026-04-19T08:12:56.371Z</time></trkpt><trkpt lat="43.0802478" lon="12.4364736"><ele>187.0</ele><time>2026-04-19T08:12:58.392Z</time></trkpt><trkpt lat="43.0801639" lon="12.4363508"><ele>187.0</ele><time>2026-04-19T08:13:00.456Z</time></trkpt><trkpt lat="43.0800878" lon="12.4362154"><ele>187.0</ele><time>2026-04-19T08:13:02.442Z</time></trkpt><trkpt lat="43.0800138" lon="12.4360826"><ele>187.0</ele><time>2026-04-19T08:13:04.382Z</time></trkpt><trkpt lat="43.0799327" lon="12.4359505"><ele>187.0</ele><time>2026-04-19T08:13:06.383Z</time></trkpt><trkpt lat="43.0798896" lon="12.4358862"><ele>187.0</ele><time>2026-04-19T08:13:07.391Z</time></trkpt><trkpt lat="43.0798501" lon="12.435817"><ele>187.0</ele><time>2026-04-19T08:13:08.4Z</time></trkpt><trkpt lat="43.0797689" lon="12.4356879"><ele>187.0</ele><time>2026-04-19T08:13:10.371Z</time></trkpt><trkpt lat="43.0797286" lon="12.4356212"><ele>187.0</ele><time>2026-04-19T08:13:11.371Z</time></trkpt><trkpt lat="43.0796871" lon="12.4355558"><ele>187.0</ele><time>2026-04-19T08:13:12.411Z</time></trkpt><trkpt lat="43.0796083" lon="12.4354239"><ele>187.0</ele><time>2026-04-19T08:13:14.415Z</time></trkpt><trkpt lat="43.0795298" lon="12.4352916"><ele>186.83333333333334</ele><time>2026-04-19T08:13:16.412Z</time></trkpt><trkpt lat="43.0794873" lon="12.4352214"><ele>186.66666666666669</ele><time>2026-04-19T08:13:17.442Z</time></trkpt><trkpt lat="43.0794083" lon="12.4350873"><ele>186.5</ele><time>2026-04-19T08:13:19.412Z</time></trkpt><trkpt lat="43.0793691" lon="12.4350188"><ele>186.33333333333334</ele><time>2026-04-19T08:13:20.387Z</time></trkpt><trkpt lat="43.0793292" lon="12.43495"><ele>186.16666666666666</ele><time>2026-04-19T08:13:21.376Z</time></trkpt><trkpt lat="43.079286" lon="12.4348823"><ele>186.0</ele><time>2026-04-19T08:13:22.4Z</time></trkpt><trkpt lat="43.0792067" lon="12.4347475"><ele>186.0</ele><time>2026-04-19T08:13:24.374Z</time></trkpt><trkpt lat="43.0791658" lon="12.4346803"><ele>186.0</ele><time>2026-04-19T08:13:25.368Z</time></trkpt><trkpt lat="43.0791166" lon="12.4346084"><ele>186.0</ele><time>2026-04-19T08:13:26.481Z</time></trkpt><trkpt lat="43.0790396" lon="12.4344776"><ele>186.0</ele><time>2026-04-19T08:13:28.49Z</time></trkpt><trkpt lat="43.0789629" lon="12.4343464"><ele>186.0</ele><time>2026-04-19T08:13:30.46Z</time></trkpt><trkpt lat="43.0788887" lon="12.4342178"><ele>186.0</ele><time>2026-04-19T08:13:32.367Z</time></trkpt><trkpt lat="43.0788485" lon="12.434147"><ele>186.0</ele><time>2026-04-19T08:13:33.41Z</time></trkpt><trkpt lat="43.0787693" lon="12.434016"><ele>186.0</ele><time>2026-04-19T08:13:35.385Z</time></trkpt><trkpt lat="43.0787255" lon="12.4339481"><ele>186.0</ele><time>2026-04-19T08:13:36.395Z</time></trkpt><trkpt lat="43.0786832" lon="12.4338782"><ele>186.0</ele><time>2026-04-19T08:13:37.413Z</time></trkpt><trkpt lat="43.0786394" lon="12.4338057"><ele>186.0</ele><time>2026-04-19T08:13:38.418Z</time></trkpt><trkpt lat="43.0785568" lon="12.433665"><ele>186.00000000000003</ele><time>2026-04-19T08:13:40.419Z</time></trkpt><trkpt lat="43.0785135" lon="12.4335959"><ele>186.0</ele><time>2026-04-19T08:13:41.452Z</time></trkpt><trkpt lat="43.078474" lon="12.4335283"><ele>186.0</ele><time>2026-04-19T08:13:42.415Z</time></trkpt><trkpt lat="43.0784326" lon="12.4334582"><ele>186.0</ele><time>2026-04-19T08:13:43.411Z</time></trkpt><trkpt lat="43.0783908" lon="12.4333923"><ele>186.0</ele><time>2026-04-19T08:13:44.401Z</time></trkpt><trkpt lat="43.0783437" lon="12.4333194"><ele>186.00000000000003</ele><time>2026-04-19T08:13:45.534Z</time></trkpt><trkpt lat="43.0782985" lon="12.4332432"><ele>186.0</ele><time>2026-04-19T08:13:46.62Z</time></trkpt><trkpt lat="43.0782304" lon="12.4331181"><ele>186.14285714285717</ele><time>2026-04-19T08:13:48.358Z</time></trkpt><trkpt lat="43.0781851" lon="12.4330501"><ele>186.28571428571428</ele><time>2026-04-19T08:13:49.397Z</time></trkpt><trkpt lat="43.0781448" lon="12.4329825"><ele>186.42857142857144</ele><time>2026-04-19T08:13:50.384Z</time></trkpt><trkpt lat="43.0781019" lon="12.4329128"><ele>186.57142857142858</ele><time>2026-04-19T08:13:51.408Z</time></trkpt><trkpt lat="43.0780601" lon="12.4328461"><ele>186.71428571428572</ele><time>2026-04-19T08:13:52.402Z</time></trkpt><trkpt lat="43.0780157" lon="12.4327824"><ele>186.85714285714286</ele><time>2026-04-19T08:13:53.424Z</time></trkpt><trkpt lat="43.0779412" lon="12.4326532"><ele>187.0</ele><time>2026-04-19T08:13:55.421Z</time></trkpt><trkpt lat="43.0778811" lon="12.4325589"><ele>186.25</ele><time>2026-04-19T08:13:57.379Z</time></trkpt><trkpt lat="43.0778869" lon="12.4323634"><ele>185.5</ele><time>2026-04-19T08:14:00.381Z</time></trkpt><trkpt lat="43.0778645" lon="12.4322271"><ele>184.75</ele><time>2026-04-19T08:14:02.506Z</time></trkpt><trkpt lat="43.0777822" lon="12.4321442"><ele>184.0</ele><time>2026-04-19T08:14:04.394Z</time></trkpt><trkpt lat="43.0776634" lon="12.4321118"><ele>183.75</ele><time>2026-04-19T08:14:06.404Z</time></trkpt><trkpt lat="43.0775452" lon="12.432046"><ele>183.5</ele><time>2026-04-19T08:14:08.433Z</time></trkpt><trkpt lat="43.0774505" lon="12.43194"><ele>183.25</ele><time>2026-04-19T08:14:10.633Z</time></trkpt><trkpt lat="43.0773845" lon="12.4318335"><ele>183.0</ele><time>2026-04-19T08:14:12.408Z</time></trkpt><trkpt lat="43.0773074" lon="12.4317176"><ele>183.25</ele><time>2026-04-19T08:14:14.391Z</time></trkpt><trkpt lat="43.0772351" lon="12.4315964"><ele>183.5</ele><time>2026-04-19T08:14:16.351Z</time></trkpt><trkpt lat="43.0771606" lon="12.4314658"><ele>183.75</ele><time>2026-04-19T08:14:18.428Z</time></trkpt><trkpt lat="43.0770915" lon="12.4313394"><ele>184.0</ele><time>2026-04-19T08:14:20.389Z</time></trkpt><trkpt lat="43.0770239" lon="12.4312043"><ele>184.0</ele><time>2026-04-19T08:14:22.377Z</time></trkpt><trkpt lat="43.0769554" lon="12.431067"><ele>184.0</ele><time>2026-04-19T08:14:24.399Z</time></trkpt><trkpt lat="43.0768874" lon="12.4309258"><ele>184.0</ele><time>2026-04-19T08:14:26.479Z</time></trkpt><trkpt lat="43.0768249" lon="12.4307955"><ele>184.0</ele><time>2026-04-19T08:14:28.39Z</time></trkpt><trkpt lat="43.0767601" lon="12.4306444"><ele>184.0</ele><time>2026-04-19T08:14:30.51Z</time></trkpt><trkpt lat="43.0766983" lon="12.4305152"><ele>184.0</ele><time>2026-04-19T08:14:32.395Z</time></trkpt><trkpt lat="43.0766334" lon="12.430377"><ele>184.0</ele><time>2026-04-19T08:14:34.423Z</time></trkpt><trkpt lat="43.0765731" lon="12.4302455"><ele>184.0</ele><time>2026-04-19T08:14:36.394Z</time></trkpt><trkpt lat="43.0765129" lon="12.4301151"><ele>184.25</ele><time>2026-04-19T08:14:38.378Z</time></trkpt><trkpt lat="43.0764457" lon="12.4299736"><ele>184.5</ele><time>2026-04-19T08:14:40.529Z</time></trkpt><trkpt lat="43.0763852" lon="12.4298531"><ele>184.75</ele><time>2026-04-19T08:14:42.385Z</time></trkpt><trkpt lat="43.0763113" lon="12.4297283"><ele>185.0</ele><time>2026-04-19T08:14:44.431Z</time></trkpt><trkpt lat="43.0762341" lon="12.4296137"><ele>185.0</ele><time>2026-04-19T08:14:46.419Z</time></trkpt><trkpt lat="43.0761445" lon="12.4295155"><ele>185.0</ele><time>2026-04-19T08:14:48.379Z</time></trkpt><trkpt lat="43.0760455" lon="12.4294249"><ele>185.0</ele><time>2026-04-19T08:14:50.38Z</time></trkpt><trkpt lat="43.0759401" lon="12.4293448"><ele>185.0</ele><time>2026-04-19T08:14:52.402Z</time></trkpt><trkpt lat="43.0758276" lon="12.4292715"><ele>184.8</ele><time>2026-04-19T08:14:54.406Z</time></trkpt><trkpt lat="43.0757146" lon="12.4292138"><ele>184.6</ele><time>2026-04-19T08:14:56.401Z</time></trkpt><trkpt lat="43.0756522" lon="12.4291933"><ele>184.39999999999998</ele><time>2026-04-19T08:14:57.402Z</time></trkpt><trkpt lat="43.0755932" lon="12.4291615"><ele>184.2</ele><time>2026-04-19T08:14:58.395Z</time></trkpt><trkpt lat="43.0754777" lon="12.4290855"><ele>184.0</ele><time>2026-04-19T08:15:00.419Z</time></trkpt><trkpt lat="43.0753654" lon="12.4290139"><ele>184.0</ele><time>2026-04-19T08:15:02.377Z</time></trkpt><trkpt lat="43.0753066" lon="12.4289748"><ele>184.0</ele><time>2026-04-19T08:15:03.401Z</time></trkpt><trkpt lat="43.0751983" lon="12.428896"><ele>184.0</ele><time>2026-04-19T08:15:05.379Z</time></trkpt><trkpt lat="43.0751413" lon="12.4288554"><ele>184.0</ele><time>2026-04-19T08:15:06.42Z</time></trkpt><trkpt lat="43.0750862" lon="12.4288059"><ele>184.0</ele><time>2026-04-19T08:15:07.497Z</time></trkpt><trkpt lat="43.07498" lon="12.4287312"><ele>184.0</ele><time>2026-04-19T08:15:09.44Z</time></trkpt><trkpt lat="43.0748738" lon="12.4286477"><ele>183.39999999999998</ele><time>2026-04-19T08:15:11.429Z</time></trkpt><trkpt lat="43.0747635" lon="12.4285731"><ele>182.8</ele><time>2026-04-19T08:15:13.431Z</time></trkpt><trkpt lat="43.0747054" lon="12.4285325"><ele>182.2</ele><time>2026-04-19T08:15:14.496Z</time></trkpt><trkpt lat="43.074602" lon="12.4284591"><ele>181.60000000000002</ele><time>2026-04-19T08:15:16.395Z</time></trkpt><trkpt lat="43.0744967" lon="12.4283818"><ele>181.0</ele><time>2026-04-19T08:15:18.374Z</time></trkpt><trkpt lat="43.0743934" lon="12.4283001"><ele>181.0</ele><time>2026-04-19T08:15:20.37Z</time></trkpt><trkpt lat="43.0743384" lon="12.4282575"><ele>181.0</ele><time>2026-04-19T08:15:21.426Z</time></trkpt><trkpt lat="43.0742361" lon="12.4281676"><ele>181.0</ele><time>2026-04-19T08:15:23.427Z</time></trkpt><trkpt lat="43.0741276" lon="12.4281102"><ele>181.0</ele><time>2026-04-19T08:15:25.379Z</time></trkpt><trkpt lat="43.0740185" lon="12.4280322"><ele>181.0</ele><time>2026-04-19T08:15:27.408Z</time></trkpt><trkpt lat="43.0739175" lon="12.4279649"><ele>181.60000000000002</ele><time>2026-04-19T08:15:29.412Z</time></trkpt><trkpt lat="43.073817" lon="12.4278926"><ele>182.2</ele><time>2026-04-19T08:15:31.375Z</time></trkpt><trkpt lat="43.073708" lon="12.4278129"><ele>182.8</ele><time>2026-04-19T08:15:33.513Z</time></trkpt><trkpt lat="43.0736121" lon="12.4277447"><ele>183.39999999999998</ele><time>2026-04-19T08:15:35.395Z</time></trkpt><trkpt lat="43.0735526" lon="12.4277021"><ele>184.0</ele><time>2026-04-19T08:15:36.546Z</time></trkpt><trkpt lat="43.0734551" lon="12.4276313"><ele>184.0</ele><time>2026-04-19T08:15:38.425Z</time></trkpt><trkpt lat="43.0733524" lon="12.4275618"><ele>184.0</ele><time>2026-04-19T08:15:40.377Z</time></trkpt><trkpt lat="43.0732467" lon="12.4274878"><ele>184.0</ele><time>2026-04-19T08:15:42.396Z</time></trkpt><trkpt lat="43.0731396" lon="12.4274117"><ele>184.0</ele><time>2026-04-19T08:15:44.418Z</time></trkpt><trkpt lat="43.0730344" lon="12.4273361"><ele>184.0</ele><time>2026-04-19T08:15:46.393Z</time></trkpt><trkpt lat="43.0729292" lon="12.4272602"><ele>184.0</ele><time>2026-04-19T08:15:48.369Z</time></trkpt><trkpt lat="43.0728714" lon="12.4272182"><ele>184.0</ele><time>2026-04-19T08:15:49.435Z</time></trkpt><trkpt lat="43.0727648" lon="12.4271435"><ele>184.0</ele><time>2026-04-19T08:15:51.414Z</time></trkpt><trkpt lat="43.0726625" lon="12.4270711"><ele>184.0</ele><time>2026-04-19T08:15:53.378Z</time></trkpt><trkpt lat="43.0725567" lon="12.426994"><ele>183.79999999999998</ele><time>2026-04-19T08:15:55.385Z</time></trkpt><trkpt lat="43.07244" lon="12.4269155"><ele>183.6</ele><time>2026-04-19T08:15:57.54Z</time></trkpt><trkpt lat="43.0723391" lon="12.4268449"><ele>183.4</ele><time>2026-04-19T08:15:59.391Z</time></trkpt><trkpt lat="43.0722808" lon="12.4268018"><ele>183.2</ele><time>2026-04-19T08:16:00.437Z</time></trkpt><trkpt lat="43.0721706" lon="12.4267193"><ele>183.0</ele><time>2026-04-19T08:16:02.407Z</time></trkpt><trkpt lat="43.0721113" lon="12.4266739"><ele>182.60000000000002</ele><time>2026-04-19T08:16:03.429Z</time></trkpt><trkpt lat="43.072054" lon="12.4266348"><ele>182.20000000000002</ele><time>2026-04-19T08:16:04.418Z</time></trkpt><trkpt lat="43.0719333" lon="12.4265652"><ele>181.8</ele><time>2026-04-19T08:16:06.41Z</time></trkpt><trkpt lat="43.0718747" lon="12.4265286"><ele>181.4</ele><time>2026-04-19T08:16:07.397Z</time></trkpt><trkpt lat="43.0718163" lon="12.426492"><ele>181.0</ele><time>2026-04-19T08:16:08.392Z</time></trkpt><trkpt lat="43.0716951" lon="12.4264219"><ele>181.33333333333334</ele><time>2026-04-19T08:16:10.535Z</time></trkpt><trkpt lat="43.071594" lon="12.4263527"><ele>181.66666666666669</ele><time>2026-04-19T08:16:12.37Z</time></trkpt><trkpt lat="43.0715351" lon="12.4263141"><ele>182.0</ele><time>2026-04-19T08:16:13.399Z</time></trkpt><trkpt lat="43.071481" lon="12.4262682"><ele>182.33333333333334</ele><time>2026-04-19T08:16:14.392Z</time></trkpt><trkpt lat="43.0714289" lon="12.4262167"><ele>182.66666666666666</ele><time>2026-04-19T08:16:15.43Z</time></trkpt><trkpt lat="43.0713369" lon="12.4261088"><ele>183.0</ele><time>2026-04-19T08:16:17.436Z</time></trkpt><trkpt lat="43.0712479" lon="12.4260083"><ele>183.25</ele><time>2026-04-19T08:16:19.378Z</time></trkpt><trkpt lat="43.0711566" lon="12.4259058"><ele>183.5</ele><time>2026-04-19T08:16:21.36Z</time></trkpt><trkpt lat="43.0710727" lon="12.4257917"><ele>183.75</ele><time>2026-04-19T08:16:23.355Z</time></trkpt><trkpt lat="43.0709814" lon="12.4256908"><ele>184.0</ele><time>2026-04-19T08:16:25.359Z</time></trkpt><trkpt lat="43.070889" lon="12.4255842"><ele>184.0</ele><time>2026-04-19T08:16:27.377Z</time></trkpt><trkpt lat="43.0708363" lon="12.4255233"><ele>184.0</ele><time>2026-04-19T08:16:28.498Z</time></trkpt><trkpt lat="43.0707394" lon="12.4254356"><ele>184.0</ele><time>2026-04-19T08:16:30.4Z</time></trkpt><trkpt lat="43.0706393" lon="12.4253521"><ele>184.0</ele><time>2026-04-19T08:16:32.397Z</time></trkpt><trkpt lat="43.0705798" lon="12.4253068"><ele>184.0</ele><time>2026-04-19T08:16:33.522Z</time></trkpt><trkpt lat="43.0704783" lon="12.4252328"><ele>184.2</ele><time>2026-04-19T08:16:35.405Z</time></trkpt><trkpt lat="43.0703732" lon="12.4251567"><ele>184.39999999999998</ele><time>2026-04-19T08:16:37.383Z</time></trkpt><trkpt lat="43.070316" lon="12.4251157"><ele>184.6</ele><time>2026-04-19T08:16:38.507Z</time></trkpt><trkpt lat="43.070219" lon="12.4250487"><ele>184.8</ele><time>2026-04-19T08:16:40.393Z</time></trkpt><trkpt lat="43.0701143" lon="12.4249787"><ele>185.0</ele><time>2026-04-19T08:16:42.424Z</time></trkpt><trkpt lat="43.0700142" lon="12.4249147"><ele>184.5</ele><time>2026-04-19T08:16:44.357Z</time></trkpt><trkpt lat="43.0699113" lon="12.4248376"><ele>184.0</ele><time>2026-04-19T08:16:46.391Z</time></trkpt><trkpt lat="43.0698084" lon="12.4247665"><ele>183.5</ele><time>2026-04-19T08:16:48.399Z</time></trkpt><trkpt lat="43.0696999" lon="12.4246896"><ele>183.0</ele><time>2026-04-19T08:16:50.469Z</time></trkpt><trkpt lat="43.0695996" lon="12.4246299"><ele>183.0</ele><time>2026-04-19T08:16:52.394Z</time></trkpt><trkpt lat="43.0694998" lon="12.4245576"><ele>183.0</ele><time>2026-04-19T08:16:54.389Z</time></trkpt><trkpt lat="43.0693965" lon="12.4244881"><ele>183.0</ele><time>2026-04-19T08:16:56.409Z</time></trkpt><trkpt lat="43.069295" lon="12.4244172"><ele>183.0</ele><time>2026-04-19T08:16:58.415Z</time></trkpt><trkpt lat="43.0692007" lon="12.4243476"><ele>183.0</ele><time>2026-04-19T08:17:00.395Z</time></trkpt><trkpt lat="43.0691002" lon="12.4242857"><ele>182.60000000000002</ele><time>2026-04-19T08:17:02.41Z</time></trkpt><trkpt lat="43.0690043" lon="12.4242094"><ele>182.20000000000002</ele><time>2026-04-19T08:17:04.388Z</time></trkpt><trkpt lat="43.068902" lon="12.4241412"><ele>181.8</ele><time>2026-04-19T08:17:06.383Z</time></trkpt><trkpt lat="43.0687996" lon="12.4240683"><ele>181.4</ele><time>2026-04-19T08:17:08.409Z</time></trkpt><trkpt lat="43.0687436" lon="12.4240264"><ele>181.0</ele><time>2026-04-19T08:17:09.501Z</time></trkpt><trkpt lat="43.0686462" lon="12.4239556"><ele>181.0</ele><time>2026-04-19T08:17:11.421Z</time></trkpt><trkpt lat="43.0685416" lon="12.4238801"><ele>181.0</ele><time>2026-04-19T08:17:13.407Z</time></trkpt><trkpt lat="43.0684368" lon="12.4238096"><ele>181.0</ele><time>2026-04-19T08:17:15.396Z</time></trkpt><trkpt lat="43.0683291" lon="12.4237311"><ele>181.0</ele><time>2026-04-19T08:17:17.398Z</time></trkpt><trkpt lat="43.0682222" lon="12.4236599"><ele>181.0</ele><time>2026-04-19T08:17:19.402Z</time></trkpt><trkpt lat="43.0681155" lon="12.4235919"><ele>181.0</ele><time>2026-04-19T08:17:21.407Z</time></trkpt><trkpt lat="43.0680131" lon="12.4235145"><ele>181.0</ele><time>2026-04-19T08:17:23.409Z</time></trkpt><trkpt lat="43.0679101" lon="12.4234479"><ele>181.0</ele><time>2026-04-19T08:17:25.377Z</time></trkpt><trkpt lat="43.0678078" lon="12.4233677"><ele>181.0</ele><time>2026-04-19T08:17:27.377Z</time></trkpt><trkpt lat="43.067698" lon="12.4232873"><ele>181.0</ele><time>2026-04-19T08:17:29.498Z</time></trkpt><trkpt lat="43.067598" lon="12.4232223"><ele>181.0</ele><time>2026-04-19T08:17:31.377Z</time></trkpt><trkpt lat="43.0674925" lon="12.4231462"><ele>181.0</ele><time>2026-04-19T08:17:33.378Z</time></trkpt><trkpt lat="43.0673878" lon="12.4230735"><ele>181.0</ele><time>2026-04-19T08:17:35.363Z</time></trkpt><trkpt lat="43.0672811" lon="12.4229987"><ele>181.0</ele><time>2026-04-19T08:17:37.393Z</time></trkpt><trkpt lat="43.0671736" lon="12.4229213"><ele>181.0</ele><time>2026-04-19T08:17:39.436Z</time></trkpt><trkpt lat="43.0670665" lon="12.4228459"><ele>181.0</ele><time>2026-04-19T08:17:41.413Z</time></trkpt><trkpt lat="43.0670103" lon="12.4228057"><ele>181.0</ele><time>2026-04-19T08:17:42.457Z</time></trkpt><trkpt lat="43.066903" lon="12.4227371"><ele>181.0</ele><time>2026-04-19T08:17:44.406Z</time></trkpt><trkpt lat="43.066794" lon="12.422663"><ele>181.0</ele><time>2026-04-19T08:17:46.418Z</time></trkpt><trkpt lat="43.0666877" lon="12.4225848"><ele>181.0</ele><time>2026-04-19T08:17:48.414Z</time></trkpt><trkpt lat="43.0665798" lon="12.4225073"><ele>181.0</ele><time>2026-04-19T08:17:50.403Z</time></trkpt><trkpt lat="43.0664717" lon="12.4224304"><ele>181.0</ele><time>2026-04-19T08:17:52.382Z</time></trkpt><trkpt lat="43.066409" lon="12.4223847"><ele>181.0</ele><time>2026-04-19T08:17:53.513Z</time></trkpt><trkpt lat="43.0663029" lon="12.4223113"><ele>181.0</ele><time>2026-04-19T08:17:55.42Z</time></trkpt><trkpt lat="43.0661921" lon="12.4222331"><ele>181.0</ele><time>2026-04-19T08:17:57.43Z</time></trkpt><trkpt lat="43.0661326" lon="12.4221912"><ele>181.0</ele><time>2026-04-19T08:17:58.523Z</time></trkpt><trkpt lat="43.0660332" lon="12.4221231"><ele>181.0</ele><time>2026-04-19T08:18:00.367Z</time></trkpt><trkpt lat="43.0659716" lon="12.4220807"><ele>181.0</ele><time>2026-04-19T08:18:01.496Z</time></trkpt><trkpt lat="43.0658687" lon="12.4220075"><ele>181.0</ele><time>2026-04-19T08:18:03.425Z</time></trkpt><trkpt lat="43.0657606" lon="12.4219367"><ele>181.0</ele><time>2026-04-19T08:18:05.408Z</time></trkpt><trkpt lat="43.0657031" lon="12.4218971"><ele>181.0</ele><time>2026-04-19T08:18:06.482Z</time></trkpt><trkpt lat="43.0656188" lon="12.4218349"><ele>181.0</ele><time>2026-04-19T08:18:08.054Z</time></trkpt><trkpt lat="43.0655157" lon="12.4217622"><ele>181.0</ele><time>2026-04-19T08:18:10.055Z</time></trkpt><trkpt lat="43.0653999" lon="12.4216911"><ele>181.0</ele><time>2026-04-19T08:18:12.375Z</time></trkpt><trkpt lat="43.0653369" lon="12.4216559"><ele>181.0</ele><time>2026-04-19T08:18:13.398Z</time></trkpt><trkpt lat="43.0652752" lon="12.4216143"><ele>181.0</ele><time>2026-04-19T08:18:14.406Z</time></trkpt><trkpt lat="43.0652154" lon="12.4215689"><ele>181.0</ele><time>2026-04-19T08:18:15.43Z</time></trkpt><trkpt lat="43.0651032" lon="12.4214914"><ele>181.0</ele><time>2026-04-19T08:18:17.437Z</time></trkpt><trkpt lat="43.0649933" lon="12.4214142"><ele>181.0</ele><time>2026-04-19T08:18:19.421Z</time></trkpt><trkpt lat="43.0648766" lon="12.4213336"><ele>181.0</ele><time>2026-04-19T08:18:21.544Z</time></trkpt><trkpt lat="43.0647751" lon="12.4212639"><ele>181.0</ele><time>2026-04-19T08:18:23.397Z</time></trkpt><trkpt lat="43.0647168" lon="12.4212226"><ele>181.0</ele><time>2026-04-19T08:18:24.419Z</time></trkpt><trkpt lat="43.0646086" lon="12.4211448"><ele>180.83333333333334</ele><time>2026-04-19T08:18:26.385Z</time></trkpt><trkpt lat="43.0645523" lon="12.4211031"><ele>180.66666666666669</ele><time>2026-04-19T08:18:27.402Z</time></trkpt><trkpt lat="43.0644946" lon="12.421067"><ele>180.5</ele><time>2026-04-19T08:18:28.406Z</time></trkpt><trkpt lat="43.0644393" lon="12.4210254"><ele>180.33333333333334</ele><time>2026-04-19T08:18:29.411Z</time></trkpt><trkpt lat="43.0643318" lon="12.4209413"><ele>180.16666666666666</ele><time>2026-04-19T08:18:31.385Z</time></trkpt><trkpt lat="43.0642763" lon="12.4208973"><ele>180.0</ele><time>2026-04-19T08:18:32.415Z</time></trkpt><trkpt lat="43.0641722" lon="12.4208131"><ele>180.0</ele><time>2026-04-19T08:18:34.423Z</time></trkpt><trkpt lat="43.0641171" lon="12.4207586"><ele>180.0</ele><time>2026-04-19T08:18:35.52Z</time></trkpt><trkpt lat="43.0640205" lon="12.420667"><ele>180.0</ele><time>2026-04-19T08:18:37.426Z</time></trkpt><trkpt lat="43.0639202" lon="12.4205762"><ele>180.0</ele><time>2026-04-19T08:18:39.414Z</time></trkpt><trkpt lat="43.0638206" lon="12.4204843"><ele>180.0</ele><time>2026-04-19T08:18:41.41Z</time></trkpt><trkpt lat="43.0637229" lon="12.4204006"><ele>180.0</ele><time>2026-04-19T08:18:43.41Z</time></trkpt><trkpt lat="43.0636288" lon="12.4203112"><ele>180.0</ele><time>2026-04-19T08:18:45.411Z</time></trkpt><trkpt lat="43.0635694" lon="12.4202587"><ele>180.0</ele><time>2026-04-19T08:18:46.612Z</time></trkpt><trkpt lat="43.0634853" lon="12.4201756"><ele>180.0</ele><time>2026-04-19T08:18:48.448Z</time></trkpt><trkpt lat="43.0633903" lon="12.4200844"><ele>180.0</ele><time>2026-04-19T08:18:50.41Z</time></trkpt><trkpt lat="43.0632888" lon="12.4199926"><ele>179.5</ele><time>2026-04-19T08:18:52.507Z</time></trkpt><trkpt lat="43.0631964" lon="12.4199003"><ele>179.0</ele><time>2026-04-19T08:18:54.413Z</time></trkpt><trkpt lat="43.0630993" lon="12.4198092"><ele>178.5</ele><time>2026-04-19T08:18:56.411Z</time></trkpt><trkpt lat="43.0629899" lon="12.4197085"><ele>178.0</ele><time>2026-04-19T08:18:58.64Z</time></trkpt><trkpt lat="43.0629043" lon="12.4196296"><ele>178.0</ele><time>2026-04-19T08:19:00.439Z</time></trkpt><trkpt lat="43.0628113" lon="12.4195484"><ele>178.0</ele><time>2026-04-19T08:19:02.421Z</time></trkpt><trkpt lat="43.0627161" lon="12.4194561"><ele>178.0</ele><time>2026-04-19T08:19:04.454Z</time></trkpt><trkpt lat="43.0626259" lon="12.4193673"><ele>178.0</ele><time>2026-04-19T08:19:06.41Z</time></trkpt><trkpt lat="43.0625311" lon="12.4192764"><ele>178.5</ele><time>2026-04-19T08:19:08.448Z</time></trkpt><trkpt lat="43.0624389" lon="12.4191958"><ele>179.0</ele><time>2026-04-19T08:19:10.412Z</time></trkpt><trkpt lat="43.0623425" lon="12.4191045"><ele>179.5</ele><time>2026-04-19T08:19:12.444Z</time></trkpt><trkpt lat="43.0622466" lon="12.4190117"><ele>180.0</ele><time>2026-04-19T08:19:14.442Z</time></trkpt><trkpt lat="43.0621494" lon="12.4189204"><ele>180.0</ele><time>2026-04-19T08:19:16.422Z</time></trkpt><trkpt lat="43.0620499" lon="12.4188245"><ele>180.0</ele><time>2026-04-19T08:19:18.431Z</time></trkpt><trkpt lat="43.0619515" lon="12.4187381"><ele>180.0</ele><time>2026-04-19T08:19:20.373Z</time></trkpt><trkpt lat="43.0618532" lon="12.4186424"><ele>180.0</ele><time>2026-04-19T08:19:22.394Z</time></trkpt><trkpt lat="43.061756" lon="12.4185556"><ele>180.0</ele><time>2026-04-19T08:19:24.407Z</time></trkpt><trkpt lat="43.0616589" lon="12.4184688"><ele>180.0</ele><time>2026-04-19T08:19:26.412Z</time></trkpt><trkpt lat="43.061565" lon="12.4183832"><ele>180.0</ele><time>2026-04-19T08:19:28.43Z</time></trkpt><trkpt lat="43.0614636" lon="12.4182955"><ele>180.0</ele><time>2026-04-19T08:19:30.531Z</time></trkpt><trkpt lat="43.0613757" lon="12.4182035"><ele>180.0</ele><time>2026-04-19T08:19:32.397Z</time></trkpt><trkpt lat="43.0612738" lon="12.4181099"><ele>180.0</ele><time>2026-04-19T08:19:34.391Z</time></trkpt><trkpt lat="43.0611748" lon="12.4180163"><ele>180.0</ele><time>2026-04-19T08:19:36.385Z</time></trkpt><trkpt lat="43.0611222" lon="12.4179653"><ele>180.0</ele><time>2026-04-19T08:19:37.441Z</time></trkpt><trkpt lat="43.0610264" lon="12.417875"><ele>180.0</ele><time>2026-04-19T08:19:39.417Z</time></trkpt><trkpt lat="43.0609739" lon="12.4178259"><ele>180.0</ele><time>2026-04-19T08:19:40.506Z</time></trkpt><trkpt lat="43.0608809" lon="12.4177398"><ele>180.0</ele><time>2026-04-19T08:19:42.459Z</time></trkpt><trkpt lat="43.0607888" lon="12.4176506"><ele>180.0</ele><time>2026-04-19T08:19:44.396Z</time></trkpt><trkpt lat="43.0607311" lon="12.4175991"><ele>180.0</ele><time>2026-04-19T08:19:45.5Z</time></trkpt><trkpt lat="43.0606423" lon="12.417514"><ele>180.0</ele><time>2026-04-19T08:19:47.403Z</time></trkpt><trkpt lat="43.0605506" lon="12.4174272"><ele>180.0</ele><time>2026-04-19T08:19:49.413Z</time></trkpt><trkpt lat="43.0604501" lon="12.4173379"><ele>180.0</ele><time>2026-04-19T08:19:51.503Z</time></trkpt><trkpt lat="43.0603588" lon="12.4172529"><ele>180.0</ele><time>2026-04-19T08:19:53.422Z</time></trkpt><trkpt lat="43.0602654" lon="12.4171648"><ele>180.0</ele><time>2026-04-19T08:19:55.375Z</time></trkpt><trkpt lat="43.0601699" lon="12.4170708"><ele>179.6</ele><time>2026-04-19T08:19:57.43Z</time></trkpt><trkpt lat="43.0600855" lon="12.4169776"><ele>179.2</ele><time>2026-04-19T08:19:59.373Z</time></trkpt><trkpt lat="43.0599982" lon="12.4168812"><ele>178.8</ele><time>2026-04-19T08:20:01.408Z</time></trkpt><trkpt lat="43.059915" lon="12.4167819"><ele>178.4</ele><time>2026-04-19T08:20:03.427Z</time></trkpt><trkpt lat="43.0598391" lon="12.4166715"><ele>178.0</ele><time>2026-04-19T08:20:05.429Z</time></trkpt><trkpt lat="43.0597536" lon="12.4165648"><ele>178.0</ele><time>2026-04-19T08:20:07.527Z</time></trkpt><trkpt lat="43.0596745" lon="12.4164642"><ele>178.0</ele><time>2026-04-19T08:20:09.515Z</time></trkpt><trkpt lat="43.0596013" lon="12.4163602"><ele>178.0</ele><time>2026-04-19T08:20:11.437Z</time></trkpt><trkpt lat="43.0595227" lon="12.416256"><ele>178.0</ele><time>2026-04-19T08:20:13.428Z</time></trkpt><trkpt lat="43.0594437" lon="12.4161501"><ele>178.0</ele><time>2026-04-19T08:20:15.423Z</time></trkpt><trkpt lat="43.0593641" lon="12.4160423"><ele>177.75</ele><time>2026-04-19T08:20:17.437Z</time></trkpt><trkpt lat="43.0592453" lon="12.4158828"><ele>177.5</ele><time>2026-04-19T08:20:20.414Z</time></trkpt><trkpt lat="43.0591635" lon="12.4157735"><ele>177.25</ele><time>2026-04-19T08:20:22.417Z</time></trkpt><trkpt lat="43.0590846" lon="12.4156636"><ele>177.0</ele><time>2026-04-19T08:20:24.406Z</time></trkpt><trkpt lat="43.0590008" lon="12.4155564"><ele>177.25</ele><time>2026-04-19T08:20:26.423Z</time></trkpt><trkpt lat="43.0589197" lon="12.4154489"><ele>177.5</ele><time>2026-04-19T08:20:28.44Z</time></trkpt><trkpt lat="43.058839" lon="12.4153416"><ele>177.75</ele><time>2026-04-19T08:20:30.43Z</time></trkpt><trkpt lat="43.0587575" lon="12.4152324"><ele>178.0</ele><time>2026-04-19T08:20:32.427Z</time></trkpt><trkpt lat="43.0586793" lon="12.4151217"><ele>178.0</ele><time>2026-04-19T08:20:34.411Z</time></trkpt><trkpt lat="43.0585962" lon="12.4150114"><ele>178.0</ele><time>2026-04-19T08:20:36.441Z</time></trkpt><trkpt lat="43.0585186" lon="12.4149077"><ele>178.0</ele><time>2026-04-19T08:20:38.385Z</time></trkpt><trkpt lat="43.0584368" lon="12.4147975"><ele>178.0</ele><time>2026-04-19T08:20:40.451Z</time></trkpt><trkpt lat="43.0583577" lon="12.4146909"><ele>178.4</ele><time>2026-04-19T08:20:42.426Z</time></trkpt><trkpt lat="43.0582735" lon="12.4145831"><ele>178.8</ele><time>2026-04-19T08:20:44.459Z</time></trkpt><trkpt lat="43.0581961" lon="12.4144823"><ele>179.2</ele><time>2026-04-19T08:20:46.365Z</time></trkpt><trkpt lat="43.0581106" lon="12.4143762"><ele>179.6</ele><time>2026-04-19T08:20:48.433Z</time></trkpt><trkpt lat="43.0580262" lon="12.4142841"><ele>180.0</ele><time>2026-04-19T08:20:50.389Z</time></trkpt><trkpt lat="43.0579312" lon="12.41419"><ele>180.0</ele><time>2026-04-19T08:20:52.508Z</time></trkpt><trkpt lat="43.057846" lon="12.4141031"><ele>180.0</ele><time>2026-04-19T08:20:54.423Z</time></trkpt><trkpt lat="43.0577552" lon="12.41402"><ele>180.0</ele><time>2026-04-19T08:20:56.434Z</time></trkpt><trkpt lat="43.0576643" lon="12.413944"><ele>180.0</ele><time>2026-04-19T08:20:58.443Z</time></trkpt><trkpt lat="43.0575762" lon="12.4138649"><ele>180.0</ele><time>2026-04-19T08:21:00.435Z</time></trkpt><trkpt lat="43.057488" lon="12.4137911"><ele>179.25</ele><time>2026-04-19T08:21:02.396Z</time></trkpt><trkpt lat="43.0573962" lon="12.4137136"><ele>178.5</ele><time>2026-04-19T08:21:04.422Z</time></trkpt><trkpt lat="43.0572668" lon="12.4136035"><ele>177.75</ele><time>2026-04-19T08:21:07.427Z</time></trkpt><trkpt lat="43.057176" lon="12.413531"><ele>177.0</ele><time>2026-04-19T08:21:09.446Z</time></trkpt><trkpt lat="43.0570836" lon="12.4134509"><ele>177.0</ele><time>2026-04-19T08:21:11.536Z</time></trkpt><trkpt lat="43.0569952" lon="12.4133767"><ele>177.0</ele><time>2026-04-19T08:21:13.441Z</time></trkpt><trkpt lat="43.0568568" lon="12.4132598"><ele>177.0</ele><time>2026-04-19T08:21:16.4Z</time></trkpt><trkpt lat="43.0567644" lon="12.4131796"><ele>177.0</ele><time>2026-04-19T08:21:18.456Z</time></trkpt><trkpt lat="43.0566755" lon="12.4131048"><ele>177.0</ele><time>2026-04-19T08:21:20.416Z</time></trkpt><trkpt lat="43.0565818" lon="12.4130298"><ele>177.0</ele><time>2026-04-19T08:21:22.422Z</time></trkpt><trkpt lat="43.0564908" lon="12.4129453"><ele>177.0</ele><time>2026-04-19T08:21:24.444Z</time></trkpt><trkpt lat="43.0563574" lon="12.4128257"><ele>177.0</ele><time>2026-04-19T08:21:27.373Z</time></trkpt><trkpt lat="43.0562597" lon="12.412747"><ele>178.0</ele><time>2026-04-19T08:21:29.425Z</time></trkpt><trkpt lat="43.0561644" lon="12.4126693"><ele>179.0</ele><time>2026-04-19T08:21:31.419Z</time></trkpt><trkpt lat="43.056066" lon="12.4126004"><ele>180.0</ele><time>2026-04-19T08:21:33.38Z</time></trkpt><trkpt lat="43.0559576" lon="12.4125446"><ele>181.0</ele><time>2026-04-19T08:21:35.438Z</time></trkpt><trkpt lat="43.0558472" lon="12.4125108"><ele>181.0</ele><time>2026-04-19T08:21:37.408Z</time></trkpt><trkpt lat="43.0557332" lon="12.4124715"><ele>181.0</ele><time>2026-04-19T08:21:39.466Z</time></trkpt><trkpt lat="43.0556253" lon="12.4124388"><ele>181.0</ele><time>2026-04-19T08:21:41.38Z</time></trkpt><trkpt lat="43.0555129" lon="12.4124047"><ele>181.0</ele><time>2026-04-19T08:21:43.381Z</time></trkpt><trkpt lat="43.0553963" lon="12.4123707"><ele>181.0</ele><time>2026-04-19T08:21:45.429Z</time></trkpt><trkpt lat="43.055282" lon="12.4123361"><ele>181.0</ele><time>2026-04-19T08:21:47.443Z</time></trkpt><trkpt lat="43.0551704" lon="12.4123041"><ele>181.0</ele><time>2026-04-19T08:21:49.408Z</time></trkpt><trkpt lat="43.0550575" lon="12.4122717"><ele>181.0</ele><time>2026-04-19T08:21:51.419Z</time></trkpt><trkpt lat="43.0549446" lon="12.4122395"><ele>180.5</ele><time>2026-04-19T08:21:53.433Z</time></trkpt><trkpt lat="43.0548325" lon="12.4122081"><ele>180.0</ele><time>2026-04-19T08:21:55.402Z</time></trkpt><trkpt lat="43.0547227" lon="12.4121759"><ele>179.5</ele><time>2026-04-19T08:21:57.373Z</time></trkpt><trkpt lat="43.0546068" lon="12.412144"><ele>179.0</ele><time>2026-04-19T08:21:59.422Z</time></trkpt><trkpt lat="43.0544942" lon="12.4121097"><ele>179.0</ele><time>2026-04-19T08:22:01.412Z</time></trkpt><trkpt lat="43.0543783" lon="12.412078"><ele>179.0</ele><time>2026-04-19T08:22:03.438Z</time></trkpt><trkpt lat="43.0542607" lon="12.4120407"><ele>179.0</ele><time>2026-04-19T08:22:05.523Z</time></trkpt><trkpt lat="43.0541552" lon="12.4120116"><ele>179.0</ele><time>2026-04-19T08:22:07.413Z</time></trkpt><trkpt lat="43.0540379" lon="12.4119751"><ele>178.5</ele><time>2026-04-19T08:22:09.51Z</time></trkpt><trkpt lat="43.0539321" lon="12.4119489"><ele>178.0</ele><time>2026-04-19T08:22:11.397Z</time></trkpt><trkpt lat="43.0538145" lon="12.4119168"><ele>177.5</ele><time>2026-04-19T08:22:13.507Z</time></trkpt><trkpt lat="43.053706" lon="12.4118857"><ele>177.0</ele><time>2026-04-19T08:22:15.427Z</time></trkpt><trkpt lat="43.0535948" lon="12.4118523"><ele>177.0</ele><time>2026-04-19T08:22:17.404Z</time></trkpt><trkpt lat="43.0534864" lon="12.4118191"><ele>177.0</ele><time>2026-04-19T08:22:19.377Z</time></trkpt><trkpt lat="43.0533768" lon="12.4117887"><ele>177.0</ele><time>2026-04-19T08:22:21.38Z</time></trkpt><trkpt lat="43.0532152" lon="12.4117454"><ele>177.0</ele><time>2026-04-19T08:22:24.368Z</time></trkpt><trkpt lat="43.0531081" lon="12.4117139"><ele>177.39999999999998</ele><time>2026-04-19T08:22:26.384Z</time></trkpt><trkpt lat="43.0530012" lon="12.4116851"><ele>177.79999999999998</ele><time>2026-04-19T08:22:28.365Z</time></trkpt><trkpt lat="43.0528907" lon="12.4116484"><ele>178.2</ele><time>2026-04-19T08:22:30.405Z</time></trkpt><trkpt lat="43.0527801" lon="12.4116177"><ele>178.6</ele><time>2026-04-19T08:22:32.43Z</time></trkpt><trkpt lat="43.0526767" lon="12.4115842"><ele>179.0</ele><time>2026-04-19T08:22:34.428Z</time></trkpt><trkpt lat="43.052576" lon="12.411559"><ele>179.0</ele><time>2026-04-19T08:22:36.406Z</time></trkpt><trkpt lat="43.05248" lon="12.4114996"><ele>179.0</ele><time>2026-04-19T08:22:38.376Z</time></trkpt><trkpt lat="43.0523815" lon="12.4114445"><ele>179.0</ele><time>2026-04-19T08:22:40.388Z</time></trkpt><trkpt lat="43.0522781" lon="12.4113965"><ele>179.0</ele><time>2026-04-19T08:22:42.424Z</time></trkpt><trkpt lat="43.052179" lon="12.4113148"><ele>179.0</ele><time>2026-04-19T08:22:44.64Z</time></trkpt><trkpt lat="43.0521007" lon="12.411241"><ele>178.75</ele><time>2026-04-19T08:22:46.401Z</time></trkpt><trkpt lat="43.0520146" lon="12.4111589"><ele>178.5</ele><time>2026-04-19T08:22:48.428Z</time></trkpt><trkpt lat="43.051928" lon="12.4110851"><ele>178.25</ele><time>2026-04-19T08:22:50.376Z</time></trkpt><trkpt lat="43.0517949" lon="12.4109743"><ele>178.0</ele><time>2026-04-19T08:22:53.413Z</time></trkpt><trkpt lat="43.0517118" lon="12.4108954"><ele>178.0</ele><time>2026-04-19T08:22:55.401Z</time></trkpt><trkpt lat="43.0516243" lon="12.4108254"><ele>178.0</ele><time>2026-04-19T08:22:57.405Z</time></trkpt><trkpt lat="43.0515403" lon="12.4107473"><ele>178.0</ele><time>2026-04-19T08:22:59.428Z</time></trkpt><trkpt lat="43.0514537" lon="12.4106734"><ele>178.0</ele><time>2026-04-19T08:23:01.418Z</time></trkpt><trkpt lat="43.0513606" lon="12.4105965"><ele>178.0</ele><time>2026-04-19T08:23:03.558Z</time></trkpt><trkpt lat="43.0512807" lon="12.4105338"><ele>178.0</ele><time>2026-04-19T08:23:05.36Z</time></trkpt><trkpt lat="43.0511928" lon="12.410457"><ele>178.0</ele><time>2026-04-19T08:23:07.408Z</time></trkpt><trkpt lat="43.0511087" lon="12.4103794"><ele>178.0</ele><time>2026-04-19T08:23:09.395Z</time></trkpt><trkpt lat="43.0510219" lon="12.4103025"><ele>178.0</ele><time>2026-04-19T08:23:11.365Z</time></trkpt><trkpt lat="43.0509337" lon="12.4102267"><ele>178.0</ele><time>2026-04-19T08:23:13.349Z</time></trkpt><trkpt lat="43.050846" lon="12.4101542"><ele>178.2</ele><time>2026-04-19T08:23:15.374Z</time></trkpt><trkpt lat="43.050766" lon="12.4100722"><ele>178.4</ele><time>2026-04-19T08:23:17.387Z</time></trkpt><trkpt lat="43.0506821" lon="12.4099974"><ele>178.6</ele><time>2026-04-19T08:23:19.403Z</time></trkpt><trkpt lat="43.0505899" lon="12.4099131"><ele>178.79999999999998</ele><time>2026-04-19T08:23:21.536Z</time></trkpt><trkpt lat="43.0505102" lon="12.409839"><ele>179.0</ele><time>2026-04-19T08:23:23.406Z</time></trkpt><trkpt lat="43.0504225" lon="12.4097555"><ele>179.0</ele><time>2026-04-19T08:23:25.405Z</time></trkpt><trkpt lat="43.0503311" lon="12.4096797"><ele>179.0</ele><time>2026-04-19T08:23:27.388Z</time></trkpt><trkpt lat="43.0502781" lon="12.4096295"><ele>179.0</ele><time>2026-04-19T08:23:28.557Z</time></trkpt><trkpt lat="43.0501952" lon="12.4095546"><ele>179.0</ele><time>2026-04-19T08:23:30.381Z</time></trkpt><trkpt lat="43.0501032" lon="12.4094732"><ele>179.0</ele><time>2026-04-19T08:23:32.425Z</time></trkpt><trkpt lat="43.0500123" lon="12.409397"><ele>178.39999999999998</ele><time>2026-04-19T08:23:34.379Z</time></trkpt><trkpt lat="43.0499206" lon="12.409318"><ele>177.8</ele><time>2026-04-19T08:23:36.416Z</time></trkpt><trkpt lat="43.049833" lon="12.4092436"><ele>177.2</ele><time>2026-04-19T08:23:38.395Z</time></trkpt><trkpt lat="43.0497495" lon="12.4091668"><ele>176.60000000000002</ele><time>2026-04-19T08:23:40.411Z</time></trkpt><trkpt lat="43.0496675" lon="12.4090895"><ele>176.0</ele><time>2026-04-19T08:23:42.417Z</time></trkpt><trkpt lat="43.04958" lon="12.4090146"><ele>176.0</ele><time>2026-04-19T08:23:44.377Z</time></trkpt><trkpt lat="43.0494849" lon="12.4089372"><ele>176.0</ele><time>2026-04-19T08:23:46.393Z</time></trkpt><trkpt lat="43.0493895" lon="12.4088607"><ele>176.0</ele><time>2026-04-19T08:23:48.39Z</time></trkpt><trkpt lat="43.0492911" lon="12.4087846"><ele>176.0</ele><time>2026-04-19T08:23:50.425Z</time></trkpt><trkpt lat="43.049188" lon="12.408719"><ele>176.0</ele><time>2026-04-19T08:23:52.441Z</time></trkpt><trkpt lat="43.0490905" lon="12.4086572"><ele>176.25</ele><time>2026-04-19T08:23:54.363Z</time></trkpt><trkpt lat="43.0489801" lon="12.408615"><ele>176.5</ele><time>2026-04-19T08:23:56.382Z</time></trkpt><trkpt lat="43.048872" lon="12.4085723"><ele>176.75</ele><time>2026-04-19T08:23:58.38Z</time></trkpt><trkpt lat="43.0487594" lon="12.4085412"><ele>177.0</ele><time>2026-04-19T08:24:00.416Z</time></trkpt><trkpt lat="43.0486476" lon="12.4085181"><ele>177.0</ele><time>2026-04-19T08:24:02.401Z</time></trkpt><trkpt lat="43.0485372" lon="12.4084981"><ele>177.0</ele><time>2026-04-19T08:24:04.385Z</time></trkpt><trkpt lat="43.0484293" lon="12.4084911"><ele>177.0</ele><time>2026-04-19T08:24:06.349Z</time></trkpt><trkpt lat="43.0483627" lon="12.4084942"><ele>177.0</ele><time>2026-04-19T08:24:07.56Z</time></trkpt><trkpt lat="43.0482591" lon="12.4084939"><ele>177.0</ele><time>2026-04-19T08:24:09.369Z</time></trkpt><trkpt lat="43.0481353" lon="12.4084937"><ele>177.2</ele><time>2026-04-19T08:24:11.609Z</time></trkpt><trkpt lat="43.0480373" lon="12.408506"><ele>177.39999999999998</ele><time>2026-04-19T08:24:13.347Z</time></trkpt><trkpt lat="43.0479221" lon="12.4085161"><ele>177.60000000000002</ele><time>2026-04-19T08:24:15.384Z</time></trkpt><trkpt lat="43.0478076" lon="12.408527"><ele>177.8</ele><time>2026-04-19T08:24:17.382Z</time></trkpt><trkpt lat="43.0476906" lon="12.4085361"><ele>178.0</ele><time>2026-04-19T08:24:19.409Z</time></trkpt><trkpt lat="43.0475789" lon="12.4085444"><ele>178.0</ele><time>2026-04-19T08:24:21.384Z</time></trkpt><trkpt lat="43.0474661" lon="12.4085593"><ele>178.0</ele><time>2026-04-19T08:24:23.373Z</time></trkpt><trkpt lat="43.0473523" lon="12.4085629"><ele>178.0</ele><time>2026-04-19T08:24:25.372Z</time></trkpt><trkpt lat="43.0472346" lon="12.4085738"><ele>178.0</ele><time>2026-04-19T08:24:27.393Z</time></trkpt><trkpt lat="43.0471207" lon="12.4085809"><ele>178.5</ele><time>2026-04-19T08:24:29.36Z</time></trkpt><trkpt lat="43.0470033" lon="12.4085897"><ele>179.0</ele><time>2026-04-19T08:24:31.38Z</time></trkpt><trkpt lat="43.0468851" lon="12.4086075"><ele>179.5</ele><time>2026-04-19T08:24:33.362Z</time></trkpt><trkpt lat="43.0467665" lon="12.4086168"><ele>180.0</ele><time>2026-04-19T08:24:35.393Z</time></trkpt><trkpt lat="43.0466519" lon="12.4086322"><ele>179.0</ele><time>2026-04-19T08:24:37.376Z</time></trkpt><trkpt lat="43.0465314" lon="12.4086512"><ele>178.0</ele><time>2026-04-19T08:24:39.484Z</time></trkpt><trkpt lat="43.0464172" lon="12.4086647"><ele>177.0</ele><time>2026-04-19T08:24:41.406Z</time></trkpt><trkpt lat="43.0463022" lon="12.4086822"><ele>176.0</ele><time>2026-04-19T08:24:43.417Z</time></trkpt><trkpt lat="43.0461904" lon="12.4086961"><ele>176.0</ele><time>2026-04-19T08:24:45.423Z</time></trkpt><trkpt lat="43.0460767" lon="12.4087211"><ele>176.0</ele><time>2026-04-19T08:24:47.379Z</time></trkpt><trkpt lat="43.0459589" lon="12.4087352"><ele>176.0</ele><time>2026-04-19T08:24:49.397Z</time></trkpt><trkpt lat="43.045849" lon="12.4087661"><ele>176.0</ele><time>2026-04-19T08:24:51.351Z</time></trkpt><trkpt lat="43.0457319" lon="12.4087897"><ele>176.0</ele><time>2026-04-19T08:24:53.379Z</time></trkpt><trkpt lat="43.0456162" lon="12.4088062"><ele>176.0</ele><time>2026-04-19T08:24:55.422Z</time></trkpt><trkpt lat="43.0455055" lon="12.408827"><ele>176.0</ele><time>2026-04-19T08:24:57.416Z</time></trkpt><trkpt lat="43.0453912" lon="12.4088501"><ele>176.0</ele><time>2026-04-19T08:24:59.529Z</time></trkpt><trkpt lat="43.045288" lon="12.4088759"><ele>176.0</ele><time>2026-04-19T08:25:01.389Z</time></trkpt><trkpt lat="43.0451811" lon="12.408902"><ele>176.0</ele><time>2026-04-19T08:25:03.352Z</time></trkpt><trkpt lat="43.0450722" lon="12.4089336"><ele>176.0</ele><time>2026-04-19T08:25:05.378Z</time></trkpt><trkpt lat="43.0449565" lon="12.4089539"><ele>176.0</ele><time>2026-04-19T08:25:07.382Z</time></trkpt><trkpt lat="43.0448392" lon="12.4089825"><ele>176.0</ele><time>2026-04-19T08:25:09.414Z</time></trkpt><trkpt lat="43.0447275" lon="12.4090112"><ele>176.0</ele><time>2026-04-19T08:25:11.388Z</time></trkpt><trkpt lat="43.0446123" lon="12.409039"><ele>176.0</ele><time>2026-04-19T08:25:13.39Z</time></trkpt><trkpt lat="43.0444972" lon="12.4090633"><ele>176.0</ele><time>2026-04-19T08:25:15.398Z</time></trkpt><trkpt lat="43.0444362" lon="12.409088"><ele>176.0</ele><time>2026-04-19T08:25:16.512Z</time></trkpt><trkpt lat="43.044328" lon="12.4091137"><ele>176.0</ele><time>2026-04-19T08:25:18.4Z</time></trkpt><trkpt lat="43.0442185" lon="12.4091405"><ele>176.20000000000002</ele><time>2026-04-19T08:25:20.405Z</time></trkpt><trkpt lat="43.0441097" lon="12.4091635"><ele>176.4</ele><time>2026-04-19T08:25:22.447Z</time></trkpt><trkpt lat="43.0440023" lon="12.4091884"><ele>176.6</ele><time>2026-04-19T08:25:24.389Z</time></trkpt><trkpt lat="43.0438782" lon="12.4092272"><ele>176.8</ele><time>2026-04-19T08:25:26.607Z</time></trkpt><trkpt lat="43.0437789" lon="12.409254"><ele>177.0</ele><time>2026-04-19T08:25:28.369Z</time></trkpt><trkpt lat="43.0436636" lon="12.4092893"><ele>177.0</ele><time>2026-04-19T08:25:30.407Z</time></trkpt><trkpt lat="43.0435531" lon="12.4093188"><ele>177.0</ele><time>2026-04-19T08:25:32.398Z</time></trkpt><trkpt lat="43.0434403" lon="12.4093483"><ele>177.0</ele><time>2026-04-19T08:25:34.384Z</time></trkpt><trkpt lat="43.0433239" lon="12.4093736"><ele>177.0</ele><time>2026-04-19T08:25:36.437Z</time></trkpt><trkpt lat="43.0432164" lon="12.4093986"><ele>177.0</ele><time>2026-04-19T08:25:38.377Z</time></trkpt><trkpt lat="43.0431034" lon="12.4094294"><ele>177.0</ele><time>2026-04-19T08:25:40.377Z</time></trkpt><trkpt lat="43.0429908" lon="12.4094562"><ele>177.0</ele><time>2026-04-19T08:25:42.424Z</time></trkpt><trkpt lat="43.0428788" lon="12.4094786"><ele>177.0</ele><time>2026-04-19T08:25:44.397Z</time></trkpt><trkpt lat="43.0427626" lon="12.4095121"><ele>177.0</ele><time>2026-04-19T08:25:46.411Z</time></trkpt><trkpt lat="43.0426441" lon="12.4095414"><ele>177.0</ele><time>2026-04-19T08:25:48.423Z</time></trkpt><trkpt lat="43.0425245" lon="12.409574"><ele>177.0</ele><time>2026-04-19T08:25:50.404Z</time></trkpt><trkpt lat="43.0424049" lon="12.4096099"><ele>177.0</ele><time>2026-04-19T08:25:52.387Z</time></trkpt><trkpt lat="43.0422872" lon="12.4096445"><ele>177.0</ele><time>2026-04-19T08:25:54.364Z</time></trkpt><trkpt lat="43.0422243" lon="12.4096577"><ele>177.0</ele><time>2026-04-19T08:25:55.365Z</time></trkpt><trkpt lat="43.0421038" lon="12.4096893"><ele>177.0</ele><time>2026-04-19T08:25:57.387Z</time></trkpt><trkpt lat="43.0419853" lon="12.4097138"><ele>177.0</ele><time>2026-04-19T08:25:59.412Z</time></trkpt><trkpt lat="43.0418686" lon="12.4097476"><ele>177.0</ele><time>2026-04-19T08:26:01.391Z</time></trkpt><trkpt lat="43.0417511" lon="12.4097846"><ele>177.0</ele><time>2026-04-19T08:26:03.417Z</time></trkpt><trkpt lat="43.0416358" lon="12.4098162"><ele>177.0</ele><time>2026-04-19T08:26:05.36Z</time></trkpt><trkpt lat="43.041514" lon="12.4098477"><ele>177.0</ele><time>2026-04-19T08:26:07.343Z</time></trkpt><trkpt lat="43.0414387" lon="12.4098651"><ele>177.0</ele><time>2026-04-19T08:26:08.612Z</time></trkpt><trkpt lat="43.0413332" lon="12.4098933"><ele>177.0</ele><time>2026-04-19T08:26:10.392Z</time></trkpt><trkpt lat="43.0412132" lon="12.4099292"><ele>177.0</ele><time>2026-04-19T08:26:12.516Z</time></trkpt><trkpt lat="43.0411028" lon="12.4099592"><ele>177.0</ele><time>2026-04-19T08:26:14.482Z</time></trkpt><trkpt lat="43.0409935" lon="12.4099868"><ele>177.0</ele><time>2026-04-19T08:26:16.447Z</time></trkpt><trkpt lat="43.0408841" lon="12.4100208"><ele>177.0</ele><time>2026-04-19T08:26:18.403Z</time></trkpt><trkpt lat="43.0407648" lon="12.4100476"><ele>177.0</ele><time>2026-04-19T08:26:20.481Z</time></trkpt><trkpt lat="43.0406545" lon="12.4100766"><ele>177.0</ele><time>2026-04-19T08:26:22.421Z</time></trkpt><trkpt lat="43.0405417" lon="12.4101112"><ele>177.0</ele><time>2026-04-19T08:26:24.419Z</time></trkpt><trkpt lat="43.0404287" lon="12.4101445"><ele>177.0</ele><time>2026-04-19T08:26:26.377Z</time></trkpt><trkpt lat="43.0403099" lon="12.4101949"><ele>177.0</ele><time>2026-04-19T08:26:28.521Z</time></trkpt><trkpt lat="43.0402177" lon="12.410277"><ele>177.0</ele><time>2026-04-19T08:26:30.453Z</time></trkpt><trkpt lat="43.0401338" lon="12.4103838"><ele>177.0</ele><time>2026-04-19T08:26:32.389Z</time></trkpt><trkpt lat="43.0400508" lon="12.4104785"><ele>177.0</ele><time>2026-04-19T08:26:34.388Z</time></trkpt><trkpt lat="43.0399733" lon="12.4105874"><ele>177.0</ele><time>2026-04-19T08:26:36.391Z</time></trkpt><trkpt lat="43.0398943" lon="12.4107046"><ele>176.6</ele><time>2026-04-19T08:26:38.414Z</time></trkpt><trkpt lat="43.0398218" lon="12.4108224"><ele>176.2</ele><time>2026-04-19T08:26:40.403Z</time></trkpt><trkpt lat="43.0397407" lon="12.4109384"><ele>175.8</ele><time>2026-04-19T08:26:42.478Z</time></trkpt><trkpt lat="43.0396771" lon="12.4110485"><ele>175.4</ele><time>2026-04-19T08:26:44.391Z</time></trkpt><trkpt lat="43.039631" lon="12.4111081"><ele>175.0</ele><time>2026-04-19T08:26:45.527Z</time></trkpt><trkpt lat="43.0395478" lon="12.4112151"><ele>174.8</ele><time>2026-04-19T08:26:47.447Z</time></trkpt><trkpt lat="43.0394698" lon="12.4113239"><ele>174.6</ele><time>2026-04-19T08:26:49.405Z</time></trkpt><trkpt lat="43.0394243" lon="12.4113851"><ele>174.39999999999998</ele><time>2026-04-19T08:26:50.432Z</time></trkpt><trkpt lat="43.0393503" lon="12.4114976"><ele>174.2</ele><time>2026-04-19T08:26:52.42Z</time></trkpt><trkpt lat="43.0392817" lon="12.4116125"><ele>174.0</ele><time>2026-04-19T08:26:54.384Z</time></trkpt><trkpt lat="43.0392019" lon="12.4117211"><ele>174.0</ele><time>2026-04-19T08:26:56.403Z</time></trkpt><trkpt lat="43.0391313" lon="12.411835"><ele>174.0</ele><time>2026-04-19T08:26:58.378Z</time></trkpt><trkpt lat="43.0390537" lon="12.4119465"><ele>174.0</ele><time>2026-04-19T08:27:00.397Z</time></trkpt><trkpt lat="43.0389813" lon="12.4120566"><ele>174.0</ele><time>2026-04-19T08:27:02.378Z</time></trkpt><trkpt lat="43.0389" lon="12.4121633"><ele>174.0</ele><time>2026-04-19T08:27:04.384Z</time></trkpt><trkpt lat="43.0388186" lon="12.412278"><ele>174.0</ele><time>2026-04-19T08:27:06.376Z</time></trkpt><trkpt lat="43.0387426" lon="12.4123977"><ele>174.0</ele><time>2026-04-19T08:27:08.387Z</time></trkpt><trkpt lat="43.0386681" lon="12.4125152"><ele>174.0</ele><time>2026-04-19T08:27:10.411Z</time></trkpt><trkpt lat="43.0385849" lon="12.4126309"><ele>174.0</ele><time>2026-04-19T08:27:12.407Z</time></trkpt><trkpt lat="43.0385008" lon="12.4127444"><ele>174.0</ele><time>2026-04-19T08:27:14.48Z</time></trkpt><trkpt lat="43.0384254" lon="12.4128575"><ele>174.0</ele><time>2026-04-19T08:27:16.399Z</time></trkpt><trkpt lat="43.0383466" lon="12.4129705"><ele>174.0</ele><time>2026-04-19T08:27:18.385Z</time></trkpt><trkpt lat="43.0382646" lon="12.4130851"><ele>174.0</ele><time>2026-04-19T08:27:20.382Z</time></trkpt><trkpt lat="43.0381842" lon="12.4132073"><ele>173.5</ele><time>2026-04-19T08:27:22.394Z</time></trkpt><trkpt lat="43.0380995" lon="12.4133283"><ele>173.0</ele><time>2026-04-19T08:27:24.447Z</time></trkpt><trkpt lat="43.0380235" lon="12.4134442"><ele>172.5</ele><time>2026-04-19T08:27:26.382Z</time></trkpt><trkpt lat="43.0379412" lon="12.4135595"><ele>172.0</ele><time>2026-04-19T08:27:28.373Z</time></trkpt><trkpt lat="43.0378589" lon="12.4136766"><ele>172.0</ele><time>2026-04-19T08:27:30.441Z</time></trkpt><trkpt lat="43.0377833" lon="12.4137874"><ele>172.0</ele><time>2026-04-19T08:27:32.427Z</time></trkpt><trkpt lat="43.0377064" lon="12.4139026"><ele>172.0</ele><time>2026-04-19T08:27:34.436Z</time></trkpt><trkpt lat="43.0376337" lon="12.4140116"><ele>172.0</ele><time>2026-04-19T08:27:36.394Z</time></trkpt><trkpt lat="43.0375575" lon="12.4141219"><ele>172.0</ele><time>2026-04-19T08:27:38.36Z</time></trkpt><trkpt lat="43.0374783" lon="12.4142327"><ele>172.0</ele><time>2026-04-19T08:27:40.39Z</time></trkpt><trkpt lat="43.0374034" lon="12.4143485"><ele>172.0</ele><time>2026-04-19T08:27:42.395Z</time></trkpt><trkpt lat="43.0373264" lon="12.4144567"><ele>172.0</ele><time>2026-04-19T08:27:44.413Z</time></trkpt><trkpt lat="43.037256" lon="12.4145634"><ele>172.0</ele><time>2026-04-19T08:27:46.379Z</time></trkpt><trkpt lat="43.0371767" lon="12.4146691"><ele>172.0</ele><time>2026-04-19T08:27:48.421Z</time></trkpt><trkpt lat="43.0371099" lon="12.4147761"><ele>172.0</ele><time>2026-04-19T08:27:50.395Z</time></trkpt><trkpt lat="43.0370342" lon="12.4148781"><ele>172.0</ele><time>2026-04-19T08:27:52.405Z</time></trkpt><trkpt lat="43.0369675" lon="12.4149796"><ele>172.0</ele><time>2026-04-19T08:27:54.393Z</time></trkpt><trkpt lat="43.0369021" lon="12.4150744"><ele>172.0</ele><time>2026-04-19T08:27:56.384Z</time></trkpt><trkpt lat="43.0368411" lon="12.4151573"><ele>172.0</ele><time>2026-04-19T08:27:58.372Z</time></trkpt><trkpt lat="43.0367696" lon="12.4152263"><ele>172.00000000000003</ele><time>2026-04-19T08:28:00.449Z</time></trkpt><trkpt lat="43.0367176" lon="12.4152874"><ele>172.0</ele><time>2026-04-19T08:28:02.427Z</time></trkpt><trkpt lat="43.0366548" lon="12.4153237"><ele>172.0</ele><time>2026-04-19T08:28:04.378Z</time></trkpt><trkpt lat="43.036607" lon="12.4153837"><ele>172.0</ele><time>2026-04-19T08:28:06.362Z</time></trkpt><trkpt lat="43.0365754" lon="12.4154616"><ele>172.0</ele><time>2026-04-19T08:28:08.421Z</time></trkpt><trkpt lat="43.0365792" lon="12.4155818"><ele>172.00000000000003</ele><time>2026-04-19T08:28:11.485Z</time></trkpt><trkpt lat="43.0366652" lon="12.4155475"><ele>172.0</ele><time>2026-04-19T08:28:14.391Z</time></trkpt><trkpt lat="43.0367352" lon="12.4154731"><ele>172.0</ele><time>2026-04-19T08:28:17.414Z</time></trkpt><trkpt lat="43.0368095" lon="12.4154"><ele>172.0</ele><time>2026-04-19T08:28:20.406Z</time></trkpt><trkpt lat="43.0368596" lon="12.4152945"><ele>172.0</ele><time>2026-04-19T08:29:11.528Z</time></trkpt><trkpt lat="43.0368916" lon="12.4152068"><ele>172.0</ele><time>2026-04-19T08:29:14.381Z</time></trkpt><trkpt lat="43.0369565" lon="12.4151108"><ele>172.0</ele><time>2026-04-19T08:29:17.408Z</time></trkpt><trkpt lat="43.0370033" lon="12.4150432"><ele>172.0</ele><time>2026-04-19T08:29:19.412Z</time></trkpt><trkpt lat="43.0370469" lon="12.4149768"><ele>172.0</ele><time>2026-04-19T08:29:21.416Z</time></trkpt><trkpt lat="43.0370878" lon="12.4149104"><ele>172.0</ele><time>2026-04-19T08:29:23.409Z</time></trkpt><trkpt lat="43.0371517" lon="12.4148137"><ele>172.0</ele><time>2026-04-19T08:29:26.415Z</time></trkpt><trkpt lat="43.0372123" lon="12.4147176"><ele>172.0</ele><time>2026-04-19T08:29:29.461Z</time></trkpt><trkpt lat="43.0372642" lon="12.4146559"><ele>172.0</ele><time>2026-04-19T08:29:31.527Z</time></trkpt><trkpt lat="43.0373343" lon="12.4145619"><ele>172.0</ele><time>2026-04-19T08:29:34.512Z</time></trkpt><trkpt lat="43.0373982" lon="12.4144703"><ele>172.14285714285717</ele><time>2026-04-19T08:29:37.382Z</time></trkpt><trkpt lat="43.0374413" lon="12.4143983"><ele>172.28571428571428</ele><time>2026-04-19T08:29:39.433Z</time></trkpt><trkpt lat="43.0374874" lon="12.4143311"><ele>172.42857142857144</ele><time>2026-04-19T08:29:41.422Z</time></trkpt><trkpt lat="43.0375336" lon="12.4142618"><ele>172.57142857142858</ele><time>2026-04-19T08:29:43.398Z</time></trkpt><trkpt lat="43.0375819" lon="12.4141919"><ele>172.71428571428572</ele><time>2026-04-19T08:29:45.399Z</time></trkpt><trkpt lat="43.0376257" lon="12.4141179"><ele>172.85714285714286</ele><time>2026-04-19T08:29:47.373Z</time></trkpt><trkpt lat="43.037682" lon="12.4140516"><ele>173.0</ele><time>2026-04-19T08:29:49.401Z</time></trkpt><trkpt lat="43.0377315" lon="12.4139776"><ele>173.0</ele><time>2026-04-19T08:29:51.416Z</time></trkpt><trkpt lat="43.0377814" lon="12.413903"><ele>173.0</ele><time>2026-04-19T08:29:53.432Z</time></trkpt><trkpt lat="43.037833" lon="12.4138291"><ele>173.0</ele><time>2026-04-19T08:29:55.432Z</time></trkpt><trkpt lat="43.0378838" lon="12.4137549"><ele>173.0</ele><time>2026-04-19T08:29:57.381Z</time></trkpt><trkpt lat="43.0379437" lon="12.413673"><ele>173.0</ele><time>2026-04-19T08:29:59.515Z</time></trkpt><trkpt lat="43.0379968" lon="12.4135994"><ele>173.0</ele><time>2026-04-19T08:30:01.38Z</time></trkpt><trkpt lat="43.0380529" lon="12.4135192"><ele>173.0</ele><time>2026-04-19T08:30:03.405Z</time></trkpt><trkpt lat="43.038109" lon="12.4134382"><ele>173.0</ele><time>2026-04-19T08:30:05.461Z</time></trkpt><trkpt lat="43.0381616" lon="12.4133589"><ele>173.0</ele><time>2026-04-19T08:30:07.425Z</time></trkpt><trkpt lat="43.0382154" lon="12.4132813"><ele>173.0</ele><time>2026-04-19T08:30:09.431Z</time></trkpt><trkpt lat="43.0382666" lon="12.4132083"><ele>173.0</ele><time>2026-04-19T08:30:11.412Z</time></trkpt><trkpt lat="43.038316" lon="12.4131331"><ele>173.0</ele><time>2026-04-19T08:30:13.414Z</time></trkpt><trkpt lat="43.0383671" lon="12.4130546"><ele>173.14285714285714</ele><time>2026-04-19T08:30:15.425Z</time></trkpt><trkpt lat="43.0384203" lon="12.4129795"><ele>173.2857142857143</ele><time>2026-04-19T08:30:17.449Z</time></trkpt><trkpt lat="43.0384647" lon="12.4128984"><ele>173.42857142857144</ele><time>2026-04-19T08:30:19.42Z</time></trkpt><trkpt lat="43.0385207" lon="12.4128313"><ele>173.57142857142856</ele><time>2026-04-19T08:30:21.426Z</time></trkpt><trkpt lat="43.038567" lon="12.4127591"><ele>173.71428571428572</ele><time>2026-04-19T08:30:23.377Z</time></trkpt><trkpt lat="43.0386143" lon="12.412687"><ele>173.85714285714286</ele><time>2026-04-19T08:30:25.378Z</time></trkpt><trkpt lat="43.0386612" lon="12.4126184"><ele>174.0</ele><time>2026-04-19T08:30:27.451Z</time></trkpt><trkpt lat="43.0387121" lon="12.4125499"><ele>174.0</ele><time>2026-04-19T08:30:29.392Z</time></trkpt><trkpt lat="43.038759" lon="12.4124729"><ele>174.0</ele><time>2026-04-19T08:30:31.398Z</time></trkpt><trkpt lat="43.0388102" lon="12.4123951"><ele>174.0</ele><time>2026-04-19T08:30:33.435Z</time></trkpt><trkpt lat="43.0388642" lon="12.4123169"><ele>174.0</ele><time>2026-04-19T08:30:35.479Z</time></trkpt><trkpt lat="43.0389171" lon="12.4122338"><ele>174.0</ele><time>2026-04-19T08:30:37.623Z</time></trkpt><trkpt lat="43.0389638" lon="12.4121667"><ele>174.0</ele><time>2026-04-19T08:30:39.407Z</time></trkpt><trkpt lat="43.0390163" lon="12.4121034"><ele>174.0</ele><time>2026-04-19T08:30:41.44Z</time></trkpt><trkpt lat="43.0390636" lon="12.4120301"><ele>174.0</ele><time>2026-04-19T08:30:43.42Z</time></trkpt><trkpt lat="43.03911" lon="12.4119546"><ele>174.0</ele><time>2026-04-19T08:30:45.429Z</time></trkpt><trkpt lat="43.0391646" lon="12.4118822"><ele>174.0</ele><time>2026-04-19T08:30:47.54Z</time></trkpt><trkpt lat="43.039209" lon="12.4118139"><ele>174.0</ele><time>2026-04-19T08:30:49.392Z</time></trkpt><trkpt lat="43.03926" lon="12.4117456"><ele>174.0</ele><time>2026-04-19T08:30:51.394Z</time></trkpt><trkpt lat="43.0393119" lon="12.4116761"><ele>174.0</ele><time>2026-04-19T08:30:53.425Z</time></trkpt><trkpt lat="43.0393869" lon="12.411565"><ele>174.0</ele><time>2026-04-19T08:30:56.462Z</time></trkpt><trkpt lat="43.0394326" lon="12.41149"><ele>174.0</ele><time>2026-04-19T08:30:58.393Z</time></trkpt><trkpt lat="43.0394896" lon="12.4114106"><ele>174.0</ele><time>2026-04-19T08:31:00.531Z</time></trkpt><trkpt lat="43.0395392" lon="12.4113481"><ele>174.0</ele><time>2026-04-19T08:31:02.432Z</time></trkpt><trkpt lat="43.0395873" lon="12.4112777"><ele>174.0</ele><time>2026-04-19T08:31:04.39Z</time></trkpt><trkpt lat="43.0396423" lon="12.4112101"><ele>174.0</ele><time>2026-04-19T08:31:06.405Z</time></trkpt><trkpt lat="43.0396877" lon="12.4111332"><ele>174.0</ele><time>2026-04-19T08:31:08.423Z</time></trkpt><trkpt lat="43.0397366" lon="12.4110632"><ele>174.16666666666666</ele><time>2026-04-19T08:31:10.44Z</time></trkpt><trkpt lat="43.0398143" lon="12.4109571"><ele>174.33333333333334</ele><time>2026-04-19T08:31:13.403Z</time></trkpt><trkpt lat="43.0398666" lon="12.4108813"><ele>174.5</ele><time>2026-04-19T08:31:15.424Z</time></trkpt><trkpt lat="43.0399202" lon="12.4108053"><ele>174.66666666666669</ele><time>2026-04-19T08:31:17.434Z</time></trkpt><trkpt lat="43.0399714" lon="12.4107244"><ele>174.83333333333334</ele><time>2026-04-19T08:31:19.518Z</time></trkpt><trkpt lat="43.0400218" lon="12.4106561"><ele>175.0</ele><time>2026-04-19T08:31:21.436Z</time></trkpt><trkpt lat="43.0400695" lon="12.410579"><ele>175.16666666666669</ele><time>2026-04-19T08:31:23.433Z</time></trkpt><trkpt lat="43.0401217" lon="12.410496"><ele>175.33333333333334</ele><time>2026-04-19T08:31:25.498Z</time></trkpt><trkpt lat="43.0401739" lon="12.4104226"><ele>175.5</ele><time>2026-04-19T08:31:27.399Z</time></trkpt><trkpt lat="43.0402306" lon="12.4103472"><ele>175.66666666666666</ele><time>2026-04-19T08:31:29.403Z</time></trkpt><trkpt lat="43.0402936" lon="12.4102835"><ele>175.83333333333331</ele><time>2026-04-19T08:31:31.465Z</time></trkpt><trkpt lat="43.0403703" lon="12.4102282"><ele>176.0</ele><time>2026-04-19T08:31:33.489Z</time></trkpt><trkpt lat="43.0404459" lon="12.4102084"><ele>176.16666666666666</ele><time>2026-04-19T08:31:35.393Z</time></trkpt><trkpt lat="43.0405315" lon="12.4101894"><ele>176.33333333333331</ele><time>2026-04-19T08:31:37.435Z</time></trkpt><trkpt lat="43.0406189" lon="12.4101711"><ele>176.5</ele><time>2026-04-19T08:31:39.561Z</time></trkpt><trkpt lat="43.0406927" lon="12.4101514"><ele>176.66666666666666</ele><time>2026-04-19T08:31:41.399Z</time></trkpt><trkpt lat="43.0407727" lon="12.4101313"><ele>176.83333333333334</ele><time>2026-04-19T08:31:43.397Z</time></trkpt><trkpt lat="43.0408516" lon="12.4101105"><ele>177.0</ele><time>2026-04-19T08:31:45.448Z</time></trkpt><trkpt lat="43.0409321" lon="12.4100913"><ele>177.0</ele><time>2026-04-19T08:31:47.432Z</time></trkpt><trkpt lat="43.0410106" lon="12.4100702"><ele>177.0</ele><time>2026-04-19T08:31:49.419Z</time></trkpt><trkpt lat="43.0410901" lon="12.4100524"><ele>177.0</ele><time>2026-04-19T08:31:51.396Z</time></trkpt><trkpt lat="43.0411732" lon="12.4100268"><ele>177.0</ele><time>2026-04-19T08:31:53.436Z</time></trkpt><trkpt lat="43.0412572" lon="12.4100041"><ele>177.0</ele><time>2026-04-19T08:31:55.431Z</time></trkpt><trkpt lat="43.0413417" lon="12.4099829"><ele>177.0</ele><time>2026-04-19T08:31:57.426Z</time></trkpt><trkpt lat="43.0414212" lon="12.4099516"><ele>177.0</ele><time>2026-04-19T08:31:59.444Z</time></trkpt><trkpt lat="43.0415044" lon="12.409929"><ele>177.0</ele><time>2026-04-19T08:32:01.378Z</time></trkpt><trkpt lat="43.0415916" lon="12.409906"><ele>177.0</ele><time>2026-04-19T08:32:03.397Z</time></trkpt><trkpt lat="43.0416769" lon="12.4098806"><ele>177.0</ele><time>2026-04-19T08:32:05.405Z</time></trkpt><trkpt lat="43.0417649" lon="12.4098605"><ele>177.0</ele><time>2026-04-19T08:32:07.385Z</time></trkpt><trkpt lat="43.0418508" lon="12.4098305"><ele>177.0</ele><time>2026-04-19T08:32:09.424Z</time></trkpt><trkpt lat="43.041943" lon="12.4098053"><ele>177.0</ele><time>2026-04-19T08:32:11.405Z</time></trkpt><trkpt lat="43.0420316" lon="12.4097872"><ele>177.0</ele><time>2026-04-19T08:32:13.412Z</time></trkpt><trkpt lat="43.0421185" lon="12.409769"><ele>177.0</ele><time>2026-04-19T08:32:15.446Z</time></trkpt><trkpt lat="43.042198" lon="12.4097466"><ele>177.0</ele><time>2026-04-19T08:32:17.452Z</time></trkpt><trkpt lat="43.0422791" lon="12.4097224"><ele>177.0</ele><time>2026-04-19T08:32:19.432Z</time></trkpt><trkpt lat="43.0423631" lon="12.409699"><ele>177.0</ele><time>2026-04-19T08:32:21.418Z</time></trkpt><trkpt lat="43.0424486" lon="12.4096733"><ele>177.0</ele><time>2026-04-19T08:32:23.439Z</time></trkpt><trkpt lat="43.0425407" lon="12.4096497"><ele>177.0</ele><time>2026-04-19T08:32:25.437Z</time></trkpt><trkpt lat="43.0426405" lon="12.409627"><ele>177.0</ele><time>2026-04-19T08:32:27.424Z</time></trkpt><trkpt lat="43.0427333" lon="12.4096025"><ele>177.0</ele><time>2026-04-19T08:32:29.439Z</time></trkpt><trkpt lat="43.0428332" lon="12.4095788"><ele>177.0</ele><time>2026-04-19T08:32:31.386Z</time></trkpt><trkpt lat="43.0429316" lon="12.4095502"><ele>177.0</ele><time>2026-04-19T08:32:33.369Z</time></trkpt><trkpt lat="43.0430365" lon="12.4095279"><ele>177.0</ele><time>2026-04-19T08:32:35.394Z</time></trkpt><trkpt lat="43.043147" lon="12.4095003"><ele>177.0</ele><time>2026-04-19T08:32:37.5Z</time></trkpt><trkpt lat="43.04325" lon="12.4094684"><ele>177.0</ele><time>2026-04-19T08:32:39.436Z</time></trkpt><trkpt lat="43.0434079" lon="12.4094232"><ele>177.0</ele><time>2026-04-19T08:32:42.416Z</time></trkpt><trkpt lat="43.0435105" lon="12.4093899"><ele>177.0</ele><time>2026-04-19T08:32:44.4Z</time></trkpt><trkpt lat="43.043618" lon="12.409361"><ele>177.0</ele><time>2026-04-19T08:32:46.397Z</time></trkpt><trkpt lat="43.0437294" lon="12.4093323"><ele>177.0</ele><time>2026-04-19T08:32:48.45Z</time></trkpt><trkpt lat="43.0438374" lon="12.4093048"><ele>177.0</ele><time>2026-04-19T08:32:50.453Z</time></trkpt><trkpt lat="43.0439407" lon="12.4092792"><ele>177.0</ele><time>2026-04-19T08:32:52.408Z</time></trkpt><trkpt lat="43.0440585" lon="12.4092486"><ele>177.0</ele><time>2026-04-19T08:32:54.481Z</time></trkpt><trkpt lat="43.0441693" lon="12.4092249"><ele>177.0</ele><time>2026-04-19T08:32:56.42Z</time></trkpt><trkpt lat="43.0442372" lon="12.4092077"><ele>177.0</ele><time>2026-04-19T08:32:57.641Z</time></trkpt><trkpt lat="43.0443362" lon="12.4091817"><ele>177.0</ele><time>2026-04-19T08:32:59.417Z</time></trkpt><trkpt lat="43.0444444" lon="12.409158"><ele>176.8</ele><time>2026-04-19T08:33:01.416Z</time></trkpt><trkpt lat="43.0445545" lon="12.4091353"><ele>176.6</ele><time>2026-04-19T08:33:03.42Z</time></trkpt><trkpt lat="43.0446584" lon="12.4091073"><ele>176.4</ele><time>2026-04-19T08:33:05.419Z</time></trkpt><trkpt lat="43.044761" lon="12.4090782"><ele>176.20000000000002</ele><time>2026-04-19T08:33:07.44Z</time></trkpt><trkpt lat="43.0448644" lon="12.409053"><ele>176.0</ele><time>2026-04-19T08:33:09.4Z</time></trkpt><trkpt lat="43.0449725" lon="12.4090258"><ele>176.0</ele><time>2026-04-19T08:33:11.429Z</time></trkpt><trkpt lat="43.0450784" lon="12.409"><ele>176.0</ele><time>2026-04-19T08:33:13.433Z</time></trkpt><trkpt lat="43.0451836" lon="12.4089771"><ele>176.0</ele><time>2026-04-19T08:33:15.442Z</time></trkpt><trkpt lat="43.0452914" lon="12.4089507"><ele>176.0</ele><time>2026-04-19T08:33:17.5Z</time></trkpt><trkpt lat="43.0453978" lon="12.4089278"><ele>176.0</ele><time>2026-04-19T08:33:19.413Z</time></trkpt><trkpt lat="43.0455032" lon="12.4089047"><ele>176.0</ele><time>2026-04-19T08:33:21.401Z</time></trkpt><trkpt lat="43.0456084" lon="12.4088795"><ele>176.0</ele><time>2026-04-19T08:33:23.408Z</time></trkpt><trkpt lat="43.0457199" lon="12.40886"><ele>176.0</ele><time>2026-04-19T08:33:25.412Z</time></trkpt><trkpt lat="43.0458254" lon="12.4088374"><ele>176.0</ele><time>2026-04-19T08:33:27.464Z</time></trkpt><trkpt lat="43.0459254" lon="12.4088127"><ele>176.0</ele><time>2026-04-19T08:33:29.446Z</time></trkpt><trkpt lat="43.0460275" lon="12.40879"><ele>176.0</ele><time>2026-04-19T08:33:31.418Z</time></trkpt><trkpt lat="43.0461371" lon="12.4087757"><ele>176.0</ele><time>2026-04-19T08:33:33.398Z</time></trkpt><trkpt lat="43.0463001" lon="12.4087528"><ele>176.0</ele><time>2026-04-19T08:33:36.402Z</time></trkpt><trkpt lat="43.0464126" lon="12.4087342"><ele>176.0</ele><time>2026-04-19T08:33:38.417Z</time></trkpt><trkpt lat="43.0465181" lon="12.4087181"><ele>176.0</ele><time>2026-04-19T08:33:40.409Z</time></trkpt><trkpt lat="43.0466243" lon="12.4087008"><ele>176.0</ele><time>2026-04-19T08:33:42.423Z</time></trkpt><trkpt lat="43.0467319" lon="12.4086871"><ele>176.0</ele><time>2026-04-19T08:33:44.402Z</time></trkpt><trkpt lat="43.0467974" lon="12.4086843"><ele>176.0</ele><time>2026-04-19T08:33:45.542Z</time></trkpt><trkpt lat="43.0469065" lon="12.4086766"><ele>176.0</ele><time>2026-04-19T08:33:47.414Z</time></trkpt><trkpt lat="43.0470158" lon="12.408666"><ele>176.4</ele><time>2026-04-19T08:33:49.422Z</time></trkpt><trkpt lat="43.0471269" lon="12.4086587"><ele>176.8</ele><time>2026-04-19T08:33:51.397Z</time></trkpt><trkpt lat="43.0472383" lon="12.4086519"><ele>177.20000000000002</ele><time>2026-04-19T08:33:53.436Z</time></trkpt><trkpt lat="43.0473481" lon="12.4086438"><ele>177.60000000000002</ele><time>2026-04-19T08:33:55.418Z</time></trkpt><trkpt lat="43.0474619" lon="12.4086367"><ele>178.0</ele><time>2026-04-19T08:33:57.45Z</time></trkpt><trkpt lat="43.0476323" lon="12.4086236"><ele>178.0</ele><time>2026-04-19T08:34:00.418Z</time></trkpt><trkpt lat="43.0477407" lon="12.4086131"><ele>178.0</ele><time>2026-04-19T08:34:02.398Z</time></trkpt><trkpt lat="43.0478501" lon="12.4086065"><ele>178.0</ele><time>2026-04-19T08:34:04.426Z</time></trkpt><trkpt lat="43.0479617" lon="12.4085979"><ele>178.0</ele><time>2026-04-19T08:34:06.435Z</time></trkpt><trkpt lat="43.0480751" lon="12.4085853"><ele>178.0</ele><time>2026-04-19T08:34:08.461Z</time></trkpt><trkpt lat="43.048185" lon="12.4085819"><ele>177.75</ele><time>2026-04-19T08:34:10.421Z</time></trkpt><trkpt lat="43.0482952" lon="12.4085773"><ele>177.5</ele><time>2026-04-19T08:34:12.389Z</time></trkpt><trkpt lat="43.0484082" lon="12.4085787"><ele>177.25</ele><time>2026-04-19T08:34:14.399Z</time></trkpt><trkpt lat="43.0485768" lon="12.4085925"><ele>177.0</ele><time>2026-04-19T08:34:17.401Z</time></trkpt><trkpt lat="43.0487042" lon="12.4086188"><ele>177.0</ele><time>2026-04-19T08:34:19.676Z</time></trkpt><trkpt lat="43.0488004" lon="12.4086482"><ele>177.0</ele><time>2026-04-19T08:34:21.433Z</time></trkpt><trkpt lat="43.0489101" lon="12.40869"><ele>177.0</ele><time>2026-04-19T08:34:23.448Z</time></trkpt><trkpt lat="43.0490186" lon="12.4087379"><ele>177.0</ele><time>2026-04-19T08:34:25.423Z</time></trkpt><trkpt lat="43.0491286" lon="12.4087936"><ele>177.0</ele><time>2026-04-19T08:34:27.433Z</time></trkpt><trkpt lat="43.0492316" lon="12.4088572"><ele>176.8</ele><time>2026-04-19T08:34:29.429Z</time></trkpt><trkpt lat="43.0493345" lon="12.4089298"><ele>176.6</ele><time>2026-04-19T08:34:31.511Z</time></trkpt><trkpt lat="43.0494257" lon="12.409002"><ele>176.4</ele><time>2026-04-19T08:34:33.41Z</time></trkpt><trkpt lat="43.0495223" lon="12.4090836"><ele>176.20000000000002</ele><time>2026-04-19T08:34:35.482Z</time></trkpt><trkpt lat="43.0496138" lon="12.4091655"><ele>176.0</ele><time>2026-04-19T08:34:37.441Z</time></trkpt><trkpt lat="43.0497054" lon="12.4092407"><ele>176.0</ele><time>2026-04-19T08:34:39.381Z</time></trkpt><trkpt lat="43.049798" lon="12.4093258"><ele>176.0</ele><time>2026-04-19T08:34:41.374Z</time></trkpt><trkpt lat="43.0498949" lon="12.4094107"><ele>176.0</ele><time>2026-04-19T08:34:43.416Z</time></trkpt><trkpt lat="43.0499912" lon="12.4094999"><ele>176.0</ele><time>2026-04-19T08:34:45.422Z</time></trkpt><trkpt lat="43.0500887" lon="12.4095873"><ele>176.60000000000002</ele><time>2026-04-19T08:34:47.447Z</time></trkpt><trkpt lat="43.0501843" lon="12.4096691"><ele>177.2</ele><time>2026-04-19T08:34:49.4Z</time></trkpt><trkpt lat="43.0502778" lon="12.4097549"><ele>177.8</ele><time>2026-04-19T08:34:51.42Z</time></trkpt><trkpt lat="43.0503682" lon="12.4098359"><ele>178.39999999999998</ele><time>2026-04-19T08:34:53.398Z</time></trkpt><trkpt lat="43.0504662" lon="12.4099157"><ele>179.0</ele><time>2026-04-19T08:34:55.432Z</time></trkpt><trkpt lat="43.0505544" lon="12.4099977"><ele>179.0</ele><time>2026-04-19T08:34:57.431Z</time></trkpt><trkpt lat="43.0506905" lon="12.4101135"><ele>179.0</ele><time>2026-04-19T08:35:00.45Z</time></trkpt><trkpt lat="43.0507788" lon="12.4101932"><ele>179.0</ele><time>2026-04-19T08:35:02.446Z</time></trkpt><trkpt lat="43.0508695" lon="12.4102718"><ele>179.0</ele><time>2026-04-19T08:35:04.438Z</time></trkpt><trkpt lat="43.0509576" lon="12.4103537"><ele>178.79999999999998</ele><time>2026-04-19T08:35:06.445Z</time></trkpt><trkpt lat="43.0510531" lon="12.410432"><ele>178.6</ele><time>2026-04-19T08:35:08.518Z</time></trkpt><trkpt lat="43.0511398" lon="12.4104998"><ele>178.4</ele><time>2026-04-19T08:35:10.424Z</time></trkpt><trkpt lat="43.0512282" lon="12.410574"><ele>178.2</ele><time>2026-04-19T08:35:12.424Z</time></trkpt><trkpt lat="43.0513178" lon="12.4106478"><ele>178.0</ele><time>2026-04-19T08:35:14.402Z</time></trkpt><trkpt lat="43.0514078" lon="12.4107278"><ele>178.0</ele><time>2026-04-19T08:35:16.37Z</time></trkpt><trkpt lat="43.0515033" lon="12.4108126"><ele>178.0</ele><time>2026-04-19T08:35:18.446Z</time></trkpt><trkpt lat="43.0515951" lon="12.4108992"><ele>178.0</ele><time>2026-04-19T08:35:20.437Z</time></trkpt><trkpt lat="43.051686" lon="12.4109867"><ele>178.0</ele><time>2026-04-19T08:35:22.427Z</time></trkpt><trkpt lat="43.051782" lon="12.4110661"><ele>178.0</ele><time>2026-04-19T08:35:24.396Z</time></trkpt><trkpt lat="43.0518766" lon="12.4111449"><ele>178.0</ele><time>2026-04-19T08:35:26.404Z</time></trkpt><trkpt lat="43.051976" lon="12.4112349"><ele>178.0</ele><time>2026-04-19T08:35:28.497Z</time></trkpt><trkpt lat="43.0520687" lon="12.4113121"><ele>178.0</ele><time>2026-04-19T08:35:30.401Z</time></trkpt><trkpt lat="43.0521606" lon="12.4113956"><ele>178.0</ele><time>2026-04-19T08:35:32.403Z</time></trkpt><trkpt lat="43.0522504" lon="12.4114863"><ele>178.0</ele><time>2026-04-19T08:35:34.42Z</time></trkpt><trkpt lat="43.052314" lon="12.4115995"><ele>178.0</ele><time>2026-04-19T08:35:36.386Z</time></trkpt><trkpt lat="43.0523982" lon="12.4116876"><ele>178.0</ele><time>2026-04-19T08:35:38.428Z</time></trkpt><trkpt lat="43.0524967" lon="12.4117344"><ele>178.0</ele><time>2026-04-19T08:35:40.447Z</time></trkpt><trkpt lat="43.0525971" lon="12.4117275"><ele>178.0</ele><time>2026-04-19T08:35:42.392Z</time></trkpt><trkpt lat="43.0527073" lon="12.4117188"><ele>178.25</ele><time>2026-04-19T08:35:44.401Z</time></trkpt><trkpt lat="43.0528154" lon="12.4117081"><ele>178.5</ele><time>2026-04-19T08:35:46.44Z</time></trkpt><trkpt lat="43.052972" lon="12.4117449"><ele>178.75</ele><time>2026-04-19T08:35:49.427Z</time></trkpt><trkpt lat="43.0530743" lon="12.4117708"><ele>179.0</ele><time>2026-04-19T08:35:51.398Z</time></trkpt><trkpt lat="43.0532326" lon="12.411821"><ele>178.5</ele><time>2026-04-19T08:35:54.39Z</time></trkpt><trkpt lat="43.0533419" lon="12.4118579"><ele>178.0</ele><time>2026-04-19T08:35:56.415Z</time></trkpt><trkpt lat="43.0534521" lon="12.4118899"><ele>177.5</ele><time>2026-04-19T08:35:58.433Z</time></trkpt><trkpt lat="43.05356" lon="12.4119229"><ele>177.0</ele><time>2026-04-19T08:36:00.465Z</time></trkpt><trkpt lat="43.0536769" lon="12.4119601"><ele>177.0</ele><time>2026-04-19T08:36:02.653Z</time></trkpt><trkpt lat="43.0537761" lon="12.4119827"><ele>177.0</ele><time>2026-04-19T08:36:04.461Z</time></trkpt><trkpt lat="43.0538832" lon="12.4120142"><ele>177.0</ele><time>2026-04-19T08:36:06.431Z</time></trkpt><trkpt lat="43.0539944" lon="12.4120421"><ele>177.0</ele><time>2026-04-19T08:36:08.45Z</time></trkpt><trkpt lat="43.0541034" lon="12.4120738"><ele>177.0</ele><time>2026-04-19T08:36:10.457Z</time></trkpt><trkpt lat="43.05421" lon="12.4121083"><ele>177.39999999999998</ele><time>2026-04-19T08:36:12.445Z</time></trkpt><trkpt lat="43.0543148" lon="12.4121333"><ele>177.79999999999998</ele><time>2026-04-19T08:36:14.414Z</time></trkpt><trkpt lat="43.0544218" lon="12.4121704"><ele>178.2</ele><time>2026-04-19T08:36:16.412Z</time></trkpt><trkpt lat="43.0545279" lon="12.4122009"><ele>178.6</ele><time>2026-04-19T08:36:18.421Z</time></trkpt><trkpt lat="43.0546331" lon="12.4122292"><ele>179.0</ele><time>2026-04-19T08:36:20.419Z</time></trkpt><trkpt lat="43.0547411" lon="12.4122627"><ele>179.0</ele><time>2026-04-19T08:36:22.441Z</time></trkpt><trkpt lat="43.054848" lon="12.4122971"><ele>179.0</ele><time>2026-04-19T08:36:24.402Z</time></trkpt><trkpt lat="43.054961" lon="12.4123277"><ele>179.0</ele><time>2026-04-19T08:36:26.412Z</time></trkpt><trkpt lat="43.0550705" lon="12.4123609"><ele>179.0</ele><time>2026-04-19T08:36:28.393Z</time></trkpt><trkpt lat="43.0551821" lon="12.412393"><ele>179.39999999999998</ele><time>2026-04-19T08:36:30.416Z</time></trkpt><trkpt lat="43.0552936" lon="12.4124217"><ele>179.8</ele><time>2026-04-19T08:36:32.409Z</time></trkpt><trkpt lat="43.0553566" lon="12.4124384"><ele>180.2</ele><time>2026-04-19T08:36:33.542Z</time></trkpt><trkpt lat="43.055461" lon="12.412472"><ele>180.60000000000002</ele><time>2026-04-19T08:36:35.401Z</time></trkpt><trkpt lat="43.0555757" lon="12.4125076"><ele>181.0</ele><time>2026-04-19T08:36:37.423Z</time></trkpt><trkpt lat="43.0556909" lon="12.4125382"><ele>181.0</ele><time>2026-04-19T08:36:39.44Z</time></trkpt><trkpt lat="43.0558002" lon="12.4125691"><ele>181.0</ele><time>2026-04-19T08:36:41.402Z</time></trkpt><trkpt lat="43.055914" lon="12.4126128"><ele>181.0</ele><time>2026-04-19T08:36:43.437Z</time></trkpt><trkpt lat="43.0560275" lon="12.412668"><ele>181.0</ele><time>2026-04-19T08:36:45.535Z</time></trkpt><trkpt lat="43.0561249" lon="12.4127367"><ele>181.0</ele><time>2026-04-19T08:36:47.427Z</time></trkpt><trkpt lat="43.0562264" lon="12.4128179"><ele>181.0</ele><time>2026-04-19T08:36:49.407Z</time></trkpt><trkpt lat="43.0562834" lon="12.4128652"><ele>181.0</ele><time>2026-04-19T08:36:50.526Z</time></trkpt><trkpt lat="43.056381" lon="12.4129447"><ele>181.0</ele><time>2026-04-19T08:36:52.457Z</time></trkpt><trkpt lat="43.0564815" lon="12.4130271"><ele>181.0</ele><time>2026-04-19T08:36:54.442Z</time></trkpt><trkpt lat="43.0565758" lon="12.4131079"><ele>180.20000000000002</ele><time>2026-04-19T08:36:56.401Z</time></trkpt><trkpt lat="43.0566753" lon="12.4131873"><ele>179.4</ele><time>2026-04-19T08:36:58.444Z</time></trkpt><trkpt lat="43.0567747" lon="12.4132701"><ele>178.6</ele><time>2026-04-19T08:37:00.578Z</time></trkpt><trkpt lat="43.056861" lon="12.4133446"><ele>177.8</ele><time>2026-04-19T08:37:02.435Z</time></trkpt><trkpt lat="43.0569513" lon="12.4134195"><ele>177.0</ele><time>2026-04-19T08:37:04.374Z</time></trkpt><trkpt lat="43.057089" lon="12.4135374"><ele>177.0</ele><time>2026-04-19T08:37:07.396Z</time></trkpt><trkpt lat="43.0571891" lon="12.4136265"><ele>177.0</ele><time>2026-04-19T08:37:09.613Z</time></trkpt><trkpt lat="43.0572697" lon="12.4137006"><ele>177.0</ele><time>2026-04-19T08:37:11.42Z</time></trkpt><trkpt lat="43.0573609" lon="12.4137692"><ele>177.0</ele><time>2026-04-19T08:37:13.41Z</time></trkpt><trkpt lat="43.0574549" lon="12.4138473"><ele>177.0</ele><time>2026-04-19T08:37:15.401Z</time></trkpt><trkpt lat="43.0575534" lon="12.4139287"><ele>177.75</ele><time>2026-04-19T08:37:17.407Z</time></trkpt><trkpt lat="43.0576509" lon="12.4140076"><ele>178.5</ele><time>2026-04-19T08:37:19.404Z</time></trkpt><trkpt lat="43.0577488" lon="12.4140959"><ele>179.25</ele><time>2026-04-19T08:37:21.422Z</time></trkpt><trkpt lat="43.0578464" lon="12.4141801"><ele>180.0</ele><time>2026-04-19T08:37:23.391Z</time></trkpt><trkpt lat="43.0579397" lon="12.4142717"><ele>180.0</ele><time>2026-04-19T08:37:25.397Z</time></trkpt><trkpt lat="43.0580298" lon="12.4143673"><ele>180.0</ele><time>2026-04-19T08:37:27.404Z</time></trkpt><trkpt lat="43.0581169" lon="12.4144676"><ele>180.0</ele><time>2026-04-19T08:37:29.426Z</time></trkpt><trkpt lat="43.0582046" lon="12.4145786"><ele>180.0</ele><time>2026-04-19T08:37:31.462Z</time></trkpt><trkpt lat="43.0582896" lon="12.4146898"><ele>179.5</ele><time>2026-04-19T08:37:33.423Z</time></trkpt><trkpt lat="43.0583732" lon="12.4148044"><ele>179.0</ele><time>2026-04-19T08:37:35.423Z</time></trkpt><trkpt lat="43.0584553" lon="12.4149161"><ele>178.5</ele><time>2026-04-19T08:37:37.4Z</time></trkpt><trkpt lat="43.0585411" lon="12.4150306"><ele>178.0</ele><time>2026-04-19T08:37:39.43Z</time></trkpt><trkpt lat="43.0586257" lon="12.4151423"><ele>178.0</ele><time>2026-04-19T08:37:41.393Z</time></trkpt><trkpt lat="43.0587099" lon="12.4152564"><ele>178.0</ele><time>2026-04-19T08:37:43.399Z</time></trkpt><trkpt lat="43.0587941" lon="12.4153723"><ele>178.0</ele><time>2026-04-19T08:37:45.415Z</time></trkpt><trkpt lat="43.0588774" lon="12.4154825"><ele>178.0</ele><time>2026-04-19T08:37:47.407Z</time></trkpt><trkpt lat="43.0589622" lon="12.4155945"><ele>177.75</ele><time>2026-04-19T08:37:49.417Z</time></trkpt><trkpt lat="43.0590473" lon="12.4157074"><ele>177.5</ele><time>2026-04-19T08:37:51.417Z</time></trkpt><trkpt lat="43.0591324" lon="12.4158207"><ele>177.25</ele><time>2026-04-19T08:37:53.417Z</time></trkpt><trkpt lat="43.0592147" lon="12.4159342"><ele>177.0</ele><time>2026-04-19T08:37:55.387Z</time></trkpt><trkpt lat="43.0593009" lon="12.4160482"><ele>177.0</ele><time>2026-04-19T08:37:57.408Z</time></trkpt><trkpt lat="43.0593866" lon="12.4161568"><ele>177.0</ele><time>2026-04-19T08:37:59.416Z</time></trkpt><trkpt lat="43.0594318" lon="12.4162197"><ele>177.0</ele><time>2026-04-19T08:38:00.533Z</time></trkpt><trkpt lat="43.0595114" lon="12.4163229"><ele>177.0</ele><time>2026-04-19T08:38:02.454Z</time></trkpt><trkpt lat="43.0595896" lon="12.416432"><ele>177.0</ele><time>2026-04-19T08:38:04.399Z</time></trkpt><trkpt lat="43.0596747" lon="12.416542"><ele>177.25</ele><time>2026-04-19T08:38:06.419Z</time></trkpt><trkpt lat="43.0597549" lon="12.4166538"><ele>177.5</ele><time>2026-04-19T08:38:08.403Z</time></trkpt><trkpt lat="43.0598412" lon="12.4167643"><ele>177.75</ele><time>2026-04-19T08:38:10.418Z</time></trkpt><trkpt lat="43.0599307" lon="12.416872"><ele>178.0</ele><time>2026-04-19T08:38:12.423Z</time></trkpt><trkpt lat="43.0600194" lon="12.4169781"><ele>178.0</ele><time>2026-04-19T08:38:14.385Z</time></trkpt><trkpt lat="43.0601099" lon="12.4170827"><ele>178.0</ele><time>2026-04-19T08:38:16.408Z</time></trkpt><trkpt lat="43.0602028" lon="12.4171787"><ele>178.0</ele><time>2026-04-19T08:38:18.414Z</time></trkpt><trkpt lat="43.0602555" lon="12.4172334"><ele>178.0</ele><time>2026-04-19T08:38:19.54Z</time></trkpt><trkpt lat="43.0603466" lon="12.4173191"><ele>178.0</ele><time>2026-04-19T08:38:21.436Z</time></trkpt><trkpt lat="43.0604388" lon="12.4174075"><ele>178.5</ele><time>2026-04-19T08:38:23.402Z</time></trkpt><trkpt lat="43.0605349" lon="12.417498"><ele>179.0</ele><time>2026-04-19T08:38:25.425Z</time></trkpt><trkpt lat="43.0606255" lon="12.4175822"><ele>179.5</ele><time>2026-04-19T08:38:27.408Z</time></trkpt><trkpt lat="43.0607198" lon="12.4176714"><ele>180.0</ele><time>2026-04-19T08:38:29.4Z</time></trkpt><trkpt lat="43.0608159" lon="12.4177626"><ele>180.0</ele><time>2026-04-19T08:38:31.424Z</time></trkpt><trkpt lat="43.0609128" lon="12.4178502"><ele>180.0</ele><time>2026-04-19T08:38:33.418Z</time></trkpt><trkpt lat="43.0610083" lon="12.417938"><ele>180.0</ele><time>2026-04-19T08:38:35.423Z</time></trkpt><trkpt lat="43.0611042" lon="12.4180289"><ele>180.0</ele><time>2026-04-19T08:38:37.444Z</time></trkpt><trkpt lat="43.061205" lon="12.4181223"><ele>180.0</ele><time>2026-04-19T08:38:39.548Z</time></trkpt><trkpt lat="43.0612941" lon="12.4181953"><ele>180.0</ele><time>2026-04-19T08:38:41.42Z</time></trkpt><trkpt lat="43.0613844" lon="12.4182874"><ele>180.0</ele><time>2026-04-19T08:38:43.428Z</time></trkpt><trkpt lat="43.061476" lon="12.4183695"><ele>180.0</ele><time>2026-04-19T08:38:45.43Z</time></trkpt><trkpt lat="43.0615647" lon="12.4184487"><ele>180.0</ele><time>2026-04-19T08:38:47.426Z</time></trkpt><trkpt lat="43.0616526" lon="12.4185399"><ele>180.0</ele><time>2026-04-19T08:38:49.436Z</time></trkpt><trkpt lat="43.0617417" lon="12.4186281"><ele>180.0</ele><time>2026-04-19T08:38:51.402Z</time></trkpt><trkpt lat="43.0618331" lon="12.4187114"><ele>180.0</ele><time>2026-04-19T08:38:53.419Z</time></trkpt><trkpt lat="43.0619291" lon="12.4187954"><ele>180.0</ele><time>2026-04-19T08:38:55.433Z</time></trkpt><trkpt lat="43.062021" lon="12.4188839"><ele>180.0</ele><time>2026-04-19T08:38:57.406Z</time></trkpt><trkpt lat="43.0621101" lon="12.4189683"><ele>180.0</ele><time>2026-04-19T08:38:59.442Z</time></trkpt><trkpt lat="43.062202" lon="12.4190494"><ele>180.0</ele><time>2026-04-19T08:39:01.428Z</time></trkpt><trkpt lat="43.0622941" lon="12.4191341"><ele>180.0</ele><time>2026-04-19T08:39:03.436Z</time></trkpt><trkpt lat="43.0623833" lon="12.4192209"><ele>180.0</ele><time>2026-04-19T08:39:05.406Z</time></trkpt><trkpt lat="43.0624788" lon="12.4193061"><ele>180.0</ele><time>2026-04-19T08:39:07.413Z</time></trkpt><trkpt lat="43.0625728" lon="12.4193989"><ele>179.5</ele><time>2026-04-19T08:39:09.433Z</time></trkpt><trkpt lat="43.0626651" lon="12.4194842"><ele>179.0</ele><time>2026-04-19T08:39:11.416Z</time></trkpt><trkpt lat="43.0627595" lon="12.4195709"><ele>178.5</ele><time>2026-04-19T08:39:13.432Z</time></trkpt><trkpt lat="43.0628495" lon="12.4196568"><ele>178.0</ele><time>2026-04-19T08:39:15.408Z</time></trkpt><trkpt lat="43.0629458" lon="12.4197482"><ele>177.5</ele><time>2026-04-19T08:39:17.533Z</time></trkpt><trkpt lat="43.0630333" lon="12.4198269"><ele>177.0</ele><time>2026-04-19T08:39:19.401Z</time></trkpt><trkpt lat="43.0631292" lon="12.4199136"><ele>176.5</ele><time>2026-04-19T08:39:21.438Z</time></trkpt><trkpt lat="43.0632198" lon="12.420001"><ele>176.0</ele><time>2026-04-19T08:39:23.424Z</time></trkpt><trkpt lat="43.063323" lon="12.4200968"><ele>176.8</ele><time>2026-04-19T08:39:25.645Z</time></trkpt><trkpt lat="43.0634054" lon="12.4201747"><ele>177.60000000000002</ele><time>2026-04-19T08:39:27.426Z</time></trkpt><trkpt lat="43.0634971" lon="12.4202621"><ele>178.4</ele><time>2026-04-19T08:39:29.428Z</time></trkpt><trkpt lat="43.0635895" lon="12.4203499"><ele>179.2</ele><time>2026-04-19T08:39:31.417Z</time></trkpt><trkpt lat="43.0636444" lon="12.4203993"><ele>180.0</ele><time>2026-04-19T08:39:32.513Z</time></trkpt><trkpt lat="43.0637357" lon="12.4204846"><ele>180.0</ele><time>2026-04-19T08:39:34.431Z</time></trkpt><trkpt lat="43.0638332" lon="12.4205682"><ele>180.0</ele><time>2026-04-19T08:39:36.458Z</time></trkpt><trkpt lat="43.0639293" lon="12.4206442"><ele>180.0</ele><time>2026-04-19T08:39:38.435Z</time></trkpt><trkpt lat="43.0640194" lon="12.4207275"><ele>180.0</ele><time>2026-04-19T08:39:40.399Z</time></trkpt><trkpt lat="43.064112" lon="12.4208096"><ele>180.0</ele><time>2026-04-19T08:39:42.401Z</time></trkpt><trkpt lat="43.0642063" lon="12.4208922"><ele>180.0</ele><time>2026-04-19T08:39:44.421Z</time></trkpt><trkpt lat="43.0643082" lon="12.4209738"><ele>180.0</ele><time>2026-04-19T08:39:46.478Z</time></trkpt><trkpt lat="43.0644012" lon="12.4210424"><ele>180.0</ele><time>2026-04-19T08:39:48.419Z</time></trkpt><trkpt lat="43.0645014" lon="12.421114"><ele>180.0</ele><time>2026-04-19T08:39:50.421Z</time></trkpt><trkpt lat="43.0645988" lon="12.4211912"><ele>180.0</ele><time>2026-04-19T08:39:52.402Z</time></trkpt><trkpt lat="43.0646997" lon="12.4212609"><ele>180.2</ele><time>2026-04-19T08:39:54.43Z</time></trkpt><trkpt lat="43.0648024" lon="12.4213292"><ele>180.4</ele><time>2026-04-19T08:39:56.431Z</time></trkpt><trkpt lat="43.0648999" lon="12.4214046"><ele>180.60000000000002</ele><time>2026-04-19T08:39:58.425Z</time></trkpt><trkpt lat="43.0650036" lon="12.4214867"><ele>180.8</ele><time>2026-04-19T08:40:00.564Z</time></trkpt><trkpt lat="43.0650956" lon="12.4215513"><ele>181.0</ele><time>2026-04-19T08:40:02.43Z</time></trkpt><trkpt lat="43.0651928" lon="12.4216194"><ele>181.0</ele><time>2026-04-19T08:40:04.416Z</time></trkpt><trkpt lat="43.0652911" lon="12.4216917"><ele>181.0</ele><time>2026-04-19T08:40:06.441Z</time></trkpt><trkpt lat="43.0653869" lon="12.4217628"><ele>181.0</ele><time>2026-04-19T08:40:08.408Z</time></trkpt><trkpt lat="43.0654842" lon="12.4218349"><ele>181.0</ele><time>2026-04-19T08:40:10.412Z</time></trkpt><trkpt lat="43.0655835" lon="12.4219005"><ele>181.0</ele><time>2026-04-19T08:40:12.425Z</time></trkpt><trkpt lat="43.0657303" lon="12.42199"><ele>181.0</ele><time>2026-04-19T08:40:15.441Z</time></trkpt><trkpt lat="43.0658248" lon="12.4220502"><ele>181.0</ele><time>2026-04-19T08:40:17.423Z</time></trkpt><trkpt lat="43.065921" lon="12.4221214"><ele>181.0</ele><time>2026-04-19T08:40:19.438Z</time></trkpt><trkpt lat="43.0660146" lon="12.422186"><ele>181.0</ele><time>2026-04-19T08:40:21.417Z</time></trkpt><trkpt lat="43.0661136" lon="12.4222539"><ele>181.0</ele><time>2026-04-19T08:40:23.409Z</time></trkpt><trkpt lat="43.0662133" lon="12.4223239"><ele>181.0</ele><time>2026-04-19T08:40:25.408Z</time></trkpt><trkpt lat="43.0663166" lon="12.4223962"><ele>181.0</ele><time>2026-04-19T08:40:27.439Z</time></trkpt><trkpt lat="43.0664163" lon="12.4224655"><ele>181.0</ele><time>2026-04-19T08:40:29.42Z</time></trkpt><trkpt lat="43.0664712" lon="12.4225082"><ele>181.0</ele><time>2026-04-19T08:40:30.537Z</time></trkpt><trkpt lat="43.066564" lon="12.422574"><ele>181.0</ele><time>2026-04-19T08:40:32.428Z</time></trkpt><trkpt lat="43.066664" lon="12.4226396"><ele>181.0</ele><time>2026-04-19T08:40:34.417Z</time></trkpt><trkpt lat="43.0667629" lon="12.422709"><ele>181.0</ele><time>2026-04-19T08:40:36.415Z</time></trkpt><trkpt lat="43.0668778" lon="12.4227891"><ele>181.0</ele><time>2026-04-19T08:40:38.637Z</time></trkpt><trkpt lat="43.0669691" lon="12.4228553"><ele>181.0</ele><time>2026-04-19T08:40:40.435Z</time></trkpt><trkpt lat="43.0670704" lon="12.4229216"><ele>181.0</ele><time>2026-04-19T08:40:42.405Z</time></trkpt><trkpt lat="43.0671699" lon="12.422998"><ele>181.0</ele><time>2026-04-19T08:40:44.441Z</time></trkpt><trkpt lat="43.0672673" lon="12.4230583"><ele>181.0</ele><time>2026-04-19T08:40:46.425Z</time></trkpt><trkpt lat="43.0673221" lon="12.4231024"><ele>181.0</ele><time>2026-04-19T08:40:47.538Z</time></trkpt><trkpt lat="43.0674183" lon="12.42317"><ele>181.0</ele><time>2026-04-19T08:40:49.457Z</time></trkpt><trkpt lat="43.0675186" lon="12.423241"><ele>181.0</ele><time>2026-04-19T08:40:51.443Z</time></trkpt><trkpt lat="43.0676159" lon="12.4233096"><ele>181.0</ele><time>2026-04-19T08:40:53.415Z</time></trkpt><trkpt lat="43.0677155" lon="12.4233805"><ele>181.0</ele><time>2026-04-19T08:40:55.428Z</time></trkpt><trkpt lat="43.0678159" lon="12.4234466"><ele>181.0</ele><time>2026-04-19T08:40:57.401Z</time></trkpt><trkpt lat="43.0679204" lon="12.4235211"><ele>181.0</ele><time>2026-04-19T08:40:59.438Z</time></trkpt><trkpt lat="43.0680243" lon="12.4235912"><ele>181.0</ele><time>2026-04-19T08:41:01.427Z</time></trkpt><trkpt lat="43.0681265" lon="12.4236648"><ele>181.0</ele><time>2026-04-19T08:41:03.447Z</time></trkpt><trkpt lat="43.0682273" lon="12.4237354"><ele>181.0</ele><time>2026-04-19T08:41:05.44Z</time></trkpt><trkpt lat="43.0683265" lon="12.4238036"><ele>181.0</ele><time>2026-04-19T08:41:07.444Z</time></trkpt><trkpt lat="43.0684293" lon="12.4238721"><ele>181.0</ele><time>2026-04-19T08:41:09.52Z</time></trkpt><trkpt lat="43.0685201" lon="12.4239361"><ele>181.0</ele><time>2026-04-19T08:41:11.414Z</time></trkpt><trkpt lat="43.068616" lon="12.4240048"><ele>181.0</ele><time>2026-04-19T08:41:13.403Z</time></trkpt><trkpt lat="43.068717" lon="12.424076"><ele>181.0</ele><time>2026-04-19T08:41:15.46Z</time></trkpt><trkpt lat="43.0688111" lon="12.4241452"><ele>181.0</ele><time>2026-04-19T08:41:17.416Z</time></trkpt><trkpt lat="43.0689024" lon="12.4242177"><ele>181.0</ele><time>2026-04-19T08:41:19.394Z</time></trkpt><trkpt lat="43.0690014" lon="12.4242832"><ele>181.0</ele><time>2026-04-19T08:41:21.402Z</time></trkpt><trkpt lat="43.0691036" lon="12.4243502"><ele>181.0</ele><time>2026-04-19T08:41:23.433Z</time></trkpt><trkpt lat="43.069199" lon="12.4244224"><ele>181.0</ele><time>2026-04-19T08:41:25.416Z</time></trkpt><trkpt lat="43.0692937" lon="12.4244947"><ele>181.66666666666669</ele><time>2026-04-19T08:41:27.428Z</time></trkpt><trkpt lat="43.0694439" lon="12.4245857"><ele>182.33333333333334</ele><time>2026-04-19T08:41:30.436Z</time></trkpt><trkpt lat="43.0695955" lon="12.424693"><ele>183.0</ele><time>2026-04-19T08:41:33.426Z</time></trkpt><trkpt lat="43.0697018" lon="12.4247646"><ele>183.0</ele><time>2026-04-19T08:41:35.397Z</time></trkpt><trkpt lat="43.0698026" lon="12.4248335"><ele>183.0</ele><time>2026-04-19T08:41:37.393Z</time></trkpt><trkpt lat="43.069912" lon="12.4249114"><ele>183.0</ele><time>2026-04-19T08:41:39.455Z</time></trkpt><trkpt lat="43.0700119" lon="12.424979"><ele>183.0</ele><time>2026-04-19T08:41:41.406Z</time></trkpt><trkpt lat="43.0701121" lon="12.4250512"><ele>183.5</ele><time>2026-04-19T08:41:43.419Z</time></trkpt><trkpt lat="43.0702149" lon="12.4251188"><ele>184.0</ele><time>2026-04-19T08:41:45.427Z</time></trkpt><trkpt lat="43.0703173" lon="12.4251879"><ele>184.5</ele><time>2026-04-19T08:41:47.412Z</time></trkpt><trkpt lat="43.0704201" lon="12.4252702"><ele>185.0</ele><time>2026-04-19T08:41:49.452Z</time></trkpt><trkpt lat="43.0705228" lon="12.4253439"><ele>185.0</ele><time>2026-04-19T08:41:51.435Z</time></trkpt><trkpt lat="43.0706187" lon="12.4254072"><ele>185.0</ele><time>2026-04-19T08:41:53.437Z</time></trkpt><trkpt lat="43.0707063" lon="12.4254732"><ele>185.0</ele><time>2026-04-19T08:41:55.378Z</time></trkpt><trkpt lat="43.0708021" lon="12.4255625"><ele>185.0</ele><time>2026-04-19T08:41:57.403Z</time></trkpt><trkpt lat="43.070882" lon="12.4256568"><ele>185.0</ele><time>2026-04-19T08:41:59.432Z</time></trkpt><trkpt lat="43.0709665" lon="12.4257515"><ele>184.75</ele><time>2026-04-19T08:42:01.413Z</time></trkpt><trkpt lat="43.0710917" lon="12.4259024"><ele>184.5</ele><time>2026-04-19T08:42:04.411Z</time></trkpt><trkpt lat="43.0711783" lon="12.4260174"><ele>184.25</ele><time>2026-04-19T08:42:06.547Z</time></trkpt><trkpt lat="43.0712609" lon="12.4261064"><ele>184.0</ele><time>2026-04-19T08:42:08.425Z</time></trkpt><trkpt lat="43.071315" lon="12.4261704"><ele>184.0</ele><time>2026-04-19T08:42:09.535Z</time></trkpt><trkpt lat="43.0714082" lon="12.4262571"><ele>184.0</ele><time>2026-04-19T08:42:11.439Z</time></trkpt><trkpt lat="43.0715092" lon="12.4263498"><ele>184.0</ele><time>2026-04-19T08:42:13.438Z</time></trkpt><trkpt lat="43.0716146" lon="12.4264168"><ele>184.0</ele><time>2026-04-19T08:42:15.427Z</time></trkpt><trkpt lat="43.0717171" lon="12.4264846"><ele>183.25</ele><time>2026-04-19T08:42:17.42Z</time></trkpt><trkpt lat="43.0718133" lon="12.4265593"><ele>182.5</ele><time>2026-04-19T08:42:19.415Z</time></trkpt><trkpt lat="43.0719174" lon="12.4266171"><ele>181.75</ele><time>2026-04-19T08:42:21.403Z</time></trkpt><trkpt lat="43.0720159" lon="12.4266852"><ele>181.0</ele><time>2026-04-19T08:42:23.396Z</time></trkpt><trkpt lat="43.0721262" lon="12.4267699"><ele>181.0</ele><time>2026-04-19T08:42:25.703Z</time></trkpt><trkpt lat="43.0722123" lon="12.4268293"><ele>181.0</ele><time>2026-04-19T08:42:27.414Z</time></trkpt><trkpt lat="43.0723135" lon="12.4269019"><ele>181.0</ele><time>2026-04-19T08:42:29.407Z</time></trkpt><trkpt lat="43.0724123" lon="12.4269726"><ele>181.0</ele><time>2026-04-19T08:42:31.406Z</time></trkpt><trkpt lat="43.072509" lon="12.427039"><ele>181.0</ele><time>2026-04-19T08:42:33.408Z</time></trkpt><trkpt lat="43.0726068" lon="12.4271066"><ele>181.75</ele><time>2026-04-19T08:42:35.402Z</time></trkpt><trkpt lat="43.0727055" lon="12.4271772"><ele>182.5</ele><time>2026-04-19T08:42:37.431Z</time></trkpt><trkpt lat="43.0728026" lon="12.4272512"><ele>183.25</ele><time>2026-04-19T08:42:39.401Z</time></trkpt><trkpt lat="43.072903" lon="12.4273228"><ele>184.0</ele><time>2026-04-19T08:42:41.435Z</time></trkpt><trkpt lat="43.0730066" lon="12.4273974"><ele>184.0</ele><time>2026-04-19T08:42:43.503Z</time></trkpt><trkpt lat="43.0731007" lon="12.4274639"><ele>184.0</ele><time>2026-04-19T08:42:45.404Z</time></trkpt><trkpt lat="43.0732006" lon="12.4275289"><ele>184.0</ele><time>2026-04-19T08:42:47.422Z</time></trkpt><trkpt lat="43.0733023" lon="12.4276009"><ele>184.0</ele><time>2026-04-19T08:42:49.489Z</time></trkpt><trkpt lat="43.0733972" lon="12.4276695"><ele>184.0</ele><time>2026-04-19T08:42:51.441Z</time></trkpt><trkpt lat="43.0734918" lon="12.4277388"><ele>184.0</ele><time>2026-04-19T08:42:53.406Z</time></trkpt><trkpt lat="43.0735904" lon="12.4278064"><ele>184.0</ele><time>2026-04-19T08:42:55.406Z</time></trkpt><trkpt lat="43.0736889" lon="12.4278803"><ele>184.0</ele><time>2026-04-19T08:42:57.391Z</time></trkpt><trkpt lat="43.0737933" lon="12.4279481"><ele>184.0</ele><time>2026-04-19T08:42:59.428Z</time></trkpt><trkpt lat="43.0738914" lon="12.4280247"><ele>183.79999999999998</ele><time>2026-04-19T08:43:01.409Z</time></trkpt><trkpt lat="43.0739922" lon="12.4280942"><ele>183.6</ele><time>2026-04-19T08:43:03.409Z</time></trkpt><trkpt lat="43.074096" lon="12.4281704"><ele>183.4</ele><time>2026-04-19T08:43:05.527Z</time></trkpt><trkpt lat="43.0741876" lon="12.4282359"><ele>183.2</ele><time>2026-04-19T08:43:07.383Z</time></trkpt><trkpt lat="43.0742443" lon="12.4282766"><ele>183.0</ele><time>2026-04-19T08:43:08.54Z</time></trkpt><trkpt lat="43.0743394" lon="12.4283436"><ele>182.5</ele><time>2026-04-19T08:43:10.436Z</time></trkpt><trkpt lat="43.0744397" lon="12.4284115"><ele>182.0</ele><time>2026-04-19T08:43:12.411Z</time></trkpt><trkpt lat="43.0745434" lon="12.4284858"><ele>181.5</ele><time>2026-04-19T08:43:14.417Z</time></trkpt><trkpt lat="43.0746456" lon="12.4285621"><ele>181.0</ele><time>2026-04-19T08:43:16.46Z</time></trkpt><trkpt lat="43.0747448" lon="12.4286343"><ele>181.0</ele><time>2026-04-19T08:43:18.441Z</time></trkpt><trkpt lat="43.0748422" lon="12.4287068"><ele>181.0</ele><time>2026-04-19T08:43:20.447Z</time></trkpt><trkpt lat="43.0749376" lon="12.4287823"><ele>181.0</ele><time>2026-04-19T08:43:22.407Z</time></trkpt><trkpt lat="43.0750336" lon="12.4288497"><ele>181.0</ele><time>2026-04-19T08:43:24.404Z</time></trkpt><trkpt lat="43.0751315" lon="12.4289207"><ele>181.0</ele><time>2026-04-19T08:43:26.396Z</time></trkpt><trkpt lat="43.0752295" lon="12.4289916"><ele>181.60000000000002</ele><time>2026-04-19T08:43:28.405Z</time></trkpt><trkpt lat="43.0753293" lon="12.4290621"><ele>182.2</ele><time>2026-04-19T08:43:30.44Z</time></trkpt><trkpt lat="43.0754274" lon="12.429123"><ele>182.8</ele><time>2026-04-19T08:43:32.401Z</time></trkpt><trkpt lat="43.0755295" lon="12.429182"><ele>183.39999999999998</ele><time>2026-04-19T08:43:34.414Z</time></trkpt><trkpt lat="43.0756329" lon="12.4292438"><ele>184.0</ele><time>2026-04-19T08:43:36.467Z</time></trkpt><trkpt lat="43.0757352" lon="12.4292908"><ele>184.25</ele><time>2026-04-19T08:43:38.401Z</time></trkpt><trkpt lat="43.0758381" lon="12.429356"><ele>184.5</ele><time>2026-04-19T08:43:40.402Z</time></trkpt><trkpt lat="43.075941" lon="12.4294276"><ele>184.75</ele><time>2026-04-19T08:43:42.402Z</time></trkpt><trkpt lat="43.0760381" lon="12.4295177"><ele>185.0</ele><time>2026-04-19T08:43:44.4Z</time></trkpt><trkpt lat="43.0761337" lon="12.429625"><ele>185.5</ele><time>2026-04-19T08:43:46.527Z</time></trkpt><trkpt lat="43.0762207" lon="12.4297223"><ele>186.0</ele><time>2026-04-19T08:43:48.41Z</time></trkpt><trkpt lat="43.0763056" lon="12.4298409"><ele>186.5</ele><time>2026-04-19T08:43:50.426Z</time></trkpt><trkpt lat="43.0763797" lon="12.4299721"><ele>187.0</ele><time>2026-04-19T08:43:52.459Z</time></trkpt><trkpt lat="43.076446" lon="12.4301028"><ele>187.0</ele><time>2026-04-19T08:43:54.408Z</time></trkpt><trkpt lat="43.0765108" lon="12.4302384"><ele>187.0</ele><time>2026-04-19T08:43:56.415Z</time></trkpt><trkpt lat="43.0765754" lon="12.4303745"><ele>187.0</ele><time>2026-04-19T08:43:58.421Z</time></trkpt><trkpt lat="43.0766337" lon="12.4305103"><ele>187.0</ele><time>2026-04-19T08:44:00.398Z</time></trkpt><trkpt lat="43.076705" lon="12.4306443"><ele>186.25</ele><time>2026-04-19T08:44:02.411Z</time></trkpt><trkpt lat="43.0767704" lon="12.4307804"><ele>185.5</ele><time>2026-04-19T08:44:04.401Z</time></trkpt><trkpt lat="43.0768323" lon="12.4309239"><ele>184.75</ele><time>2026-04-19T08:44:06.444Z</time></trkpt><trkpt lat="43.0768974" lon="12.4310587"><ele>184.0</ele><time>2026-04-19T08:44:08.4Z</time></trkpt><trkpt lat="43.0769631" lon="12.4311993"><ele>184.25</ele><time>2026-04-19T08:44:10.437Z</time></trkpt><trkpt lat="43.077025" lon="12.4313321"><ele>184.5</ele><time>2026-04-19T08:44:12.417Z</time></trkpt><trkpt lat="43.0770879" lon="12.4314607"><ele>184.75</ele><time>2026-04-19T08:44:14.417Z</time></trkpt><trkpt lat="43.0771507" lon="12.4315874"><ele>185.0</ele><time>2026-04-19T08:44:16.407Z</time></trkpt><trkpt lat="43.0772205" lon="12.4317056"><ele>185.0</ele><time>2026-04-19T08:44:18.434Z</time></trkpt><trkpt lat="43.0772937" lon="12.43182"><ele>185.0</ele><time>2026-04-19T08:44:20.392Z</time></trkpt><trkpt lat="43.0773747" lon="12.4319361"><ele>185.0</ele><time>2026-04-19T08:44:22.413Z</time></trkpt><trkpt lat="43.0774553" lon="12.4320471"><ele>185.0</ele><time>2026-04-19T08:44:24.391Z</time></trkpt><trkpt lat="43.0775377" lon="12.4321597"><ele>184.75</ele><time>2026-04-19T08:44:26.4Z</time></trkpt><trkpt lat="43.0776099" lon="12.4322843"><ele>184.5</ele><time>2026-04-19T08:44:28.393Z</time></trkpt><trkpt lat="43.0776808" lon="12.4324162"><ele>184.25</ele><time>2026-04-19T08:44:30.404Z</time></trkpt><trkpt lat="43.0777671" lon="12.4325335"><ele>184.0</ele><time>2026-04-19T08:44:32.427Z</time></trkpt><trkpt lat="43.0778516" lon="12.4326558"><ele>184.0</ele><time>2026-04-19T08:44:34.452Z</time></trkpt><trkpt lat="43.0779309" lon="12.4327716"><ele>184.0</ele><time>2026-04-19T08:44:36.424Z</time></trkpt><trkpt lat="43.078" lon="12.4328963"><ele>184.0</ele><time>2026-04-19T08:44:38.43Z</time></trkpt><trkpt lat="43.0780727" lon="12.4330172"><ele>184.0</ele><time>2026-04-19T08:44:40.416Z</time></trkpt><trkpt lat="43.0781556" lon="12.433157"><ele>184.5</ele><time>2026-04-19T08:44:42.671Z</time></trkpt><trkpt lat="43.0782278" lon="12.4332595"><ele>185.0</ele><time>2026-04-19T08:44:44.431Z</time></trkpt><trkpt lat="43.0783038" lon="12.4333758"><ele>185.5</ele><time>2026-04-19T08:44:46.383Z</time></trkpt><trkpt lat="43.0783795" lon="12.4335104"><ele>186.0</ele><time>2026-04-19T08:44:48.511Z</time></trkpt><trkpt lat="43.0784527" lon="12.4336302"><ele>186.0</ele><time>2026-04-19T08:44:50.426Z</time></trkpt><trkpt lat="43.0785301" lon="12.4337571"><ele>186.0</ele><time>2026-04-19T08:44:52.413Z</time></trkpt><trkpt lat="43.0786058" lon="12.4338846"><ele>186.0</ele><time>2026-04-19T08:44:54.437Z</time></trkpt><trkpt lat="43.0786435" lon="12.4339567"><ele>186.0</ele><time>2026-04-19T08:44:55.406Z</time></trkpt><trkpt lat="43.0787186" lon="12.4340819"><ele>186.0</ele><time>2026-04-19T08:44:57.442Z</time></trkpt><trkpt lat="43.0787995" lon="12.4342009"><ele>186.0</ele><time>2026-04-19T08:44:59.439Z</time></trkpt><trkpt lat="43.0788705" lon="12.4343219"><ele>186.0</ele><time>2026-04-19T08:45:01.438Z</time></trkpt><trkpt lat="43.0789394" lon="12.4344527"><ele>186.0</ele><time>2026-04-19T08:45:03.414Z</time></trkpt><trkpt lat="43.0790149" lon="12.4345686"><ele>186.0</ele><time>2026-04-19T08:45:05.403Z</time></trkpt><trkpt lat="43.0790885" lon="12.4346873"><ele>186.0</ele><time>2026-04-19T08:45:07.414Z</time></trkpt><trkpt lat="43.0791765" lon="12.4348275"><ele>186.0</ele><time>2026-04-19T08:45:09.716Z</time></trkpt><trkpt lat="43.079238" lon="12.4349304"><ele>186.0</ele><time>2026-04-19T08:45:11.404Z</time></trkpt><trkpt lat="43.0793106" lon="12.4350538"><ele>186.0</ele><time>2026-04-19T08:45:13.391Z</time></trkpt><trkpt lat="43.0793894" lon="12.4351777"><ele>186.0</ele><time>2026-04-19T08:45:15.412Z</time></trkpt><trkpt lat="43.0794693" lon="12.4353046"><ele>186.0</ele><time>2026-04-19T08:45:17.512Z</time></trkpt><trkpt lat="43.0795409" lon="12.4354264"><ele>186.0</ele><time>2026-04-19T08:45:19.43Z</time></trkpt><trkpt lat="43.0796158" lon="12.4355505"><ele>186.0</ele><time>2026-04-19T08:45:21.408Z</time></trkpt><trkpt lat="43.079693" lon="12.4356742"><ele>186.16666666666666</ele><time>2026-04-19T08:45:23.402Z</time></trkpt><trkpt lat="43.0797329" lon="12.4357428"><ele>186.33333333333334</ele><time>2026-04-19T08:45:24.431Z</time></trkpt><trkpt lat="43.0798109" lon="12.4358704"><ele>186.5</ele><time>2026-04-19T08:45:26.436Z</time></trkpt><trkpt lat="43.0798517" lon="12.4359391"><ele>186.66666666666669</ele><time>2026-04-19T08:45:27.535Z</time></trkpt><trkpt lat="43.0799315" lon="12.4360506"><ele>186.83333333333334</ele><time>2026-04-19T08:45:29.404Z</time></trkpt><trkpt lat="43.0799731" lon="12.4361189"><ele>187.0</ele><time>2026-04-19T08:45:30.532Z</time></trkpt><trkpt lat="43.0800448" lon="12.4362426"><ele>187.0</ele><time>2026-04-19T08:45:32.538Z</time></trkpt><trkpt lat="43.0801153" lon="12.4363626"><ele>187.0</ele><time>2026-04-19T08:45:34.435Z</time></trkpt><trkpt lat="43.0801913" lon="12.4364867"><ele>187.0</ele><time>2026-04-19T08:45:36.428Z</time></trkpt><trkpt lat="43.0802696" lon="12.4366075"><ele>187.0</ele><time>2026-04-19T08:45:38.437Z</time></trkpt><trkpt lat="43.0803454" lon="12.4367358"><ele>187.0</ele><time>2026-04-19T08:45:40.503Z</time></trkpt><trkpt lat="43.0804184" lon="12.4368509"><ele>187.0</ele><time>2026-04-19T08:45:42.393Z</time></trkpt><trkpt lat="43.0804675" lon="12.4369391"><ele>187.0</ele><time>2026-04-19T08:45:43.735Z</time></trkpt><trkpt lat="43.0805284" lon="12.4370456"><ele>187.0</ele><time>2026-04-19T08:45:45.4Z</time></trkpt><trkpt lat="43.0806072" lon="12.4371681"><ele>187.0</ele><time>2026-04-19T08:45:47.437Z</time></trkpt><trkpt lat="43.0806459" lon="12.4372407"><ele>187.25</ele><time>2026-04-19T08:45:48.531Z</time></trkpt><trkpt lat="43.0807173" lon="12.4373611"><ele>187.5</ele><time>2026-04-19T08:45:50.428Z</time></trkpt><trkpt lat="43.080793" lon="12.4374829"><ele>187.75</ele><time>2026-04-19T08:45:52.423Z</time></trkpt><trkpt lat="43.0808681" lon="12.4376035"><ele>188.0</ele><time>2026-04-19T08:45:54.404Z</time></trkpt><trkpt lat="43.0809422" lon="12.437728"><ele>188.25</ele><time>2026-04-19T08:45:56.411Z</time></trkpt><trkpt lat="43.0810192" lon="12.4378522"><ele>188.5</ele><time>2026-04-19T08:45:58.454Z</time></trkpt><trkpt lat="43.0810898" lon="12.4379712"><ele>188.75</ele><time>2026-04-19T08:46:00.43Z</time></trkpt><trkpt lat="43.0811622" lon="12.4380899"><ele>189.0</ele><time>2026-04-19T08:46:02.427Z</time></trkpt><trkpt lat="43.0812355" lon="12.4382082"><ele>189.0</ele><time>2026-04-19T08:46:04.433Z</time></trkpt><trkpt lat="43.0813046" lon="12.4383288"><ele>189.0</ele><time>2026-04-19T08:46:06.413Z</time></trkpt><trkpt lat="43.0813472" lon="12.4383964"><ele>189.0</ele><time>2026-04-19T08:46:07.53Z</time></trkpt><trkpt lat="43.0814201" lon="12.4385101"><ele>189.0</ele><time>2026-04-19T08:46:09.452Z</time></trkpt><trkpt lat="43.0814936" lon="12.4386321"><ele>189.0</ele><time>2026-04-19T08:46:11.455Z</time></trkpt><trkpt lat="43.0815703" lon="12.4387538"><ele>189.0</ele><time>2026-04-19T08:46:13.501Z</time></trkpt><trkpt lat="43.0816425" lon="12.4388707"><ele>189.0</ele><time>2026-04-19T08:46:15.416Z</time></trkpt><trkpt lat="43.0817201" lon="12.4389968"><ele>189.0</ele><time>2026-04-19T08:46:17.423Z</time></trkpt><trkpt lat="43.0817986" lon="12.4391155"><ele>189.0</ele><time>2026-04-19T08:46:19.415Z</time></trkpt><trkpt lat="43.0818764" lon="12.4392393"><ele>189.0</ele><time>2026-04-19T08:46:21.417Z</time></trkpt><trkpt lat="43.0819519" lon="12.439364"><ele>189.0</ele><time>2026-04-19T08:46:23.416Z</time></trkpt><trkpt lat="43.0820252" lon="12.4394927"><ele>189.0</ele><time>2026-04-19T08:46:25.43Z</time></trkpt><trkpt lat="43.0820989" lon="12.4396185"><ele>189.0</ele><time>2026-04-19T08:46:27.455Z</time></trkpt><trkpt lat="43.0821722" lon="12.4397383"><ele>189.0</ele><time>2026-04-19T08:46:29.425Z</time></trkpt><trkpt lat="43.0822402" lon="12.4398575"><ele>189.0</ele><time>2026-04-19T08:46:31.403Z</time></trkpt><trkpt lat="43.0823114" lon="12.4399721"><ele>189.0</ele><time>2026-04-19T08:46:33.416Z</time></trkpt><trkpt lat="43.0823876" lon="12.4400943"><ele>189.0</ele><time>2026-04-19T08:46:35.516Z</time></trkpt><trkpt lat="43.0824562" lon="12.4402053"><ele>189.0</ele><time>2026-04-19T08:46:37.436Z</time></trkpt><trkpt lat="43.0825026" lon="12.4402797"><ele>189.0</ele><time>2026-04-19T08:46:38.739Z</time></trkpt><trkpt lat="43.0825639" lon="12.4403764"><ele>189.0</ele><time>2026-04-19T08:46:40.434Z</time></trkpt><trkpt lat="43.0826452" lon="12.4404718"><ele>189.0</ele><time>2026-04-19T08:46:42.422Z</time></trkpt><trkpt lat="43.0827096" lon="12.4405923"><ele>189.0</ele><time>2026-04-19T08:46:44.399Z</time></trkpt><trkpt lat="43.0827677" lon="12.4407269"><ele>189.0</ele><time>2026-04-19T08:46:46.414Z</time></trkpt><trkpt lat="43.0828383" lon="12.4408485"><ele>189.0</ele><time>2026-04-19T08:46:48.443Z</time></trkpt><trkpt lat="43.082947" lon="12.4410326"><ele>189.0</ele><time>2026-04-19T08:46:51.426Z</time></trkpt><trkpt lat="43.0830208" lon="12.4411531"><ele>189.0</ele><time>2026-04-19T08:46:53.433Z</time></trkpt><trkpt lat="43.0830944" lon="12.4412767"><ele>189.0</ele><time>2026-04-19T08:46:55.415Z</time></trkpt><trkpt lat="43.0831624" lon="12.4414041"><ele>189.0</ele><time>2026-04-19T08:46:57.397Z</time></trkpt><trkpt lat="43.083242" lon="12.4415242"><ele>189.0</ele><time>2026-04-19T08:46:59.397Z</time></trkpt><trkpt lat="43.0833179" lon="12.4416478"><ele>189.0</ele><time>2026-04-19T08:47:01.456Z</time></trkpt><trkpt lat="43.0833869" lon="12.4417622"><ele>189.0</ele><time>2026-04-19T08:47:03.34Z</time></trkpt><trkpt lat="43.0834656" lon="12.4418848"><ele>189.0</ele><time>2026-04-19T08:47:05.411Z</time></trkpt><trkpt lat="43.08354" lon="12.4420073"><ele>189.0</ele><time>2026-04-19T08:47:07.417Z</time></trkpt><trkpt lat="43.0836129" lon="12.4421301"><ele>189.0</ele><time>2026-04-19T08:47:09.407Z</time></trkpt><trkpt lat="43.083689" lon="12.4422513"><ele>189.0</ele><time>2026-04-19T08:47:11.416Z</time></trkpt><trkpt lat="43.0837685" lon="12.4423827"><ele>189.0</ele><time>2026-04-19T08:47:13.527Z</time></trkpt><trkpt lat="43.0838426" lon="12.4424966"><ele>189.0</ele><time>2026-04-19T08:47:15.408Z</time></trkpt><trkpt lat="43.0839189" lon="12.4426202"><ele>189.0</ele><time>2026-04-19T08:47:17.412Z</time></trkpt><trkpt lat="43.083996" lon="12.4427475"><ele>189.0</ele><time>2026-04-19T08:47:19.39Z</time></trkpt><trkpt lat="43.084041" lon="12.4428148"><ele>189.0</ele><time>2026-04-19T08:47:20.532Z</time></trkpt><trkpt lat="43.0841097" lon="12.4429367"><ele>189.0</ele><time>2026-04-19T08:47:22.412Z</time></trkpt><trkpt lat="43.0841873" lon="12.4430675"><ele>189.0</ele><time>2026-04-19T08:47:24.433Z</time></trkpt><trkpt lat="43.0842624" lon="12.4431953"><ele>189.0</ele><time>2026-04-19T08:47:26.42Z</time></trkpt><trkpt lat="43.0843359" lon="12.4433212"><ele>189.0</ele><time>2026-04-19T08:47:28.409Z</time></trkpt><trkpt lat="43.0844111" lon="12.4434496"><ele>189.0</ele><time>2026-04-19T08:47:30.415Z</time></trkpt><trkpt lat="43.0844866" lon="12.44358"><ele>189.0</ele><time>2026-04-19T08:47:32.413Z</time></trkpt><trkpt lat="43.084566" lon="12.4437086"><ele>189.0</ele><time>2026-04-19T08:47:34.442Z</time></trkpt><trkpt lat="43.0846446" lon="12.4438325"><ele>189.0</ele><time>2026-04-19T08:47:36.408Z</time></trkpt><trkpt lat="43.0847244" lon="12.4439589"><ele>189.25</ele><time>2026-04-19T08:47:38.416Z</time></trkpt><trkpt lat="43.0847974" lon="12.4440837"><ele>189.5</ele><time>2026-04-19T08:47:40.42Z</time></trkpt><trkpt lat="43.0849045" lon="12.4442641"><ele>189.75</ele><time>2026-04-19T08:47:43.087Z</time></trkpt><trkpt lat="43.0849818" lon="12.4443935"><ele>190.0</ele><time>2026-04-19T08:47:45.087Z</time></trkpt><trkpt lat="43.0850546" lon="12.4445207"><ele>190.0</ele><time>2026-04-19T08:47:47.409Z</time></trkpt><trkpt lat="43.0851002" lon="12.4445839"><ele>190.0</ele><time>2026-04-19T08:47:48.409Z</time></trkpt><trkpt lat="43.08514" lon="12.4446546"><ele>190.0</ele><time>2026-04-19T08:47:49.41Z</time></trkpt><trkpt lat="43.0851807" lon="12.4447229"><ele>190.0</ele><time>2026-04-19T08:47:50.433Z</time></trkpt><trkpt lat="43.0852589" lon="12.4448473"><ele>190.0</ele><time>2026-04-19T08:47:52.481Z</time></trkpt><trkpt lat="43.0853312" lon="12.4449671"><ele>190.0</ele><time>2026-04-19T08:47:54.421Z</time></trkpt><trkpt lat="43.0854081" lon="12.4450913"><ele>190.0</ele><time>2026-04-19T08:47:56.415Z</time></trkpt><trkpt lat="43.0854831" lon="12.4452212"><ele>190.0</ele><time>2026-04-19T08:47:58.433Z</time></trkpt><trkpt lat="43.0855521" lon="12.4453503"><ele>190.0</ele><time>2026-04-19T08:48:00.407Z</time></trkpt><trkpt lat="43.085621" lon="12.4454903"><ele>190.0</ele><time>2026-04-19T08:48:02.407Z</time></trkpt><trkpt lat="43.0856551" lon="12.4455675"><ele>190.0</ele><time>2026-04-19T08:48:03.433Z</time></trkpt><trkpt lat="43.0857264" lon="12.4457058"><ele>190.0</ele><time>2026-04-19T08:48:05.439Z</time></trkpt><trkpt lat="43.0857647" lon="12.4457753"><ele>190.0</ele><time>2026-04-19T08:48:06.443Z</time></trkpt><trkpt lat="43.0858304" lon="12.4459131"><ele>190.0</ele><time>2026-04-19T08:48:08.423Z</time></trkpt><trkpt lat="43.085898" lon="12.446045"><ele>190.0</ele><time>2026-04-19T08:48:10.397Z</time></trkpt><trkpt lat="43.085973" lon="12.4461735"><ele>190.0</ele><time>2026-04-19T08:48:12.414Z</time></trkpt><trkpt lat="43.0860434" lon="12.4463067"><ele>189.8</ele><time>2026-04-19T08:48:14.399Z</time></trkpt><trkpt lat="43.0861117" lon="12.4464458"><ele>189.6</ele><time>2026-04-19T08:48:16.395Z</time></trkpt><trkpt lat="43.0861499" lon="12.4465176"><ele>189.39999999999998</ele><time>2026-04-19T08:48:17.447Z</time></trkpt><trkpt lat="43.086222" lon="12.4466507"><ele>189.2</ele><time>2026-04-19T08:48:19.407Z</time></trkpt><trkpt lat="43.0862918" lon="12.4467869"><ele>189.0</ele><time>2026-04-19T08:48:21.419Z</time></trkpt><trkpt lat="43.086327" lon="12.4468587"><ele>189.0</ele><time>2026-04-19T08:48:22.422Z</time></trkpt><trkpt lat="43.0863994" lon="12.4470014"><ele>189.0</ele><time>2026-04-19T08:48:24.445Z</time></trkpt><trkpt lat="43.0864757" lon="12.4471323"><ele>189.0</ele><time>2026-04-19T08:48:26.415Z</time></trkpt><trkpt lat="43.0865093" lon="12.447207"><ele>189.0</ele><time>2026-04-19T08:48:27.454Z</time></trkpt><trkpt lat="43.0865882" lon="12.4473372"><ele>189.0</ele><time>2026-04-19T08:48:29.508Z</time></trkpt><trkpt lat="43.0866602" lon="12.4474601"><ele>188.6</ele><time>2026-04-19T08:48:31.383Z</time></trkpt><trkpt lat="43.08671" lon="12.4475352"><ele>188.2</ele><time>2026-04-19T08:48:32.622Z</time></trkpt><trkpt lat="43.086792" lon="12.4476319"><ele>187.79999999999998</ele><time>2026-04-19T08:48:34.405Z</time></trkpt><trkpt lat="43.0868951" lon="12.447718"><ele>187.39999999999998</ele><time>2026-04-19T08:48:36.405Z</time></trkpt><trkpt lat="43.0870089" lon="12.4477854"><ele>187.0</ele><time>2026-04-19T08:48:38.413Z</time></trkpt><trkpt lat="43.0871292" lon="12.4477983"><ele>187.0</ele><time>2026-04-19T08:48:40.418Z</time></trkpt><trkpt lat="43.0872589" lon="12.4477678"><ele>187.0</ele><time>2026-04-19T08:48:42.501Z</time></trkpt><trkpt lat="43.0873599" lon="12.4477077"><ele>187.0</ele><time>2026-04-19T08:48:44.419Z</time></trkpt><trkpt lat="43.0874711" lon="12.4476496"><ele>187.0</ele><time>2026-04-19T08:48:46.423Z</time></trkpt><trkpt lat="43.0875754" lon="12.4476754"><ele>187.2</ele><time>2026-04-19T08:48:48.409Z</time></trkpt><trkpt lat="43.0876488" lon="12.4477689"><ele>187.39999999999998</ele><time>2026-04-19T08:48:50.412Z</time></trkpt><trkpt lat="43.0877076" lon="12.4479023"><ele>187.60000000000002</ele><time>2026-04-19T08:48:52.524Z</time></trkpt><trkpt lat="43.0877518" lon="12.4480441"><ele>187.8</ele><time>2026-04-19T08:48:54.425Z</time></trkpt><trkpt lat="43.0877911" lon="12.4481981"><ele>188.0</ele><time>2026-04-19T08:48:56.419Z</time></trkpt><trkpt lat="43.0878358" lon="12.4483431"><ele>187.0</ele><time>2026-04-19T08:48:58.438Z</time></trkpt><trkpt lat="43.0878976" lon="12.4485658"><ele>186.0</ele><time>2026-04-19T08:49:01.515Z</time></trkpt><trkpt lat="43.0879371" lon="12.4487059"><ele>185.0</ele><time>2026-04-19T08:49:03.43Z</time></trkpt><trkpt lat="43.0879803" lon="12.4488436"><ele>184.0</ele><time>2026-04-19T08:49:05.41Z</time></trkpt><trkpt lat="43.0880203" lon="12.4489884"><ele>183.0</ele><time>2026-04-19T08:49:07.4Z</time></trkpt><trkpt lat="43.0880667" lon="12.4491366"><ele>182.0</ele><time>2026-04-19T08:49:09.4Z</time></trkpt><trkpt lat="43.0881152" lon="12.4492828"><ele>181.0</ele><time>2026-04-19T08:49:11.413Z</time></trkpt><trkpt lat="43.088151" lon="12.4494278"><ele>180.0</ele><time>2026-04-19T08:49:13.385Z</time></trkpt><trkpt lat="43.0882013" lon="12.4495751"><ele>181.0</ele><time>2026-04-19T08:49:15.398Z</time></trkpt><trkpt lat="43.0882415" lon="12.4497301"><ele>182.0</ele><time>2026-04-19T08:49:17.41Z</time></trkpt><trkpt lat="43.0882852" lon="12.4498868"><ele>183.0</ele><time>2026-04-19T08:49:19.419Z</time></trkpt><trkpt lat="43.0883087" lon="12.4499767"><ele>184.0</ele><time>2026-04-19T08:49:20.538Z</time></trkpt><trkpt lat="43.0883482" lon="12.4501321"><ele>185.0</ele><time>2026-04-19T08:49:22.386Z</time></trkpt><trkpt lat="43.0883701" lon="12.4502286"><ele>185.16666666666666</ele><time>2026-04-19T08:49:23.403Z</time></trkpt><trkpt lat="43.0883966" lon="12.4503185"><ele>185.33333333333331</ele><time>2026-04-19T08:49:24.398Z</time></trkpt><trkpt lat="43.0884175" lon="12.4504166"><ele>185.5</ele><time>2026-04-19T08:49:25.433Z</time></trkpt><trkpt lat="43.0884418" lon="12.450507"><ele>185.66666666666666</ele><time>2026-04-19T08:49:26.4Z</time></trkpt><trkpt lat="43.088482" lon="12.4506344"><ele>185.83333333333334</ele><time>2026-04-19T08:49:28.419Z</time></trkpt><trkpt lat="43.0885106" lon="12.450727"><ele>186.0</ele><time>2026-04-19T08:49:30.413Z</time></trkpt><trkpt lat="43.0885778" lon="12.4507713"><ele>186.0</ele><time>2026-04-19T08:49:32.532Z</time></trkpt><trkpt lat="43.08862" lon="12.4506815"><ele>186.0</ele><time>2026-04-19T08:49:35.388Z</time></trkpt><trkpt lat="43.0886998" lon="12.4505824"><ele>186.0</ele><time>2026-04-19T08:49:36.366Z</time></trkpt><trkpt lat="43.0887687" lon="12.4505094"><ele>186.0</ele><time>2026-04-19T08:49:37.307Z</time></trkpt><trkpt lat="43.0888891" lon="12.4504786"><ele>186.0</ele><time>2026-04-19T08:49:39.383Z</time></trkpt><trkpt lat="43.0889528" lon="12.4504827"><ele>186.0</ele><time>2026-04-19T08:49:40.399Z</time></trkpt><trkpt lat="43.0890683" lon="12.4504854"><ele>186.0</ele><time>2026-04-19T08:49:42.386Z</time></trkpt><trkpt lat="43.0891734" lon="12.450483"><ele>186.0</ele><time>2026-04-19T08:49:44.4Z</time></trkpt><trkpt lat="43.0892792" lon="12.4505021"><ele>186.0</ele><time>2026-04-19T08:49:46.399Z</time></trkpt><trkpt lat="43.0893496" lon="12.4505191"><ele>186.0</ele><time>2026-04-19T08:49:47.645Z</time></trkpt><trkpt lat="43.0894391" lon="12.4505553"><ele>186.0</ele><time>2026-04-19T08:49:49.378Z</time></trkpt><trkpt lat="43.0895455" lon="12.4505953"><ele>186.0</ele><time>2026-04-19T08:49:51.396Z</time></trkpt><trkpt lat="43.0896505" lon="12.4506287"><ele>186.0</ele><time>2026-04-19T08:49:53.391Z</time></trkpt><trkpt lat="43.089757" lon="12.4506663"><ele>186.0</ele><time>2026-04-19T08:49:55.409Z</time></trkpt><trkpt lat="43.0898524" lon="12.4507515"><ele>186.0</ele><time>2026-04-19T08:49:57.398Z</time></trkpt><trkpt lat="43.0899341" lon="12.4508486"><ele>186.0</ele><time>2026-04-19T08:49:59.399Z</time></trkpt><trkpt lat="43.090033" lon="12.450879"><ele>186.0</ele><time>2026-04-19T08:50:01.378Z</time></trkpt><trkpt lat="43.0901274" lon="12.450817"><ele>186.0</ele><time>2026-04-19T08:50:03.397Z</time></trkpt><trkpt lat="43.0902223" lon="12.4507386"><ele>186.0</ele><time>2026-04-19T08:50:05.411Z</time></trkpt><trkpt lat="43.090317" lon="12.4506616"><ele>186.0</ele><time>2026-04-19T08:50:07.41Z</time></trkpt><trkpt lat="43.0904062" lon="12.4505854"><ele>186.0</ele><time>2026-04-19T08:50:09.415Z</time></trkpt><trkpt lat="43.0904912" lon="12.4504977"><ele>186.0</ele><time>2026-04-19T08:50:11.394Z</time></trkpt><trkpt lat="43.0905569" lon="12.450447"><ele>186.0</ele><time>2026-04-19T08:50:12.482Z</time></trkpt><trkpt lat="43.090651" lon="12.4503871"><ele>186.0</ele><time>2026-04-19T08:50:14.404Z</time></trkpt><trkpt lat="43.090748" lon="12.4503143"><ele>186.0</ele><time>2026-04-19T08:50:16.397Z</time></trkpt><trkpt lat="43.0908339" lon="12.450246"><ele>185.0</ele><time>2026-04-19T08:50:18.38Z</time></trkpt><trkpt lat="43.0909281" lon="12.4501753"><ele>184.0</ele><time>2026-04-19T08:50:20.397Z</time></trkpt><trkpt lat="43.0910289" lon="12.4500988"><ele>183.0</ele><time>2026-04-19T08:50:22.399Z</time></trkpt><trkpt lat="43.0911304" lon="12.4500291"><ele>182.0</ele><time>2026-04-19T08:50:24.4Z</time></trkpt><trkpt lat="43.0912338" lon="12.4499416"><ele>182.0</ele><time>2026-04-19T08:50:26.426Z</time></trkpt><trkpt lat="43.0912855" lon="12.4498858"><ele>182.0</ele><time>2026-04-19T08:50:27.396Z</time></trkpt><trkpt lat="43.0913552" lon="12.4498453"><ele>182.0</ele><time>2026-04-19T08:50:28.525Z</time></trkpt><trkpt lat="43.09148" lon="12.4497735"><ele>182.0</ele><time>2026-04-19T08:50:30.42Z</time></trkpt><trkpt lat="43.0915462" lon="12.4497498"><ele>182.0</ele><time>2026-04-19T08:50:31.444Z</time></trkpt><trkpt lat="43.0916693" lon="12.4497156"><ele>182.75</ele><time>2026-04-19T08:50:33.393Z</time></trkpt><trkpt lat="43.0917927" lon="12.4496878"><ele>183.5</ele><time>2026-04-19T08:50:35.401Z</time></trkpt><trkpt lat="43.0919099" lon="12.4496598"><ele>184.25</ele><time>2026-04-19T08:50:37.436Z</time></trkpt><trkpt lat="43.0920249" lon="12.4496419"><ele>185.0</ele><time>2026-04-19T08:50:39.437Z</time></trkpt><trkpt lat="43.0921376" lon="12.449628"><ele>185.0</ele><time>2026-04-19T08:50:41.429Z</time></trkpt><trkpt lat="43.0922513" lon="12.4496106"><ele>185.0</ele><time>2026-04-19T08:50:43.529Z</time></trkpt><trkpt lat="43.0923526" lon="12.4495924"><ele>185.0</ele><time>2026-04-19T08:50:45.407Z</time></trkpt><trkpt lat="43.0924638" lon="12.4495806"><ele>185.0</ele><time>2026-04-19T08:50:47.425Z</time></trkpt><trkpt lat="43.0925683" lon="12.4495505"><ele>185.0</ele><time>2026-04-19T08:50:49.422Z</time></trkpt><trkpt lat="43.0926734" lon="12.4495231"><ele>185.0</ele><time>2026-04-19T08:50:51.414Z</time></trkpt><trkpt lat="43.0927821" lon="12.449509"><ele>185.0</ele><time>2026-04-19T08:50:53.435Z</time></trkpt><trkpt lat="43.0928884" lon="12.4494838"><ele>185.0</ele><time>2026-04-19T08:50:55.384Z</time></trkpt><trkpt lat="43.0930429" lon="12.4494275"><ele>185.0</ele><time>2026-04-19T08:50:58.388Z</time></trkpt><trkpt lat="43.0931509" lon="12.4494191"><ele>185.8</ele><time>2026-04-19T08:51:00.381Z</time></trkpt><trkpt lat="43.0932669" lon="12.449405"><ele>186.6</ele><time>2026-04-19T08:51:02.405Z</time></trkpt><trkpt lat="43.0933661" lon="12.4493792"><ele>187.39999999999998</ele><time>2026-04-19T08:51:04.398Z</time></trkpt><trkpt lat="43.0934619" lon="12.4493595"><ele>188.2</ele><time>2026-04-19T08:51:06.409Z</time></trkpt><trkpt lat="43.0935579" lon="12.4493321"><ele>189.0</ele><time>2026-04-19T08:51:08.416Z</time></trkpt><trkpt lat="43.0936577" lon="12.4493066"><ele>189.0</ele><time>2026-04-19T08:51:10.406Z</time></trkpt><trkpt lat="43.0937648" lon="12.4492933"><ele>189.0</ele><time>2026-04-19T08:51:12.405Z</time></trkpt><trkpt lat="43.0938724" lon="12.4492736"><ele>189.0</ele><time>2026-04-19T08:51:14.395Z</time></trkpt><trkpt lat="43.0939827" lon="12.4492552"><ele>189.0</ele><time>2026-04-19T08:51:16.493Z</time></trkpt><trkpt lat="43.094081" lon="12.4492313"><ele>189.0</ele><time>2026-04-19T08:51:18.418Z</time></trkpt><trkpt lat="43.0941876" lon="12.4492115"><ele>188.79999999999998</ele><time>2026-04-19T08:51:20.42Z</time></trkpt><trkpt lat="43.0942904" lon="12.4491899"><ele>188.6</ele><time>2026-04-19T08:51:22.415Z</time></trkpt><trkpt lat="43.0943966" lon="12.4491753"><ele>188.4</ele><time>2026-04-19T08:51:24.433Z</time></trkpt><trkpt lat="43.0945018" lon="12.4491572"><ele>188.2</ele><time>2026-04-19T08:51:26.41Z</time></trkpt><trkpt lat="43.0946048" lon="12.4491282"><ele>188.0</ele><time>2026-04-19T08:51:28.424Z</time></trkpt><trkpt lat="43.0947106" lon="12.4491195"><ele>188.0</ele><time>2026-04-19T08:51:30.423Z</time></trkpt><trkpt lat="43.0948188" lon="12.4491119"><ele>188.0</ele><time>2026-04-19T08:51:32.432Z</time></trkpt><trkpt lat="43.0949298" lon="12.4491376"><ele>188.0</ele><time>2026-04-19T08:51:34.401Z</time></trkpt><trkpt lat="43.0950355" lon="12.449193"><ele>188.0</ele><time>2026-04-19T08:51:36.404Z</time></trkpt><trkpt lat="43.0951248" lon="12.44929"><ele>188.0</ele><time>2026-04-19T08:51:38.423Z</time></trkpt><trkpt lat="43.0952177" lon="12.4494647"><ele>188.0</ele><time>2026-04-19T08:51:41.414Z</time></trkpt><trkpt lat="43.0952719" lon="12.4495974"><ele>188.0</ele><time>2026-04-19T08:51:43.403Z</time></trkpt><trkpt lat="43.0953252" lon="12.4497328"><ele>188.0</ele><time>2026-04-19T08:51:45.411Z</time></trkpt><trkpt lat="43.0953743" lon="12.4498713"><ele>188.0</ele><time>2026-04-19T08:51:47.376Z</time></trkpt><trkpt lat="43.0954274" lon="12.4500091"><ele>188.0</ele><time>2026-04-19T08:51:49.394Z</time></trkpt><trkpt lat="43.0954759" lon="12.4501584"><ele>188.0</ele><time>2026-04-19T08:51:51.516Z</time></trkpt><trkpt lat="43.0955218" lon="12.4502936"><ele>188.0</ele><time>2026-04-19T08:51:53.446Z</time></trkpt><trkpt lat="43.0955716" lon="12.4504331"><ele>188.0</ele><time>2026-04-19T08:51:55.498Z</time></trkpt><trkpt lat="43.0956211" lon="12.4505639"><ele>188.0</ele><time>2026-04-19T08:51:57.413Z</time></trkpt><trkpt lat="43.0956673" lon="12.4507015"><ele>188.5</ele><time>2026-04-19T08:51:59.419Z</time></trkpt><trkpt lat="43.0957229" lon="12.4508502"><ele>189.0</ele><time>2026-04-19T08:52:01.511Z</time></trkpt><trkpt lat="43.0957741" lon="12.4509777"><ele>189.5</ele><time>2026-04-19T08:52:03.413Z</time></trkpt><trkpt lat="43.0958213" lon="12.4511212"><ele>190.0</ele><time>2026-04-19T08:52:05.404Z</time></trkpt><trkpt lat="43.0958721" lon="12.4512569"><ele>190.0</ele><time>2026-04-19T08:52:07.39Z</time></trkpt><trkpt lat="43.0959225" lon="12.4514006"><ele>190.0</ele><time>2026-04-19T08:52:09.401Z</time></trkpt><trkpt lat="43.0959804" lon="12.451537"><ele>190.0</ele><time>2026-04-19T08:52:11.406Z</time></trkpt><trkpt lat="43.0960351" lon="12.4516863"><ele>190.0</ele><time>2026-04-19T08:52:13.514Z</time></trkpt><trkpt lat="43.0960849" lon="12.4518157"><ele>190.0</ele><time>2026-04-19T08:52:15.381Z</time></trkpt><trkpt lat="43.0961487" lon="12.4519431"><ele>190.0</ele><time>2026-04-19T08:52:17.401Z</time></trkpt><trkpt lat="43.0962153" lon="12.4520469"><ele>190.0</ele><time>2026-04-19T08:52:19.392Z</time></trkpt><trkpt lat="43.0963014" lon="12.452151"><ele>190.0</ele><time>2026-04-19T08:52:21.446Z</time></trkpt><trkpt lat="43.0963813" lon="12.4522468"><ele>190.0</ele><time>2026-04-19T08:52:23.403Z</time></trkpt><trkpt lat="43.0964803" lon="12.4523395"><ele>189.6</ele><time>2026-04-19T08:52:25.428Z</time></trkpt><trkpt lat="43.0965614" lon="12.4524405"><ele>189.2</ele><time>2026-04-19T08:52:27.417Z</time></trkpt><trkpt lat="43.0966357" lon="12.4525463"><ele>188.8</ele><time>2026-04-19T08:52:29.429Z</time></trkpt><trkpt lat="43.0967189" lon="12.4526976"><ele>188.4</ele><time>2026-04-19T08:52:32.463Z</time></trkpt><trkpt lat="43.0967744" lon="12.4527911"><ele>188.0</ele><time>2026-04-19T08:52:34.422Z</time></trkpt><trkpt lat="43.0968325" lon="12.4528821"><ele>188.5</ele><time>2026-04-19T08:52:36.541Z</time></trkpt><trkpt lat="43.0968811" lon="12.4529604"><ele>189.0</ele><time>2026-04-19T08:52:38.449Z</time></trkpt><trkpt lat="43.0969329" lon="12.4530472"><ele>189.5</ele><time>2026-04-19T08:52:40.42Z</time></trkpt><trkpt lat="43.0969869" lon="12.4531288"><ele>190.0</ele><time>2026-04-19T08:52:42.414Z</time></trkpt><trkpt lat="43.0970471" lon="12.4532065"><ele>190.5</ele><time>2026-04-19T08:52:44.42Z</time></trkpt><trkpt lat="43.0971102" lon="12.4532815"><ele>191.0</ele><time>2026-04-19T08:52:46.418Z</time></trkpt><trkpt lat="43.0972174" lon="12.4533797"><ele>191.0</ele><time>2026-04-19T08:52:49.438Z</time></trkpt><trkpt lat="43.0972922" lon="12.4534249"><ele>191.0</ele><time>2026-04-19T08:52:51.419Z</time></trkpt><trkpt lat="43.0973777" lon="12.4534583"><ele>191.0</ele><time>2026-04-19T08:52:53.465Z</time></trkpt><trkpt lat="43.097464" lon="12.4534925"><ele>191.0</ele><time>2026-04-19T08:52:55.452Z</time></trkpt><trkpt lat="43.0975487" lon="12.4535211"><ele>191.0</ele><time>2026-04-19T08:52:57.414Z</time></trkpt><trkpt lat="43.0976815" lon="12.453567"><ele>193.60000000000002</ele><time>2026-04-19T08:53:00.412Z</time></trkpt><trkpt lat="43.0977757" lon="12.4536001"><ele>196.2</ele><time>2026-04-19T08:53:02.401Z</time></trkpt><trkpt lat="43.0978768" lon="12.4536206"><ele>198.8</ele><time>2026-04-19T08:53:04.414Z</time></trkpt><trkpt lat="43.0979668" lon="12.4536552"><ele>201.39999999999998</ele><time>2026-04-19T08:53:06.387Z</time></trkpt><trkpt lat="43.0980762" lon="12.4536892"><ele>204.0</ele><time>2026-04-19T08:53:08.383Z</time></trkpt><trkpt lat="43.0981839" lon="12.4537048"><ele>205.0</ele><time>2026-04-19T08:53:10.365Z</time></trkpt><trkpt lat="43.0982992" lon="12.453705"><ele>206.0</ele><time>2026-04-19T08:53:12.661Z</time></trkpt><trkpt lat="43.0984127" lon="12.4536713"><ele>207.0</ele><time>2026-04-19T08:53:14.496Z</time></trkpt><trkpt lat="43.0985452" lon="12.4536405"><ele>208.0</ele><time>2026-04-19T08:53:16.389Z</time></trkpt><trkpt lat="43.0986087" lon="12.4536108"><ele>209.0</ele><time>2026-04-19T08:53:17.403Z</time></trkpt><trkpt lat="43.0986703" lon="12.4535656"><ele>209.00000000000003</ele><time>2026-04-19T08:53:18.403Z</time></trkpt><trkpt lat="43.0987261" lon="12.4535185"><ele>209.0</ele><time>2026-04-19T08:53:19.396Z</time></trkpt><trkpt lat="43.0987891" lon="12.4534601"><ele>209.0</ele><time>2026-04-19T08:53:20.521Z</time></trkpt><trkpt lat="43.0988959" lon="12.4533641"><ele>209.0</ele><time>2026-04-19T08:53:22.439Z</time></trkpt><trkpt lat="43.0989466" lon="12.4533032"><ele>209.00000000000003</ele><time>2026-04-19T08:53:23.41Z</time></trkpt><trkpt lat="43.098994" lon="12.4532381"><ele>209.0</ele><time>2026-04-19T08:53:24.395Z</time></trkpt><trkpt lat="43.0990377" lon="12.4531625"><ele>209.0</ele><time>2026-04-19T08:53:25.407Z</time></trkpt><trkpt lat="43.0990792" lon="12.4530823"><ele>209.0</ele><time>2026-04-19T08:53:26.408Z</time></trkpt><trkpt lat="43.0991216" lon="12.453002"><ele>209.0</ele><time>2026-04-19T08:53:27.417Z</time></trkpt><trkpt lat="43.0991643" lon="12.4529276"><ele>209.0</ele><time>2026-04-19T08:53:28.419Z</time></trkpt><trkpt lat="43.0992045" lon="12.4528526"><ele>209.0</ele><time>2026-04-19T08:53:29.388Z</time></trkpt><trkpt lat="43.0992397" lon="12.4527676"><ele>209.0</ele><time>2026-04-19T08:53:30.41Z</time></trkpt><trkpt lat="43.0992717" lon="12.4526807"><ele>209.0</ele><time>2026-04-19T08:53:31.423Z</time></trkpt><trkpt lat="43.099304" lon="12.4525982"><ele>208.71428571428572</ele><time>2026-04-19T08:53:32.423Z</time></trkpt><trkpt lat="43.0993368" lon="12.4525175"><ele>208.42857142857142</ele><time>2026-04-19T08:53:33.418Z</time></trkpt><trkpt lat="43.0993682" lon="12.4524351"><ele>208.14285714285717</ele><time>2026-04-19T08:53:34.406Z</time></trkpt><trkpt lat="43.0993997" lon="12.4523546"><ele>207.85714285714286</ele><time>2026-04-19T08:53:35.389Z</time></trkpt><trkpt lat="43.099435" lon="12.452271"><ele>207.57142857142858</ele><time>2026-04-19T08:53:36.412Z</time></trkpt><trkpt lat="43.099468" lon="12.4521906"><ele>207.2857142857143</ele><time>2026-04-19T08:53:37.41Z</time></trkpt><trkpt lat="43.0994982" lon="12.4521125"><ele>207.0</ele><time>2026-04-19T08:53:38.38Z</time></trkpt><trkpt lat="43.0995274" lon="12.4520313"><ele>210.39999999999998</ele><time>2026-04-19T08:53:39.39Z</time></trkpt><trkpt lat="43.099563" lon="12.4519448"><ele>213.79999999999998</ele><time>2026-04-19T08:53:40.499Z</time></trkpt><trkpt lat="43.0996186" lon="12.4517963"><ele>217.2</ele><time>2026-04-19T08:53:42.382Z</time></trkpt><trkpt lat="43.0996479" lon="12.4517176"><ele>220.6</ele><time>2026-04-19T08:53:43.405Z</time></trkpt><trkpt lat="43.0997026" lon="12.4515733"><ele>224.0</ele><time>2026-04-19T08:53:45.386Z</time></trkpt><trkpt lat="43.0997584" lon="12.451431"><ele>224.0</ele><time>2026-04-19T08:53:47.391Z</time></trkpt><trkpt lat="43.0998139" lon="12.4512974"><ele>223.99999999999997</ele><time>2026-04-19T08:53:49.36Z</time></trkpt><trkpt lat="43.0998646" lon="12.4511649"><ele>223.99999999999997</ele><time>2026-04-19T08:53:51.377Z</time></trkpt><trkpt lat="43.0999135" lon="12.4510335"><ele>224.0</ele><time>2026-04-19T08:53:53.368Z</time></trkpt><trkpt lat="43.0999619" lon="12.4509039"><ele>224.0</ele><time>2026-04-19T08:53:55.392Z</time></trkpt><trkpt lat="43.1000063" lon="12.4507835"><ele>219.5</ele><time>2026-04-19T08:53:57.393Z</time></trkpt><trkpt lat="43.1000576" lon="12.450664"><ele>215.0</ele><time>2026-04-19T08:53:59.379Z</time></trkpt><trkpt lat="43.100099" lon="12.4505358"><ele>210.5</ele><time>2026-04-19T08:54:01.386Z</time></trkpt><trkpt lat="43.1001294" lon="12.4503989"><ele>206.0</ele><time>2026-04-19T08:54:03.389Z</time></trkpt><trkpt lat="43.1002014" lon="12.4502193"><ele>206.0</ele><time>2026-04-19T08:54:06.385Z</time></trkpt><trkpt lat="43.1002545" lon="12.4500903"><ele>206.0</ele><time>2026-04-19T08:54:08.394Z</time></trkpt><trkpt lat="43.1003067" lon="12.4499658"><ele>206.0</ele><time>2026-04-19T08:54:10.379Z</time></trkpt><trkpt lat="43.1003568" lon="12.4498475"><ele>206.0</ele><time>2026-04-19T08:54:12.392Z</time></trkpt><trkpt lat="43.1004219" lon="12.449729"><ele>206.0</ele><time>2026-04-19T08:54:14.408Z</time></trkpt><trkpt lat="43.1004692" lon="12.4496098"><ele>210.4</ele><time>2026-04-19T08:54:16.406Z</time></trkpt><trkpt lat="43.1005125" lon="12.4494928"><ele>214.8</ele><time>2026-04-19T08:54:18.403Z</time></trkpt><trkpt lat="43.1005632" lon="12.4493707"><ele>219.20000000000002</ele><time>2026-04-19T08:54:20.353Z</time></trkpt><trkpt lat="43.1006059" lon="12.4492478"><ele>223.60000000000002</ele><time>2026-04-19T08:54:22.388Z</time></trkpt><trkpt lat="43.1006493" lon="12.4491316"><ele>228.0</ele><time>2026-04-19T08:54:24.376Z</time></trkpt><trkpt lat="43.1007067" lon="12.4490091"><ele>224.0</ele><time>2026-04-19T08:54:26.407Z</time></trkpt><trkpt lat="43.10076" lon="12.4488839"><ele>220.0</ele><time>2026-04-19T08:54:28.394Z</time></trkpt><trkpt lat="43.1008117" lon="12.4487558"><ele>216.0</ele><time>2026-04-19T08:54:30.397Z</time></trkpt><trkpt lat="43.1008692" lon="12.4486306"><ele>212.0</ele><time>2026-04-19T08:54:32.393Z</time></trkpt><trkpt lat="43.1009511" lon="12.4485143"><ele>208.0</ele><time>2026-04-19T08:54:34.487Z</time></trkpt><trkpt lat="43.1010339" lon="12.4484194"><ele>208.0</ele><time>2026-04-19T08:54:36.418Z</time></trkpt><trkpt lat="43.1011257" lon="12.4483237"><ele>208.0</ele><time>2026-04-19T08:54:38.364Z</time></trkpt><trkpt lat="43.1012222" lon="12.4482429"><ele>208.0</ele><time>2026-04-19T08:54:40.352Z</time></trkpt><trkpt lat="43.1013207" lon="12.4481616"><ele>208.0</ele><time>2026-04-19T08:54:42.384Z</time></trkpt><trkpt lat="43.1014138" lon="12.4480772"><ele>208.0</ele><time>2026-04-19T08:54:44.364Z</time></trkpt><trkpt lat="43.1015049" lon="12.4479901"><ele>208.0</ele><time>2026-04-19T08:54:46.388Z</time></trkpt><trkpt lat="43.101594" lon="12.4479064"><ele>208.0</ele><time>2026-04-19T08:54:48.392Z</time></trkpt><trkpt lat="43.1016866" lon="12.447825"><ele>208.0</ele><time>2026-04-19T08:54:50.394Z</time></trkpt><trkpt lat="43.1017819" lon="12.4477466"><ele>208.0</ele><time>2026-04-19T08:54:52.42Z</time></trkpt><trkpt lat="43.1018722" lon="12.4476673"><ele>207.4</ele><time>2026-04-19T08:54:54.395Z</time></trkpt><trkpt lat="43.1019634" lon="12.4475892"><ele>206.8</ele><time>2026-04-19T08:54:56.398Z</time></trkpt><trkpt lat="43.1020447" lon="12.4475097"><ele>206.2</ele><time>2026-04-19T08:54:58.394Z</time></trkpt><trkpt lat="43.1021333" lon="12.4474365"><ele>205.6</ele><time>2026-04-19T08:55:00.404Z</time></trkpt><trkpt lat="43.1022108" lon="12.4473697"><ele>205.0</ele><time>2026-04-19T08:55:02.378Z</time></trkpt><trkpt lat="43.1022858" lon="12.4473046"><ele>204.99999999999997</ele><time>2026-04-19T08:55:04.433Z</time></trkpt><trkpt lat="43.1023599" lon="12.4472459"><ele>205.0</ele><time>2026-04-19T08:55:06.415Z</time></trkpt><trkpt lat="43.1024281" lon="12.4471806"><ele>205.0</ele><time>2026-04-19T08:55:08.409Z</time></trkpt><trkpt lat="43.1024903" lon="12.4471182"><ele>205.0</ele><time>2026-04-19T08:55:10.371Z</time></trkpt><trkpt lat="43.1025559" lon="12.4470602"><ele>204.99999999999997</ele><time>2026-04-19T08:55:12.399Z</time></trkpt><trkpt lat="43.1026243" lon="12.4469967"><ele>205.0</ele><time>2026-04-19T08:55:14.429Z</time></trkpt><trkpt lat="43.1026926" lon="12.4469411"><ele>206.66666666666666</ele><time>2026-04-19T08:55:16.391Z</time></trkpt><trkpt lat="43.102765" lon="12.4468904"><ele>208.33333333333331</ele><time>2026-04-19T08:55:18.417Z</time></trkpt><trkpt lat="43.1028341" lon="12.4468281"><ele>210.0</ele><time>2026-04-19T08:55:20.397Z</time></trkpt><trkpt lat="43.1028996" lon="12.4467691"><ele>211.66666666666669</ele><time>2026-04-19T08:55:22.407Z</time></trkpt><trkpt lat="43.1029687" lon="12.4467142"><ele>213.33333333333334</ele><time>2026-04-19T08:55:24.415Z</time></trkpt><trkpt lat="43.1030323" lon="12.4466571"><ele>215.0</ele><time>2026-04-19T08:55:26.421Z</time></trkpt><trkpt lat="43.1030936" lon="12.4466136"><ele>215.0</ele><time>2026-04-19T08:55:28.425Z</time></trkpt><trkpt lat="43.103152" lon="12.4465693"><ele>215.0</ele><time>2026-04-19T08:55:31.404Z</time></trkpt><trkpt lat="43.103215" lon="12.4465332"><ele>215.0</ele><time>2026-04-19T08:58:06.411Z</time></trkpt><trkpt lat="43.1032747" lon="12.4464928"><ele>215.0</ele><time>2026-04-19T08:58:08.375Z</time></trkpt><trkpt lat="43.1033482" lon="12.4464152"><ele>215.0</ele><time>2026-04-19T08:58:11.386Z</time></trkpt><trkpt lat="43.1034082" lon="12.4463687"><ele>215.0</ele><time>2026-04-19T08:58:13.383Z</time></trkpt><trkpt lat="43.1034764" lon="12.4463017"><ele>215.0</ele><time>2026-04-19T08:58:15.478Z</time></trkpt><trkpt lat="43.1035363" lon="12.4462402"><ele>217.50000000000003</ele><time>2026-04-19T08:58:17.406Z</time></trkpt><trkpt lat="43.1036051" lon="12.4461768"><ele>220.0</ele><time>2026-04-19T08:58:19.42Z</time></trkpt><trkpt lat="43.1036719" lon="12.4461101"><ele>222.5</ele><time>2026-04-19T08:58:21.398Z</time></trkpt><trkpt lat="43.1037459" lon="12.4460567"><ele>225.0</ele><time>2026-04-19T08:58:23.406Z</time></trkpt><trkpt lat="43.1038151" lon="12.4459992"><ele>227.50000000000003</ele><time>2026-04-19T08:58:25.393Z</time></trkpt><trkpt lat="43.1038826" lon="12.4459391"><ele>230.0</ele><time>2026-04-19T08:58:27.409Z</time></trkpt><trkpt lat="43.1039871" lon="12.4458697"><ele>230.00000000000003</ele><time>2026-04-19T08:58:30.399Z</time></trkpt><trkpt lat="43.1040579" lon="12.4458232"><ele>230.0</ele><time>2026-04-19T08:58:32.391Z</time></trkpt><trkpt lat="43.1041198" lon="12.4457574"><ele>230.0</ele><time>2026-04-19T08:58:34.408Z</time></trkpt><trkpt lat="43.1041867" lon="12.445708"><ele>230.0</ele><time>2026-04-19T08:58:36.388Z</time></trkpt><trkpt lat="43.104296" lon="12.4456466"><ele>230.00000000000003</ele><time>2026-04-19T08:58:39.395Z</time></trkpt><trkpt lat="43.1043632" lon="12.4456167"><ele>230.0</ele><time>2026-04-19T08:58:41.362Z</time></trkpt><trkpt lat="43.1044382" lon="12.4455786"><ele>232.6</ele><time>2026-04-19T08:58:43.374Z</time></trkpt><trkpt lat="43.1045221" lon="12.445552"><ele>235.2</ele><time>2026-04-19T08:58:45.407Z</time></trkpt><trkpt lat="43.1045973" lon="12.4455164"><ele>237.8</ele><time>2026-04-19T08:58:47.402Z</time></trkpt><trkpt lat="43.104724" lon="12.4454752"><ele>240.4</ele><time>2026-04-19T08:58:50.388Z</time></trkpt><trkpt lat="43.1047999" lon="12.445442"><ele>243.0</ele><time>2026-04-19T08:58:52.393Z</time></trkpt><trkpt lat="43.1048756" lon="12.445408"><ele>238.33333333333334</ele><time>2026-04-19T08:58:54.37Z</time></trkpt><trkpt lat="43.1049572" lon="12.4453888"><ele>233.66666666666669</ele><time>2026-04-19T08:58:56.392Z</time></trkpt><trkpt lat="43.1050466" lon="12.4453683"><ele>229.0</ele><time>2026-04-19T08:58:58.492Z</time></trkpt><trkpt lat="43.1051265" lon="12.4453354"><ele>224.33333333333334</ele><time>2026-04-19T08:59:00.393Z</time></trkpt><trkpt lat="43.1052157" lon="12.4453143"><ele>219.66666666666669</ele><time>2026-04-19T08:59:02.395Z</time></trkpt><trkpt lat="43.1052985" lon="12.4452834"><ele>215.0</ele><time>2026-04-19T08:59:04.402Z</time></trkpt><trkpt lat="43.1053774" lon="12.4452603"><ele>215.00000000000003</ele><time>2026-04-19T08:59:06.381Z</time></trkpt><trkpt lat="43.1054597" lon="12.4452221"><ele>215.0</ele><time>2026-04-19T08:59:08.397Z</time></trkpt><trkpt lat="43.105536" lon="12.4451926"><ele>215.0</ele><time>2026-04-19T08:59:10.392Z</time></trkpt><trkpt lat="43.1056054" lon="12.445155"><ele>215.0</ele><time>2026-04-19T08:59:12.417Z</time></trkpt><trkpt lat="43.1056941" lon="12.4451342"><ele>215.00000000000003</ele><time>2026-04-19T08:59:14.403Z</time></trkpt><trkpt lat="43.1057807" lon="12.4451086"><ele>215.0</ele><time>2026-04-19T08:59:16.412Z</time></trkpt><trkpt lat="43.105859" lon="12.4450828"><ele>213.00000000000003</ele><time>2026-04-19T08:59:18.379Z</time></trkpt><trkpt lat="43.1059358" lon="12.4450603"><ele>211.0</ele><time>2026-04-19T08:59:20.398Z</time></trkpt><trkpt lat="43.1060082" lon="12.4450331"><ele>209.0</ele><time>2026-04-19T08:59:22.39Z</time></trkpt><trkpt lat="43.1060873" lon="12.4450055"><ele>207.0</ele><time>2026-04-19T08:59:24.389Z</time></trkpt><trkpt lat="43.1061678" lon="12.4449788"><ele>205.00000000000003</ele><time>2026-04-19T08:59:26.492Z</time></trkpt><trkpt lat="43.1062466" lon="12.4449557"><ele>203.0</ele><time>2026-04-19T08:59:28.4Z</time></trkpt><trkpt lat="43.106326" lon="12.4449395"><ele>203.0</ele><time>2026-04-19T08:59:30.409Z</time></trkpt><trkpt lat="43.106398" lon="12.4449042"><ele>203.0</ele><time>2026-04-19T08:59:32.387Z</time></trkpt><trkpt lat="43.1064662" lon="12.4448818"><ele>203.0</ele><time>2026-04-19T08:59:34.394Z</time></trkpt><trkpt lat="43.1065462" lon="12.4448687"><ele>203.0</ele><time>2026-04-19T08:59:36.37Z</time></trkpt><trkpt lat="43.1066199" lon="12.4448551"><ele>203.0</ele><time>2026-04-19T08:59:38.431Z</time></trkpt><trkpt lat="43.1066922" lon="12.444835"><ele>203.0</ele><time>2026-04-19T08:59:40.395Z</time></trkpt><trkpt lat="43.1067622" lon="12.4448188"><ele>203.0</ele><time>2026-04-19T08:59:42.421Z</time></trkpt><trkpt lat="43.106854" lon="12.4448053"><ele>202.71428571428572</ele><time>2026-04-19T08:59:45.408Z</time></trkpt><trkpt lat="43.1069213" lon="12.4448151"><ele>202.42857142857144</ele><time>2026-04-19T08:59:47.409Z</time></trkpt><trkpt lat="43.1069954" lon="12.4448063"><ele>202.14285714285714</ele><time>2026-04-19T08:59:50.372Z</time></trkpt><trkpt lat="43.1070654" lon="12.4447873"><ele>201.85714285714286</ele><time>2026-04-19T08:59:53.38Z</time></trkpt><trkpt lat="43.1071337" lon="12.444781"><ele>201.57142857142858</ele><time>2026-04-19T08:59:57.402Z</time></trkpt><trkpt lat="43.1072036" lon="12.4447947"><ele>201.28571428571428</ele><time>2026-04-19T09:00:01.423Z</time></trkpt><trkpt lat="43.1072794" lon="12.4447916"><ele>201.0</ele><time>2026-04-19T09:00:06.389Z</time></trkpt><trkpt lat="43.1073373" lon="12.4447513"><ele>201.0</ele><time>2026-04-19T09:00:10.408Z</time></trkpt><trkpt lat="43.107405" lon="12.4447151"><ele>201.0</ele><time>2026-04-19T09:00:14.393Z</time></trkpt><trkpt lat="43.1074627" lon="12.4446465"><ele>201.0</ele><time>2026-04-19T09:00:18.415Z</time></trkpt><trkpt lat="43.1074928" lon="12.4445596"><ele>201.0</ele><time>2026-04-19T09:00:26.408Z</time></trkpt><trkpt lat="43.10752" lon="12.4444735"><ele>201.0</ele><time>2026-04-19T09:00:30.374Z</time></trkpt><trkpt lat="43.1075679" lon="12.4444142"><ele>201.0</ele><time>2026-04-19T09:00:34.399Z</time></trkpt><trkpt lat="43.1075636" lon="12.4443141"><ele>201.0</ele><time>2026-04-19T09:00:39.409Z</time></trkpt><trkpt lat="43.1075608" lon="12.4442258"><ele>201.85714285714286</ele><time>2026-04-19T09:00:44.499Z</time></trkpt><trkpt lat="43.1075892" lon="12.4441392"><ele>202.71428571428572</ele><time>2026-04-19T09:00:49.402Z</time></trkpt><trkpt lat="43.1075782" lon="12.4440388"><ele>203.57142857142858</ele><time>2026-04-19T09:00:54.614Z</time></trkpt><trkpt lat="43.1075706" lon="12.4439529"><ele>204.42857142857144</ele><time>2026-04-19T09:00:58.441Z</time></trkpt><trkpt lat="43.1075673" lon="12.4438593"><ele>205.28571428571428</ele><time>2026-04-19T09:01:03.399Z</time></trkpt><trkpt lat="43.1075472" lon="12.4437718"><ele>206.14285714285717</ele><time>2026-04-19T09:01:08.414Z</time></trkpt><trkpt lat="43.1075287" lon="12.4436782"><ele>207.0</ele><time>2026-04-19T09:01:13.401Z</time></trkpt><trkpt lat="43.1075264" lon="12.4435899"><ele>208.71428571428572</ele><time>2026-04-19T09:01:17.523Z</time></trkpt><trkpt lat="43.107543" lon="12.4434958"><ele>210.42857142857144</ele><time>2026-04-19T09:01:23.385Z</time></trkpt><trkpt lat="43.1075489" lon="12.443403"><ele>212.14285714285717</ele><time>2026-04-19T09:01:29.391Z</time></trkpt><trkpt lat="43.1075429" lon="12.4433105"><ele>213.85714285714286</ele><time>2026-04-19T09:01:34.414Z</time></trkpt><trkpt lat="43.107541" lon="12.4432203"><ele>215.57142857142856</ele><time>2026-04-19T09:01:39.527Z</time></trkpt><trkpt lat="43.1075522" lon="12.4431225"><ele>217.2857142857143</ele><time>2026-04-19T09:01:45.388Z</time></trkpt><trkpt lat="43.1075844" lon="12.4430448"><ele>219.0</ele><time>2026-04-19T09:01:52.413Z</time></trkpt><trkpt lat="43.1076082" lon="12.442964"><ele>221.14285714285717</ele><time>2026-04-19T09:01:58.463Z</time></trkpt><trkpt lat="43.1076463" lon="12.4428832"><ele>223.28571428571428</ele><time>2026-04-19T09:02:05.406Z</time></trkpt><trkpt lat="43.1076871" lon="12.4428146"><ele>225.42857142857144</ele><time>2026-04-19T09:02:11.421Z</time></trkpt><trkpt lat="43.1077373" lon="12.4427488"><ele>227.57142857142858</ele><time>2026-04-19T09:02:17.415Z</time></trkpt><trkpt lat="43.1077875" lon="12.4426782"><ele>229.71428571428572</ele><time>2026-04-19T09:02:23.396Z</time></trkpt><trkpt lat="43.1078398" lon="12.4426043"><ele>231.85714285714286</ele><time>2026-04-19T09:02:29.412Z</time></trkpt><trkpt lat="43.1078844" lon="12.4425342"><ele>234.0</ele><time>2026-04-19T09:02:35.406Z</time></trkpt><trkpt lat="43.1079441" lon="12.4424791"><ele>234.0</ele><time>2026-04-19T09:02:41.399Z</time></trkpt><trkpt lat="43.1079903" lon="12.4424086"><ele>234.00000000000003</ele><time>2026-04-19T09:02:47.41Z</time></trkpt><trkpt lat="43.1080429" lon="12.442338"><ele>234.0</ele><time>2026-04-19T09:02:54.404Z</time></trkpt><trkpt lat="43.1080973" lon="12.4422945"><ele>234.0</ele><time>2026-04-19T09:02:59.414Z</time></trkpt><trkpt lat="43.1081579" lon="12.4422366"><ele>234.00000000000003</ele><time>2026-04-19T09:03:05.414Z</time></trkpt><trkpt lat="43.1081957" lon="12.442161"><ele>234.0</ele><time>2026-04-19T09:03:10.432Z</time></trkpt><trkpt lat="43.1082421" lon="12.4420942"><ele>234.0</ele><time>2026-04-19T09:03:15.434Z</time></trkpt><trkpt lat="43.1082943" lon="12.442044"><ele>243.0</ele><time>2026-04-19T09:03:20.441Z</time></trkpt><trkpt lat="43.1083257" lon="12.4419646"><ele>243.0</ele><time>2026-04-19T09:03:25.462Z</time></trkpt><trkpt lat="43.1083909" lon="12.4419431"><ele>243.0</ele><time>2026-04-19T09:03:32.401Z</time></trkpt><trkpt lat="43.1084523" lon="12.4419789"><ele>243.0</ele><time>2026-04-19T09:03:59.407Z</time></trkpt><trkpt lat="43.1085073" lon="12.4420366"><ele>243.0</ele><time>2026-04-19T09:04:04.409Z</time></trkpt><trkpt lat="43.1084429" lon="12.4420234"><ele>243.0</ele><time>2026-04-19T09:04:10.409Z</time></trkpt></trkseg></trk></gpx>